Darstellungsparameter: Aktuell verwendete Einstellungen:
Skalierung der Graphiken ... ?
xyx+y,   Skalierungsfaktor:      Skalierung: Modus: x, Faktor: 1
Darstellungszeitraum ... ?
Vom - - bis: - -   Zeitraum: 14.10.2010 - 12.11.2010
Min/Max/Avg-Anzeige ... ?
Zeige MMA aktuell
Zeige MMA Monat
Zeige MMA alles
Zeige --A aktuell
Zeige --A Monat
Zeige --A alles
Keine MMA-Anzeige
MMA:
Average (ber die Originaldaten)
MMA-Basis: 14.10.2010 - 12.11.2010
Quicknavigation für Darstellung... ?
Tage:      1T, 2T, 3T, 5T -1T -2T -3T -5T +1T +2T +3T +5T
Wochen: 1W, 2W, 3W -1W -2W -3W +1W +2W +3W
Monate: 1M, 3M, 6M -1M -3M -6M +1M +3M +6M
Jahre:    1J, 3J, 5J, 10J -1J -3J -5J -10J +1J +3J +5J +10J
Nutze für die Darstellung ... ?
Originaldaten oder Mittelwerte auf ...
Stundenbasis Tagesbasis Wochenbasis
Monatsbasis Jahresbasis      Datenbasis: Original-Daten
Darstellen als:
Statistik (Auto) Statistik J:M      Darstellung:
Zur Graphik,    zurück zur Übersicht aller Sensoren.
 
Tabellarische Datenbersicht: ?
 
Sensor: Nr:Datum:Temp:Abs-Feuchte:Windchill:Wind:
Aussen-T/F 1 14-10-2010 00:02:03 4.1 C 5.5 g/m*3 4.1 C 0 km/h
2 14-10-2010 00:14:03 4.1 C 5.57 g/m*3 4.1 C 0 km/h
3 14-10-2010 00:26:03 3.9 C 5.56 g/m*3 3.9 C 0 km/h
4 14-10-2010 00:38:03 3.7 C 5.48 g/m*3 3.7 C 0 km/h
5 14-10-2010 00:50:03 3.6 C 5.45 g/m*3 3.6 C 0 km/h
6 14-10-2010 01:02:04 3.4 C 5.44 g/m*3 3.4 C 0 km/h
7 14-10-2010 01:14:04 3.4 C 5.44 g/m*3 3.4 C 0 km/h
8 14-10-2010 01:26:04 3.3 C 5.4 g/m*3 3.3 C 0 km/h
9 14-10-2010 01:38:04 3.3 C 5.46 g/m*3 3.3 C 0 km/h
10 14-10-2010 01:50:04 3.5 C 5.6 g/m*3 3.5 C 0 km/h
11 14-10-2010 02:02:04 3.6 C 5.63 g/m*3 3.6 C 0 km/h
12 14-10-2010 02:14:04 3.5 C 5.6 g/m*3 3.5 C 0 km/h
13 14-10-2010 02:26:04 3.6 C 5.63 g/m*3 3.6 C 0 km/h
14 14-10-2010 02:38:04 3.7 C 5.73 g/m*3 3.7 C 0 km/h
15 14-10-2010 02:50:04 3.7 C 5.67 g/m*3 3.7 C 0 km/h
16 14-10-2010 03:02:04 3.6 C 5.63 g/m*3 3.6 C 0 km/h
17 14-10-2010 03:14:04 3.5 C 5.6 g/m*3 3.5 C 0 km/h
18 14-10-2010 03:26:04 3.6 C 5.57 g/m*3 3.6 C 0 km/h
19 14-10-2010 03:38:04 3.5 C 5.53 g/m*3 3.5 C 0 km/h
20 14-10-2010 03:50:04 3.4 C 5.5 g/m*3 3.4 C 0 km/h
21 14-10-2010 04:02:04 3.4 C 5.5 g/m*3 3.4 C 0 km/h
22 14-10-2010 04:14:04 3.5 C 5.53 g/m*3 3.5 C 0 km/h
23 14-10-2010 04:26:04 3.6 C 5.57 g/m*3 3.6 C 0 km/h
24 14-10-2010 04:38:04 3.6 C 5.57 g/m*3 3.6 C 0 km/h
25 14-10-2010 04:50:04 3.6 C 5.57 g/m*3 3.6 C 0 km/h
Sensor: Nr:Datum:Temp:Abs-Feuchte:Windchill:Wind:
Aussen-T/F 26 14-10-2010 05:02:05 3.5 C 5.53 g/m*3 3.5 C 0 km/h
27 14-10-2010 05:14:05 3.6 C 5.63 g/m*3 3.6 C 0 km/h
28 14-10-2010 05:26:05 3.6 C 5.63 g/m*3 3.6 C 0 km/h
29 14-10-2010 05:38:05 3.6 C 5.63 g/m*3 3.6 C 0 km/h
30 14-10-2010 05:50:05 3.8 C 5.71 g/m*3 3.8 C 0 km/h
31 14-10-2010 06:02:05 3.9 C 5.75 g/m*3 3.9 C 0 km/h
32 14-10-2010 06:14:05 3.9 C 5.75 g/m*3 3.9 C 0 km/h
33 14-10-2010 06:26:05 3.9 C 5.68 g/m*3 3.9 C 0 km/h
34 14-10-2010 06:38:05 3.9 C 5.68 g/m*3 3.9 C 0 km/h
35 14-10-2010 06:50:01 4 C 5.66 g/m*3 4 C 0 km/h
36 14-10-2010 07:02:02 4 C 5.66 g/m*3 4 C 0 km/h
37 14-10-2010 07:14:02 4 C 5.72 g/m*3 4 C 0 km/h
38 14-10-2010 07:26:02 4.1 C 5.76 g/m*3 4.1 C 0 km/h
39 14-10-2010 07:38:01 4.2 C 5.8 g/m*3 4.2 C 0 km/h
40 14-10-2010 07:50:02 4.3 C 5.84 g/m*3 4.3 C 0 km/h
41 14-10-2010 08:02:01 4.4 C 5.88 g/m*3 4.4 C 0 km/h
42 14-10-2010 08:14:01 4.5 C 5.85 g/m*3 4.5 C 0 km/h
43 14-10-2010 08:26:01 4.5 C 5.85 g/m*3 4.5 C 0 km/h
44 14-10-2010 08:38:02 4.4 C 5.81 g/m*3 4.4 C 0 km/h
45 14-10-2010 08:50:02 4.4 C 5.81 g/m*3 4.4 C 0 km/h
46 14-10-2010 09:02:02 4.5 C 5.85 g/m*3 4.5 C 0 km/h
47 14-10-2010 09:14:02 4.4 C 5.81 g/m*3 4.4 C 0 km/h
48 14-10-2010 09:26:02 4.6 C 5.89 g/m*3 4.6 C 0 km/h
49 14-10-2010 09:38:02 4.6 C 5.89 g/m*3 4.6 C 0 km/h
50 14-10-2010 09:50:02 4.7 C 5.86 g/m*3 4.7 C 0 km/h
Sensor: Nr:Datum:Temp:Abs-Feuchte:Windchill:Wind:
Aussen-T/F 51 14-10-2010 10:02:02 5 C 5.91 g/m*3 5 C 0 km/h
52 14-10-2010 10:14:02 5 C 5.91 g/m*3 5 C 0 km/h
53 14-10-2010 10:26:02 5 C 5.78 g/m*3 5 C 0 km/h
54 14-10-2010 10:38:02 5.2 C 5.85 g/m*3 5.2 C 0 km/h
55 14-10-2010 10:50:02 5.6 C 5.94 g/m*3 5.6 C 0 km/h
56 14-10-2010 11:02:02 6 C 5.95 g/m*3 6 C 0 km/h
57 14-10-2010 11:14:02 5.9 C 5.77 g/m*3 5.9 C 0 km/h
58 14-10-2010 11:26:02 6.2 C 5.74 g/m*3 6.2 C 0 km/h
59 14-10-2010 11:38:02 6.1 C 5.55 g/m*3 6.1 C 0 km/h
60 14-10-2010 11:50:02 6.8 C 5.74 g/m*3 6.8 C 0 km/h
61 14-10-2010 12:02:02 7 C 5.58 g/m*3 7 C 0 km/h
62 14-10-2010 12:14:02 7.5 C 5.68 g/m*3 7.5 C 0 km/h
63 14-10-2010 12:26:02 8 C 5.62 g/m*3 8 C 0 km/h
64 14-10-2010 12:38:01 8.4 C 5.51 g/m*3 8.4 C 0 km/h
65 14-10-2010 12:50:02 8.4 C 5.51 g/m*3 8.4 C 0 km/h
66 14-10-2010 13:02:01 9.2 C 5.63 g/m*3 9.2 C 0 km/h
67 14-10-2010 13:14:01 8.7 C 5.36 g/m*3 8.7 C 0 km/h
68 14-10-2010 13:26:02 9.4 C 5.61 g/m*3 9.4 C 0 km/h
69 14-10-2010 13:38:02 9.6 C 5.59 g/m*3 9.6 C 0 km/h
70 14-10-2010 13:50:02 9.9 C 5.7 g/m*3 9.9 C 0 km/h
71 14-10-2010 14:02:03 10.8 C 5.83 g/m*3 10.8 C 0 km/h
72 14-10-2010 14:14:03 11.4 C 5.85 g/m*3 11.4 C 0 km/h
73 14-10-2010 14:26:02 11.9 C 5.82 g/m*3 11.9 C 0 km/h
74 14-10-2010 14:38:02 12.3 C 5.86 g/m*3 12.3 C 0 km/h
75 14-10-2010 14:50:01 12.9 C 5.86 g/m*3 12.9 C 0 km/h
Sensor: Nr:Datum:Temp:Abs-Feuchte:Windchill:Wind:
Aussen-T/F 76 14-10-2010 15:02:02 13.1 C 5.71 g/m*3 13.1 C 0 km/h
77 14-10-2010 15:14:02 13.8 C 5.84 g/m*3 13.8 C 0 km/h
78 14-10-2010 15:26:01 14 C 5.67 g/m*3 14 C 0 km/h
79 14-10-2010 15:38:01 14.4 C 5.81 g/m*3 14.4 C 0 km/h
80 14-10-2010 15:50:01 14.4 C 5.56 g/m*3 14.4 C 0 km/h
81 14-10-2010 16:02:02 14.7 C 5.67 g/m*3 14.7 C 0 km/h
82 14-10-2010 16:14:02 14.7 C 5.67 g/m*3 14.7 C 0 km/h
83 14-10-2010 16:26:02 14.4 C 5.81 g/m*3 14.4 C 0 km/h
84 14-10-2010 16:38:01 14 C 6.03 g/m*3 14 C 0 km/h
85 14-10-2010 16:50:02 14.2 C 5.98 g/m*3 14.2 C 0 km/h
86 14-10-2010 17:02:01 13.5 C 5.5 g/m*3 13.5 C 0 km/h
87 14-10-2010 17:14:01 13.4 C 5.46 g/m*3 13.4 C 0 km/h
88 14-10-2010 17:26:02 13.4 C 5.46 g/m*3 13.4 C 0 km/h
89 14-10-2010 17:38:01 13 C 5.33 g/m*3 13 C 0 km/h
90 14-10-2010 17:50:02 12.9 C 5.75 g/m*3 12.9 C 0 km/h
91 14-10-2010 18:02:02 12 C 5.75 g/m*3 12 C 0 km/h
92 14-10-2010 18:14:02 11.6 C 5.92 g/m*3 11.6 C 0 km/h
93 14-10-2010 18:26:02 10.9 C 5.97 g/m*3 10.9 C 0 km/h
94 14-10-2010 18:38:03 10.5 C 6.01 g/m*3 10.5 C 0 km/h
95 14-10-2010 18:50:02 10.2 C 6.09 g/m*3 10.2 C 0 km/h
96 14-10-2010 19:02:02 10.2 C 6.19 g/m*3 10.2 C 0 km/h
97 14-10-2010 19:14:02 10.2 C 6.19 g/m*3 10.2 C 0 km/h
98 14-10-2010 19:26:02 10.3 C 6.22 g/m*3 10.3 C 0 km/h
99 14-10-2010 19:38:02 10.3 C 6.32 g/m*3 10.3 C 0 km/h
100 14-10-2010 19:50:02 10.3 C 6.32 g/m*3 10.3 C 0 km/h
Sensor: Nr:Datum:Temp:Abs-Feuchte:Windchill:Wind:
Aussen-T/F 101 14-10-2010 20:02:02 10.3 C 6.32 g/m*3 10.3 C 0 km/h
102 14-10-2010 20:14:02 10.2 C 6.19 g/m*3 10.2 C 0 km/h
103 14-10-2010 20:26:02 10.2 C 6.19 g/m*3 10.2 C 0 km/h
104 14-10-2010 20:38:02 10.2 C 6.28 g/m*3 10.2 C 0 km/h
105 14-10-2010 20:50:02 10.1 C 6.24 g/m*3 10.1 C 0 km/h
106 14-10-2010 21:02:02 9.9 C 6.26 g/m*3 9.9 C 0 km/h
107 14-10-2010 21:14:02 9.7 C 6.27 g/m*3 9.7 C 0 km/h
108 14-10-2010 21:26:02 9.8 C 6.4 g/m*3 9.8 C 0 km/h
109 14-10-2010 21:38:02 9.8 C 6.4 g/m*3 9.8 C 0 km/h
110 14-10-2010 21:51:04 9.8 C 6.31 g/m*3 9.8 C 0 km/h
111 14-10-2010 22:03:04 9.7 C 6.36 g/m*3 9.7 C 0 km/h
112 14-10-2010 22:15:04 9.7 C 6.45 g/m*3 9.7 C 0 km/h
113 14-10-2010 22:27:04 9.8 C 6.59 g/m*3 9.8 C 0 km/h
114 14-10-2010 22:39:05 9.8 C 6.59 g/m*3 9.8 C 0 km/h
115 14-10-2010 22:51:05 9.7 C 6.55 g/m*3 9.7 C 0 km/h
116 14-10-2010 23:03:05 9.7 C 6.64 g/m*3 9.7 C 0 km/h
117 14-10-2010 23:15:05 9.7 C 6.64 g/m*3 9.7 C 0 km/h
118 14-10-2010 23:27:05 9.7 C 6.73 g/m*3 9.7 C 0 km/h
119 14-10-2010 23:39:05 9.7 C 6.73 g/m*3 9.7 C 0 km/h
120 14-10-2010 23:51:05 9.6 C 6.69 g/m*3 9.6 C 0 km/h
121 15-10-2010 00:03:05 9.5 C 6.74 g/m*3 9.5 C 0 km/h
122 15-10-2010 00:15:05 9.5 C 6.74 g/m*3 9.5 C 0 km/h
123 15-10-2010 00:27:05 9.5 C 6.74 g/m*3 9.5 C 0 km/h
124 15-10-2010 00:39:05 9.5 C 6.74 g/m*3 9.5 C 0 km/h
125 15-10-2010 00:51:05 9.5 C 6.83 g/m*3 9.5 C 0 km/h
Sensor: Nr:Datum:Temp:Abs-Feuchte:Windchill:Wind:
Aussen-T/F 126 15-10-2010 01:03:05 9.5 C 6.83 g/m*3 9.5 C 0 km/h
127 15-10-2010 01:15:05 9.5 C 6.83 g/m*3 9.5 C 0 km/h
128 15-10-2010 01:27:05 9.5 C 6.92 g/m*3 9.5 C 0 km/h
129 15-10-2010 01:39:05 9.4 C 6.87 g/m*3 9.4 C 0 km/h
130 15-10-2010 01:51:05 9.2 C 6.97 g/m*3 9.2 C 0 km/h
131 15-10-2010 02:03:05 9.2 C 7.05 g/m*3 9.2 C 0 km/h
132 15-10-2010 02:15:05 9.2 C 7.05 g/m*3 9.2 C 0 km/h
133 15-10-2010 02:27:05 9.3 C 7.19 g/m*3 9.3 C 0 km/h
134 15-10-2010 02:39:05 9.2 C 7.14 g/m*3 9.2 C 0 km/h
135 15-10-2010 02:51:06 9.3 C 7.19 g/m*3 9.3 C 0 km/h
136 15-10-2010 03:03:06 9.3 C 7.19 g/m*3 9.3 C 0 km/h
137 15-10-2010 03:15:06 9.3 C 7.28 g/m*3 9.3 C 0 km/h
138 15-10-2010 03:27:06 9.2 C 7.14 g/m*3 9.2 C 0 km/h
139 15-10-2010 03:39:06 9.3 C 7.28 g/m*3 9.3 C 0 km/h
140 15-10-2010 03:51:06 9.3 C 7.37 g/m*3 9.3 C 0 km/h
141 15-10-2010 04:03:06 9.3 C 7.37 g/m*3 9.3 C 0 km/h
142 15-10-2010 04:15:06 9.2 C 7.32 g/m*3 9.2 C 0 km/h
143 15-10-2010 04:27:06 9.3 C 7.37 g/m*3 9.3 C 0 km/h
144 15-10-2010 04:39:06 9.3 C 7.37 g/m*3 9.3 C 0 km/h
145 15-10-2010 04:51:06 9.3 C 7.37 g/m*3 9.3 C 0 km/h
146 15-10-2010 05:03:06 9.2 C 7.32 g/m*3 9.2 C 0 km/h
147 15-10-2010 05:15:06 9.2 C 7.32 g/m*3 9.2 C 0 km/h
148 15-10-2010 05:27:06 9.2 C 7.41 g/m*3 9.2 C 0 km/h
149 15-10-2010 05:39:06 9.2 C 7.5 g/m*3 9.2 C 0 km/h
150 15-10-2010 05:51:06 9.2 C 7.5 g/m*3 9.2 C 0 km/h
Sensor: Nr:Datum:Temp:Abs-Feuchte:Windchill:Wind:
Aussen-T/F 151 15-10-2010 06:03:06 9.3 C 7.55 g/m*3 9.3 C 0 km/h
152 15-10-2010 06:15:06 9.3 C 7.64 g/m*3 9.3 C 0 km/h
153 15-10-2010 06:27:06 9.3 C 7.64 g/m*3 9.3 C 0 km/h
154 15-10-2010 06:39:06 9.3 C 7.73 g/m*3 9.3 C 0 km/h
155 15-10-2010 06:51:07 9.3 C 7.73 g/m*3 9.3 C 0 km/h
156 15-10-2010 07:03:03 9.3 C 7.73 g/m*3 9.3 C 0 km/h
157 15-10-2010 07:15:04 9.3 C 7.73 g/m*3 9.3 C 0 km/h
158 15-10-2010 07:27:04 9.3 C 7.73 g/m*3 9.3 C 0 km/h
159 15-10-2010 07:39:03 9.3 C 7.73 g/m*3 9.3 C 0 km/h
160 15-10-2010 07:51:02 9.2 C 7.77 g/m*3 9.2 C 0 km/h
161 15-10-2010 08:03:01 9.2 C 7.77 g/m*3 9.2 C 0 km/h
162 15-10-2010 08:15:02 9.2 C 7.86 g/m*3 9.2 C 0 km/h
163 15-10-2010 08:27:02 9.2 C 7.86 g/m*3 9.2 C 0 km/h
164 15-10-2010 08:39:01 9.3 C 7.91 g/m*3 9.3 C 0 km/h
165 15-10-2010 08:51:01 9.3 C 7.91 g/m*3 9.3 C 0 km/h
166 15-10-2010 09:03:01 9.5 C 8.01 g/m*3 9.5 C 0 km/h
167 15-10-2010 09:15:02 9.6 C 8.15 g/m*3 9.6 C 0 km/h
168 15-10-2010 09:27:02 9.7 C 8.2 g/m*3 9.7 C 0 km/h
169 15-10-2010 09:39:01 10.1 C 8.32 g/m*3 10.1 C 0 km/h
170 15-10-2010 09:51:02 10.2 C 8.28 g/m*3 10.2 C 0 km/h
171 15-10-2010 10:03:01 10.4 C 8.19 g/m*3 10.4 C 0 km/h
172 15-10-2010 10:15:01 10.5 C 8.15 g/m*3 10.5 C 0 km/h
173 15-10-2010 10:27:01 10.7 C 8.05 g/m*3 10.7 C 0 km/h
174 15-10-2010 10:39:01 10.9 C 7.96 g/m*3 10.9 C 0 km/h
175 15-10-2010 10:51:02 11.1 C 7.96 g/m*3 11.1 C 0 km/h
Sensor: Nr:Datum:Temp:Abs-Feuchte:Windchill:Wind:
Aussen-T/F 176 15-10-2010 11:03:01 11.2 C 7.91 g/m*3 11.2 C 0 km/h
177 15-10-2010 11:15:02 11.3 C 7.75 g/m*3 11.3 C 0 km/h
178 15-10-2010 11:27:02 11.4 C 7.7 g/m*3 11.4 C 0 km/h
179 15-10-2010 11:39:02 11.8 C 7.79 g/m*3 11.8 C 0 km/h
180 15-10-2010 11:51:02 11.9 C 7.63 g/m*3 11.9 C 0 km/h
181 15-10-2010 12:03:03 12.3 C 7.6 g/m*3 12.3 C 0 km/h
182 15-10-2010 12:15:02 12 C 7.25 g/m*3 12 C 0 km/h
183 15-10-2010 12:27:02 11.9 C 7.31 g/m*3 11.9 C 0 km/h
184 15-10-2010 12:39:02 12.8 C 7.39 g/m*3 12.8 C 0 km/h
185 15-10-2010 12:51:01 13.1 C 7.07 g/m*3 13.1 C 0 km/h
186 15-10-2010 13:03:02 12.9 C 6.99 g/m*3 12.9 C 0 km/h
187 15-10-2010 13:15:01 12.9 C 6.99 g/m*3 12.9 C 0 km/h
188 15-10-2010 13:27:01 13.4 C 6.97 g/m*3 13.4 C 0 km/h
189 15-10-2010 13:39:01 14 C 6.88 g/m*3 14 C 0 km/h
190 15-10-2010 13:51:01 13.7 C 6.63 g/m*3 13.7 C 0 km/h
191 15-10-2010 14:03:01 13.4 C 6.63 g/m*3 13.4 C 0 km/h
192 15-10-2010 14:15:02 12.9 C 6.76 g/m*3 12.9 C 0 km/h
193 15-10-2010 14:27:02 12.7 C 6.9 g/m*3 12.7 C 0 km/h
194 15-10-2010 14:39:01 12.4 C 6.66 g/m*3 12.4 C 0 km/h
195 15-10-2010 14:51:03 12.5 C 6.82 g/m*3 12.5 C 0 km/h
196 15-10-2010 15:03:02 13 C 6.8 g/m*3 13 C 0 km/h
197 15-10-2010 15:15:02 12.9 C 6.76 g/m*3 12.9 C 0 km/h
198 15-10-2010 15:27:02 12.9 C 6.76 g/m*3 12.9 C 0 km/h
199 15-10-2010 15:39:03 13 C 6.58 g/m*3 13 C 0 km/h
200 15-10-2010 15:51:02 12.5 C 6.49 g/m*3 12.5 C 0 km/h
Sensor: Nr:Datum:Temp:Abs-Feuchte:Windchill:Wind:
Aussen-T/F 201 15-10-2010 16:03:02 12.5 C 6.71 g/m*3 12.5 C 0 km/h
202 15-10-2010 16:15:02 12.4 C 6.77 g/m*3 12.4 C 0 km/h
203 15-10-2010 16:27:02 12.2 C 6.69 g/m*3 12.2 C 0 km/h
204 15-10-2010 16:39:02 12.1 C 6.86 g/m*3 12.1 C 0 km/h
205 15-10-2010 16:51:02 12 C 6.93 g/m*3 12 C 0 km/h
206 15-10-2010 17:03:02 11.8 C 7.05 g/m*3 11.8 C 0 km/h
207 15-10-2010 17:15:02 11.7 C 7.11 g/m*3 11.7 C 0 km/h
208 15-10-2010 17:27:02 11.5 C 7.13 g/m*3 11.5 C 0 km/h
209 15-10-2010 17:39:02 11.5 C 7.02 g/m*3 11.5 C 0 km/h
210 15-10-2010 17:51:02 11.3 C 7.04 g/m*3 11.3 C 0 km/h
211 15-10-2010 18:03:02 11.1 C 7.05 g/m*3 11.1 C 0 km/h
212 15-10-2010 18:15:03 11 C 7.01 g/m*3 11 C 0 km/h
213 15-10-2010 18:27:03 10.9 C 7.06 g/m*3 10.9 C 0 km/h
214 15-10-2010 18:39:02 10.7 C 6.97 g/m*3 10.7 C 0 km/h
215 15-10-2010 18:51:01 10.7 C 7.07 g/m*3 10.7 C 0 km/h
216 15-10-2010 19:03:02 10.6 C 7.03 g/m*3 10.6 C 0 km/h
217 15-10-2010 19:15:01 10.5 C 6.98 g/m*3 10.5 C 0 km/h
218 15-10-2010 19:27:01 10.5 C 7.08 g/m*3 10.5 C 0 km/h
219 15-10-2010 19:39:01 10.5 C 6.98 g/m*3 10.5 C 0 km/h
220 15-10-2010 19:51:01 10.5 C 6.98 g/m*3 10.5 C 0 km/h
221 15-10-2010 20:03:01 10.4 C 6.94 g/m*3 10.4 C 0 km/h
222 15-10-2010 20:15:02 10.3 C 6.99 g/m*3 10.3 C 0 km/h
223 15-10-2010 20:27:02 10.2 C 6.95 g/m*3 10.2 C 0 km/h
224 15-10-2010 20:39:01 10.4 C 7.13 g/m*3 10.4 C 0 km/h
225 15-10-2010 20:51:03 10.5 C 7.08 g/m*3 10.5 C 0 km/h
Sensor: Nr:Datum:Temp:Abs-Feuchte:Windchill:Wind:
Aussen-T/F 226 15-10-2010 21:03:02 10.5 C 7.08 g/m*3 10.5 C 0 km/h
227 15-10-2010 21:15:02 10.4 C 7.04 g/m*3 10.4 C 0 km/h
228 15-10-2010 21:27:02 10.2 C 7.04 g/m*3 10.2 C 0 km/h
229 15-10-2010 21:39:03 9.8 C 7.33 g/m*3 9.8 C 0 km/h
230 15-10-2010 21:51:02 9.6 C 7.42 g/m*3 9.6 C 0 km/h
231 15-10-2010 22:03:02 9.5 C 7.55 g/m*3 9.5 C 0 km/h
232 15-10-2010 22:15:02 9.3 C 7.55 g/m*3 9.3 C 0 km/h
233 15-10-2010 22:27:02 9.3 C 7.64 g/m*3 9.3 C 0 km/h
234 15-10-2010 22:39:01 9.2 C 7.77 g/m*3 9.2 C 0 km/h
235 15-10-2010 22:52:04 9.2 C 7.86 g/m*3 9.2 C 0 km/h
236 15-10-2010 23:04:04 9.2 C 7.95 g/m*3 9.2 C 0 km/h
237 15-10-2010 23:16:04 9.3 C 8 g/m*3 9.3 C 0 km/h
238 15-10-2010 23:28:04 9.3 C 8.09 g/m*3 9.3 C 0 km/h
239 15-10-2010 23:40:04 9.1 C 8.07 g/m*3 9.1 C 0 km/h
240 15-10-2010 23:52:04 9.1 C 8.07 g/m*3 9.1 C 0 km/h
241 16-10-2010 00:04:04 9.1 C 8.16 g/m*3 9.1 C 0 km/h
242 16-10-2010 00:16:04 9 C 8.11 g/m*3 9 C 0 km/h
243 16-10-2010 00:28:04 9 C 8.11 g/m*3 9 C 0 km/h
244 16-10-2010 00:40:04 9 C 8.2 g/m*3 9 C 0 km/h
245 16-10-2010 00:52:04 9 C 8.2 g/m*3 9 C 0 km/h
246 16-10-2010 01:04:04 8.9 C 8.23 g/m*3 8.9 C 0 km/h
247 16-10-2010 01:16:04 8.9 C 8.23 g/m*3 8.9 C 0 km/h
248 16-10-2010 01:28:04 8.8 C 8.18 g/m*3 8.8 C 0 km/h
249 16-10-2010 01:40:04 8.8 C 8.18 g/m*3 8.8 C 0 km/h
250 16-10-2010 01:52:04 8.7 C 8.13 g/m*3 8.7 C 0 km/h
Sensor: Nr:Datum:Temp:Abs-Feuchte:Windchill:Wind:
Aussen-T/F 251 16-10-2010 02:04:04 8.7 C 8.13 g/m*3 8.7 C 0 km/h
252 16-10-2010 02:16:05 8.8 C 8.18 g/m*3 8.8 C 0 km/h
253 16-10-2010 02:28:05 8.8 C 8.27 g/m*3 8.8 C 0 km/h
254 16-10-2010 02:40:05 8.8 C 8.27 g/m*3 8.8 C 0 km/h
255 16-10-2010 02:52:05 8.8 C 8.27 g/m*3 8.8 C 0 km/h
256 16-10-2010 03:04:05 8.7 C 8.22 g/m*3 8.7 C 0 km/h
257 16-10-2010 03:16:05 8.7 C 8.22 g/m*3 8.7 C 0 km/h
258 16-10-2010 03:28:05 8.7 C 8.22 g/m*3 8.7 C 0 km/h
259 16-10-2010 03:40:05 8.7 C 8.22 g/m*3 8.7 C 0 km/h
260 16-10-2010 03:52:05 8.6 C 8.16 g/m*3 8.6 C 0 km/h
261 16-10-2010 04:04:05 8.6 C 8.16 g/m*3 8.6 C 0 km/h
262 16-10-2010 04:16:05 8.6 C 8.16 g/m*3 8.6 C 0 km/h
263 16-10-2010 04:28:05 8.5 C 8.11 g/m*3 8.5 C 0 km/h
264 16-10-2010 04:40:05 8.5 C 8.11 g/m*3 8.5 C 0 km/h
265 16-10-2010 04:52:05 8.5 C 8.11 g/m*3 8.5 C 0 km/h
266 16-10-2010 05:04:05 8.5 C 8.11 g/m*3 8.5 C 0 km/h
267 16-10-2010 05:16:05 8.4 C 8.06 g/m*3 8.4 C 0 km/h
268 16-10-2010 05:28:05 8.3 C 8.01 g/m*3 8.3 C 0 km/h
269 16-10-2010 05:40:05 8.3 C 8.01 g/m*3 8.3 C 0 km/h
270 16-10-2010 05:52:05 8.3 C 8.01 g/m*3 8.3 C 0 km/h
271 16-10-2010 06:04:05 8.3 C 8.01 g/m*3 8.3 C 0 km/h
272 16-10-2010 06:16:05 8.4 C 8.06 g/m*3 8.4 C 0 km/h
273 16-10-2010 06:28:05 8.3 C 8.01 g/m*3 8.3 C 0 km/h
274 16-10-2010 06:40:06 8.3 C 8.01 g/m*3 8.3 C 0 km/h
275 16-10-2010 06:52:06 8.2 C 7.96 g/m*3 8.2 C 0 km/h
Sensor: Nr:Datum:Temp:Abs-Feuchte:Windchill:Wind:
Aussen-T/F 276 16-10-2010 07:04:06 8.2 C 7.96 g/m*3 8.2 C 0 km/h
277 16-10-2010 07:16:06 8.2 C 7.96 g/m*3 8.2 C 0 km/h
278 16-10-2010 07:28:06 8.1 C 7.9 g/m*3 8.1 C 0 km/h
279 16-10-2010 07:40:04 8.1 C 7.82 g/m*3 8.1 C 0 km/h
280 16-10-2010 07:52:02 8 C 7.77 g/m*3 8 C 0 km/h
281 16-10-2010 08:04:02 8.1 C 7.82 g/m*3 8.1 C 0 km/h
282 16-10-2010 08:16:01 8.1 C 7.82 g/m*3 8.1 C 0 km/h
283 16-10-2010 08:28:01 8.1 C 7.74 g/m*3 8.1 C 0 km/h
284 16-10-2010 08:40:01 8.1 C 7.74 g/m*3 8.1 C 0 km/h
285 16-10-2010 08:52:01 8.1 C 7.74 g/m*3 8.1 C 0 km/h
286 16-10-2010 09:04:01 8.2 C 7.79 g/m*3 8.2 C 0 km/h
287 16-10-2010 09:16:02 8.2 C 7.79 g/m*3 8.2 C 0 km/h
288 16-10-2010 09:28:02 8.2 C 7.79 g/m*3 8.2 C 0 km/h
289 16-10-2010 09:40:01 8.2 C 7.79 g/m*3 8.2 C 0 km/h
290 16-10-2010 09:52:02 8.4 C 7.89 g/m*3 8.4 C 0 km/h
291 16-10-2010 10:04:02 8.5 C 7.94 g/m*3 8.5 C 0 km/h
292 16-10-2010 10:16:02 8.6 C 7.99 g/m*3 8.6 C 0 km/h
293 16-10-2010 10:28:02 8.8 C 8.18 g/m*3 8.8 C 0 km/h
294 16-10-2010 10:40:01 8.6 C 7.99 g/m*3 8.6 C 0 km/h
295 16-10-2010 10:52:02 8.7 C 8.04 g/m*3 8.7 C 0 km/h
296 16-10-2010 11:04:01 8.9 C 8.15 g/m*3 8.9 C 0 km/h
297 16-10-2010 11:16:01 8.8 C 8.09 g/m*3 8.8 C 0 km/h
298 16-10-2010 11:28:01 9 C 8.11 g/m*3 9 C 0 km/h
299 16-10-2010 11:40:01 9.1 C 8.16 g/m*3 9.1 C 0 km/h
300 16-10-2010 11:52:01 9 C 8.02 g/m*3 9 C 0 km/h
Sensor: Nr:Datum:Temp:Abs-Feuchte:Windchill:Wind:
Aussen-T/F 301 16-10-2010 12:04:02 9.3 C 8.18 g/m*3 9.3 C 0 km/h
302 16-10-2010 12:16:01 9.1 C 7.99 g/m*3 9.1 C 0 km/h
303 16-10-2010 12:28:01 9.1 C 7.9 g/m*3 9.1 C 0 km/h
304 16-10-2010 12:40:01 9.7 C 8.3 g/m*3 9.7 C 0 km/h
305 16-10-2010 12:52:01 9.7 C 8.2 g/m*3 9.7 C 0 km/h
306 16-10-2010 13:04:02 9.6 C 8.15 g/m*3 9.6 C 0 km/h
307 16-10-2010 13:16:01 9.9 C 8.31 g/m*3 9.9 C 0 km/h
308 16-10-2010 13:28:01 9.8 C 8.26 g/m*3 9.8 C 0 km/h
309 16-10-2010 13:40:02 9.6 C 8.06 g/m*3 9.6 C 0 km/h
310 16-10-2010 13:52:02 9.7 C 8.02 g/m*3 9.7 C 0 km/h
311 16-10-2010 14:04:02 9.9 C 8.12 g/m*3 9.9 C 0 km/h
312 16-10-2010 14:16:01 10 C 7.89 g/m*3 10 C 0 km/h
313 16-10-2010 14:28:01 10.1 C 7.94 g/m*3 10.1 C 0 km/h
314 16-10-2010 14:40:02 10 C 7.8 g/m*3 10 C 0 km/h
315 16-10-2010 14:52:01 9.8 C 7.7 g/m*3 9.8 C 0 km/h
316 16-10-2010 15:04:02 9.8 C 7.79 g/m*3 9.8 C 0 km/h
317 16-10-2010 15:16:02 9.9 C 7.84 g/m*3 9.9 C 0 km/h
318 16-10-2010 15:28:02 10.3 C 7.95 g/m*3 10.3 C 0 km/h
319 16-10-2010 15:40:02 10.1 C 7.66 g/m*3 10.1 C 0 km/h
320 16-10-2010 15:52:01 10.3 C 7.85 g/m*3 10.3 C 0 km/h
321 16-10-2010 16:04:02 10.2 C 7.8 g/m*3 10.2 C 0 km/h
322 16-10-2010 16:16:02 10.2 C 7.8 g/m*3 10.2 C 0 km/h
323 16-10-2010 16:28:02 9.9 C 7.84 g/m*3 9.9 C 0 km/h
324 16-10-2010 16:40:01 9.6 C 7.79 g/m*3 9.6 C 0 km/h
325 16-10-2010 16:52:02 9.6 C 7.97 g/m*3 9.6 C 0 km/h
Sensor: Nr:Datum:Temp:Abs-Feuchte:Windchill:Wind:
Aussen-T/F 326 16-10-2010 17:04:01 9.6 C 8.06 g/m*3 9.6 C 0 km/h
327 16-10-2010 17:16:02 9.6 C 8.15 g/m*3 9.6 C 0 km/h
328 16-10-2010 17:28:02 9.2 C 7.86 g/m*3 9.2 C 0 km/h
329 16-10-2010 17:40:01 9.3 C 7.82 g/m*3 9.3 C 0 km/h
330 16-10-2010 17:52:02 9.1 C 7.63 g/m*3 9.1 C 0 km/h
331 16-10-2010 18:04:02 8.9 C 7.36 g/m*3 8.9 C 0 km/h
332 16-10-2010 18:16:02 8.7 C 7.18 g/m*3 8.7 C 0 km/h
333 16-10-2010 18:28:02 8.4 C 6.96 g/m*3 8.4 C 0 km/h
334 16-10-2010 18:40:03 8.1 C 6.74 g/m*3 8.1 C 0 km/h
335 16-10-2010 18:52:02 7.8 C 6.69 g/m*3 7.8 C 0 km/h
336 16-10-2010 19:04:01 7.5 C 6.56 g/m*3 7.5 C 0 km/h
337 16-10-2010 19:16:02 7.2 C 6.59 g/m*3 7.2 C 0 km/h
338 16-10-2010 19:28:02 7 C 6.59 g/m*3 7 C 0 km/h
339 16-10-2010 19:40:01 6.7 C 6.61 g/m*3 6.7 C 0 km/h
340 16-10-2010 19:52:02 6.4 C 6.41 g/m*3 6.4 C 0 km/h
341 16-10-2010 20:04:01 6.5 C 6.45 g/m*3 6.5 C 0 km/h
342 16-10-2010 20:16:01 6.5 C 6.3 g/m*3 6.5 C 0 km/h
343 16-10-2010 20:28:01 6.6 C 6.27 g/m*3 6.6 C 0 km/h
344 16-10-2010 20:40:02 6.6 C 6.27 g/m*3 6.6 C 0 km/h
345 16-10-2010 20:52:02 6.6 C 6.27 g/m*3 6.6 C 0 km/h
346 16-10-2010 21:04:02 6.5 C 6.22 g/m*3 6.5 C 0 km/h
347 16-10-2010 21:16:01 6.3 C 6.14 g/m*3 6.3 C 0 km/h
348 16-10-2010 21:28:01 6.3 C 6.22 g/m*3 6.3 C 0 km/h
349 16-10-2010 21:40:02 6.2 C 6.25 g/m*3 6.2 C 0 km/h
350 16-10-2010 21:52:02 6.1 C 6.21 g/m*3 6.1 C 0 km/h
Sensor: Nr:Datum:Temp:Abs-Feuchte:Windchill:Wind:
Aussen-T/F 351 16-10-2010 22:04:02 6 C 6.24 g/m*3 6 C 0 km/h
352 16-10-2010 22:16:02 5.9 C 6.35 g/m*3 5.9 C 0 km/h
353 16-10-2010 22:28:02 5.8 C 6.38 g/m*3 5.8 C 0 km/h
354 16-10-2010 22:40:02 5.9 C 6.42 g/m*3 5.9 C 0 km/h
355 16-10-2010 22:52:02 5.9 C 6.49 g/m*3 5.9 C 0 km/h
356 16-10-2010 23:04:02 5.9 C 6.49 g/m*3 5.9 C 0 km/h
357 16-10-2010 23:16:03 5.9 C 6.56 g/m*3 5.9 C 0 km/h
358 16-10-2010 23:28:03 6 C 6.53 g/m*3 6 C 0 km/h
359 16-10-2010 23:41:04 6 C 6.6 g/m*3 6 C 0 km/h
360 16-10-2010 23:53:04 6 C 6.6 g/m*3 6 C 0 km/h
361 17-10-2010 00:05:04 6 C 6.6 g/m*3 6 C 0 km/h
362 17-10-2010 00:17:04 6.1 C 6.65 g/m*3 6.1 C 0 km/h
363 17-10-2010 00:29:04 6.2 C 6.77 g/m*3 6.2 C 0 km/h
364 17-10-2010 00:41:04 6.2 C 6.77 g/m*3 6.2 C 0 km/h
365 17-10-2010 00:53:04 6.2 C 6.69 g/m*3 6.2 C 0 km/h
366 17-10-2010 01:05:04 6.2 C 6.69 g/m*3 6.2 C 0 km/h
367 17-10-2010 01:17:04 6.2 C 6.69 g/m*3 6.2 C 0 km/h
368 17-10-2010 01:29:04 6.3 C 6.74 g/m*3 6.3 C 0 km/h
369 17-10-2010 01:41:04 6.2 C 6.69 g/m*3 6.2 C 0 km/h
370 17-10-2010 01:53:04 6.3 C 6.74 g/m*3 6.3 C 0 km/h
371 17-10-2010 02:05:04 6.3 C 6.74 g/m*3 6.3 C 0 km/h
372 17-10-2010 02:17:05 6.2 C 6.62 g/m*3 6.2 C 0 km/h
373 17-10-2010 02:29:05 6.2 C 6.62 g/m*3 6.2 C 0 km/h
374 17-10-2010 02:41:05 6.2 C 6.55 g/m*3 6.2 C 0 km/h
375 17-10-2010 02:53:05 6.2 C 6.55 g/m*3 6.2 C 0 km/h
Sensor: Nr:Datum:Temp:Abs-Feuchte:Windchill:Wind:
Aussen-T/F 376 17-10-2010 03:05:05 6.2 C 6.55 g/m*3 6.2 C 0 km/h
377 17-10-2010 03:17:05 6.3 C 6.51 g/m*3 6.3 C 0 km/h
378 17-10-2010 03:29:05 6.3 C 6.51 g/m*3 6.3 C 0 km/h
379 17-10-2010 03:41:05 6.2 C 6.47 g/m*3 6.2 C 0 km/h
380 17-10-2010 03:53:05 6.2 C 6.4 g/m*3 6.2 C 0 km/h
381 17-10-2010 04:05:05 6.2 C 6.32 g/m*3 6.2 C 0 km/h
382 17-10-2010 04:17:05 6.2 C 6.32 g/m*3 6.2 C 0 km/h
383 17-10-2010 04:29:05 6.2 C 6.32 g/m*3 6.2 C 0 km/h
384 17-10-2010 04:41:05 6.2 C 6.32 g/m*3 6.2 C 0 km/h
385 17-10-2010 04:53:05 6.3 C 6.37 g/m*3 6.3 C 0 km/h
386 17-10-2010 05:05:05 6.3 C 6.37 g/m*3 6.3 C 0 km/h
387 17-10-2010 05:17:05 6.3 C 6.44 g/m*3 6.3 C 0 km/h
388 17-10-2010 05:29:05 6.3 C 6.44 g/m*3 6.3 C 0 km/h
389 17-10-2010 05:41:05 6.3 C 6.44 g/m*3 6.3 C 0 km/h
390 17-10-2010 05:53:05 6.3 C 6.44 g/m*3 6.3 C 0 km/h
391 17-10-2010 06:05:05 6.3 C 6.44 g/m*3 6.3 C 0 km/h
392 17-10-2010 06:17:06 6.3 C 6.44 g/m*3 6.3 C 0 km/h
393 17-10-2010 06:29:06 6.4 C 6.48 g/m*3 6.4 C 0 km/h
394 17-10-2010 06:41:06 6.4 C 6.48 g/m*3 6.4 C 0 km/h
395 17-10-2010 06:53:06 6.3 C 6.44 g/m*3 6.3 C 0 km/h
396 17-10-2010 07:05:06 6.3 C 6.37 g/m*3 6.3 C 0 km/h
397 17-10-2010 07:17:06 6.3 C 6.37 g/m*3 6.3 C 0 km/h
398 17-10-2010 07:29:06 6.3 C 6.22 g/m*3 6.3 C 0 km/h
399 17-10-2010 07:41:06 6.4 C 6.26 g/m*3 6.4 C 0 km/h
400 17-10-2010 07:53:06 6.4 C 6.26 g/m*3 6.4 C 0 km/h
Sensor: Nr:Datum:Temp:Abs-Feuchte:Windchill:Wind:
Aussen-T/F 401 17-10-2010 08:05:06 6.5 C 6.22 g/m*3 6.5 C 0 km/h
402 17-10-2010 08:17:06 6.5 C 6.15 g/m*3 6.5 C 0 km/h
403 17-10-2010 08:29:06 6.5 C 6.15 g/m*3 6.5 C 0 km/h
404 17-10-2010 08:41:06 6.6 C 6.11 g/m*3 6.6 C 0 km/h
405 17-10-2010 08:53:01 6.8 C 6.19 g/m*3 6.8 C 0 km/h
406 17-10-2010 09:05:02 6.8 C 6.12 g/m*3 6.8 C 0 km/h
407 17-10-2010 09:17:02 6.8 C 6.12 g/m*3 6.8 C 0 km/h
408 17-10-2010 09:29:02 6.9 C 6.24 g/m*3 6.9 C 0 km/h
409 17-10-2010 09:41:01 6.9 C 6.16 g/m*3 6.9 C 0 km/h
410 17-10-2010 09:53:02 7 C 6.12 g/m*3 7 C 0 km/h
411 17-10-2010 10:05:01 7.1 C 6.08 g/m*3 7.1 C 0 km/h
412 17-10-2010 10:17:02 7.2 C 6.12 g/m*3 7.2 C 0 km/h
413 17-10-2010 10:29:02 7.3 C 6.16 g/m*3 7.3 C 0 km/h
414 17-10-2010 10:41:01 7.4 C 6.12 g/m*3 7.4 C 0 km/h
415 17-10-2010 10:53:02 7.6 C 6.2 g/m*3 7.6 C 0 km/h
416 17-10-2010 11:05:02 7.7 C 6.16 g/m*3 7.7 C 0 km/h
417 17-10-2010 11:17:02 7.8 C 6.04 g/m*3 7.8 C 0 km/h
418 17-10-2010 11:29:02 7.7 C 5.92 g/m*3 7.7 C 0 km/h
419 17-10-2010 11:41:02 7.6 C 5.88 g/m*3 7.6 C 0 km/h
420 17-10-2010 11:53:02 7.7 C 5.92 g/m*3 7.7 C 0 km/h
421 17-10-2010 12:05:02 7.8 C 5.96 g/m*3 7.8 C 0 km/h
422 17-10-2010 12:17:01 7.8 C 5.96 g/m*3 7.8 C 0 km/h
423 17-10-2010 12:29:01 7.9 C 6 g/m*3 7.9 C 0 km/h
424 17-10-2010 12:41:02 8 C 5.95 g/m*3 8 C 0 km/h
425 17-10-2010 12:53:02 7.9 C 6 g/m*3 7.9 C 0 km/h
Sensor: Nr:Datum:Temp:Abs-Feuchte:Windchill:Wind:
Aussen-T/F 426 17-10-2010 13:05:02 7.9 C 5.91 g/m*3 7.9 C 0 km/h
427 17-10-2010 13:17:01 8.1 C 5.91 g/m*3 8.1 C 0 km/h
428 17-10-2010 13:29:01 8.1 C 5.91 g/m*3 8.1 C 0 km/h
429 17-10-2010 13:41:02 8.2 C 6.03 g/m*3 8.2 C 0 km/h
430 17-10-2010 13:53:01 8.2 C 6.03 g/m*3 8.2 C 0 km/h
431 17-10-2010 14:05:02 8.3 C 6.15 g/m*3 8.3 C 0 km/h
432 17-10-2010 14:17:02 8.3 C 6.07 g/m*3 8.3 C 0 km/h
433 17-10-2010 14:29:02 8.4 C 6.19 g/m*3 8.4 C 0 km/h
434 17-10-2010 14:41:02 8.4 C 6.19 g/m*3 8.4 C 0 km/h
435 17-10-2010 14:53:02 8.4 C 6.11 g/m*3 8.4 C 0 km/h
436 17-10-2010 15:05:02 8.5 C 6.15 g/m*3 8.5 C 0 km/h
437 17-10-2010 15:17:02 8.5 C 6.06 g/m*3 8.5 C 0 km/h
438 17-10-2010 15:29:02 8.6 C 6.1 g/m*3 8.6 C 0 km/h
439 17-10-2010 15:41:01 8.6 C 6.1 g/m*3 8.6 C 0 km/h
440 17-10-2010 15:53:02 8.4 C 6.19 g/m*3 8.4 C 0 km/h
441 17-10-2010 16:05:01 8.4 C 6.19 g/m*3 8.4 C 0 km/h
442 17-10-2010 16:17:01 8.4 C 6.28 g/m*3 8.4 C 0 km/h
443 17-10-2010 16:29:01 8.5 C 6.32 g/m*3 8.5 C 0 km/h
444 17-10-2010 16:41:02 8.5 C 6.32 g/m*3 8.5 C 0 km/h
445 17-10-2010 16:53:02 8.5 C 6.32 g/m*3 8.5 C 0 km/h
446 17-10-2010 17:05:02 8.5 C 6.32 g/m*3 8.5 C 0 km/h
447 17-10-2010 17:17:02 8.3 C 6.24 g/m*3 8.3 C 0 km/h
448 17-10-2010 17:29:02 8.3 C 6.32 g/m*3 8.3 C 0 km/h
449 17-10-2010 17:41:02 8.2 C 6.36 g/m*3 8.2 C 0 km/h
450 17-10-2010 17:53:02 8.2 C 6.36 g/m*3 8.2 C 0 km/h
Sensor: Nr:Datum:Temp:Abs-Feuchte:Windchill:Wind:
Aussen-T/F 451 17-10-2010 18:05:03 8.1 C 6.32 g/m*3 8.1 C 0 km/h
452 17-10-2010 18:17:02 8 C 6.28 g/m*3 8 C 0 km/h
453 17-10-2010 18:29:02 7.9 C 6.32 g/m*3 7.9 C 0 km/h
454 17-10-2010 18:41:02 7.8 C 6.37 g/m*3 7.8 C 0 km/h
455 17-10-2010 18:53:01 7.7 C 6.32 g/m*3 7.7 C 0 km/h
456 17-10-2010 19:05:02 7.7 C 6.32 g/m*3 7.7 C 0 km/h
457 17-10-2010 19:17:01 7.7 C 6.41 g/m*3 7.7 C 0 km/h
458 17-10-2010 19:29:01 7.7 C 6.41 g/m*3 7.7 C 0 km/h
459 17-10-2010 19:41:01 7.7 C 6.41 g/m*3 7.7 C 0 km/h
460 17-10-2010 19:53:01 7.6 C 6.36 g/m*3 7.6 C 0 km/h
461 17-10-2010 20:05:02 7.6 C 6.36 g/m*3 7.6 C 0 km/h
462 17-10-2010 20:17:01 7.7 C 6.49 g/m*3 7.7 C 0 km/h
463 17-10-2010 20:29:01 7.7 C 6.49 g/m*3 7.7 C 0 km/h
464 17-10-2010 20:41:01 7.7 C 6.41 g/m*3 7.7 C 0 km/h
465 17-10-2010 20:53:02 7.7 C 6.41 g/m*3 7.7 C 0 km/h
466 17-10-2010 21:05:02 7.7 C 6.41 g/m*3 7.7 C 0 km/h
467 17-10-2010 21:17:02 7.7 C 6.49 g/m*3 7.7 C 0 km/h
468 17-10-2010 21:29:02 7.7 C 6.49 g/m*3 7.7 C 0 km/h
469 17-10-2010 21:41:02 7.5 C 6.4 g/m*3 7.5 C 0 km/h
470 17-10-2010 21:53:02 7.5 C 6.4 g/m*3 7.5 C 0 km/h
471 17-10-2010 22:06:02 7.5 C 6.48 g/m*3 7.5 C 0 km/h
472 17-10-2010 22:18:02 7.5 C 6.48 g/m*3 7.5 C 0 km/h
473 17-10-2010 22:30:02 7.4 C 6.44 g/m*3 7.4 C 0 km/h
474 17-10-2010 22:42:02 7.3 C 6.4 g/m*3 7.3 C 0 km/h
475 17-10-2010 22:54:02 7.2 C 6.36 g/m*3 7.2 C 0 km/h
Sensor: Nr:Datum:Temp:Abs-Feuchte:Windchill:Wind:
Aussen-T/F 476 17-10-2010 23:06:02 7.1 C 6.32 g/m*3 7.1 C 0 km/h
477 17-10-2010 23:18:02 7.1 C 6.32 g/m*3 7.1 C 0 km/h
478 17-10-2010 23:30:02 7.1 C 6.32 g/m*3 7.1 C 0 km/h
479 17-10-2010 23:42:02 7 C 6.28 g/m*3 7 C 0 km/h
480 17-10-2010 23:54:02 6.9 C 6.31 g/m*3 6.9 C 0 km/h
481 18-10-2010 00:06:02 6.9 C 6.31 g/m*3 6.9 C 0 km/h
482 18-10-2010 00:18:02 6.8 C 6.27 g/m*3 6.8 C 0 km/h
483 18-10-2010 00:30:02 6.7 C 6.23 g/m*3 6.7 C 0 km/h
484 18-10-2010 00:42:02 6.3 C 6.14 g/m*3 6.3 C 0 km/h
485 18-10-2010 00:54:02 5.7 C 5.98 g/m*3 5.7 C 0 km/h
486 18-10-2010 01:06:02 5.3 C 5.89 g/m*3 5.3 C 0 km/h
487 18-10-2010 01:18:02 5.1 C 5.88 g/m*3 5.1 C 0 km/h
488 18-10-2010 01:30:02 5 C 5.91 g/m*3 5 C 0 km/h
489 18-10-2010 01:42:02 5.2 C 6.06 g/m*3 5.2 C 0 km/h
490 18-10-2010 01:54:03 5.3 C 6.1 g/m*3 5.3 C 0 km/h
491 18-10-2010 02:06:03 5.5 C 6.18 g/m*3 5.5 C 0 km/h
492 18-10-2010 02:18:03 5.7 C 6.33 g/m*3 5.7 C 0 km/h
493 18-10-2010 02:30:03 5.9 C 6.42 g/m*3 5.9 C 0 km/h
494 18-10-2010 02:42:03 5.9 C 6.42 g/m*3 5.9 C 0 km/h
495 18-10-2010 02:54:03 6 C 6.39 g/m*3 6 C 0 km/h
496 18-10-2010 03:06:03 6 C 6.31 g/m*3 6 C 0 km/h
497 18-10-2010 03:18:03 6 C 6.31 g/m*3 6 C 0 km/h
498 18-10-2010 03:30:03 6 C 6.31 g/m*3 6 C 0 km/h
499 18-10-2010 03:42:03 6 C 6.31 g/m*3 6 C 0 km/h
500 18-10-2010 03:54:03 6 C 6.24 g/m*3 6 C 0 km/h
Sensor: Nr:Datum:Temp:Abs-Feuchte:Windchill:Wind:
Aussen-T/F 501 18-10-2010 04:06:03 6 C 6.24 g/m*3 6 C 0 km/h
502 18-10-2010 04:18:03 6.1 C 6.28 g/m*3 6.1 C 0 km/h
503 18-10-2010 04:30:03 6.1 C 6.28 g/m*3 6.1 C 0 km/h
504 18-10-2010 04:42:03 6 C 6.24 g/m*3 6 C 0 km/h
505 18-10-2010 04:54:03 5.9 C 6.2 g/m*3 5.9 C 0 km/h
506 18-10-2010 05:06:03 5.9 C 6.13 g/m*3 5.9 C 0 km/h
507 18-10-2010 05:18:03 5.9 C 6.13 g/m*3 5.9 C 0 km/h
508 18-10-2010 05:30:03 5.8 C 6.09 g/m*3 5.8 C 0 km/h
509 18-10-2010 05:42:03 5.8 C 6.09 g/m*3 5.8 C 0 km/h
510 18-10-2010 05:54:03 5.8 C 6.09 g/m*3 5.8 C 0 km/h
511 18-10-2010 06:06:03 5.8 C 6.16 g/m*3 5.8 C 0 km/h
512 18-10-2010 06:18:04 5.8 C 6.16 g/m*3 5.8 C 0 km/h
513 18-10-2010 06:30:04 5.8 C 6.16 g/m*3 5.8 C 0 km/h
514 18-10-2010 06:42:04 5.8 C 6.16 g/m*3 5.8 C 0 km/h
515 18-10-2010 06:54:04 5.8 C 6.16 g/m*3 5.8 C 0 km/h
516 18-10-2010 07:06:02 5.8 C 6.16 g/m*3 5.8 C 0 km/h
517 18-10-2010 07:18:02 5.8 C 6.16 g/m*3 5.8 C 0 km/h
518 18-10-2010 07:30:02 5.8 C 6.16 g/m*3 5.8 C 0 km/h
519 18-10-2010 07:42:02 5.7 C 6.12 g/m*3 5.7 C 0 km/h
520 18-10-2010 07:54:02 5.7 C 6.12 g/m*3 5.7 C 0 km/h
521 18-10-2010 08:06:02 5.7 C 6.19 g/m*3 5.7 C 0 km/h
522 18-10-2010 08:18:02 5.7 C 6.12 g/m*3 5.7 C 0 km/h
523 18-10-2010 08:30:02 5.7 C 6.19 g/m*3 5.7 C 0 km/h
524 18-10-2010 08:42:02 5.8 C 6.23 g/m*3 5.8 C 0 km/h
525 18-10-2010 08:54:02 6 C 6.24 g/m*3 6 C 0 km/h
Sensor: Nr:Datum:Temp:Abs-Feuchte:Windchill:Wind:
Aussen-T/F 526 18-10-2010 09:06:02 6.2 C 6.32 g/m*3 6.2 C 0 km/h
527 18-10-2010 09:18:02 6.3 C 6.37 g/m*3 6.3 C 0 km/h
528 18-10-2010 09:30:02 6.7 C 6.46 g/m*3 6.7 C 0 km/h
529 18-10-2010 09:42:01 6.9 C 6.54 g/m*3 6.9 C 0 km/h
530 18-10-2010 09:54:02 7.2 C 6.52 g/m*3 7.2 C 0 km/h
531 18-10-2010 10:06:01 7.4 C 6.6 g/m*3 7.4 C 0 km/h
532 18-10-2010 10:18:02 7.6 C 6.36 g/m*3 7.6 C 0 km/h
533 18-10-2010 10:30:03 7.6 C 5.88 g/m*3 7.6 C 0 km/h
534 18-10-2010 10:42:01 7.6 C 5.56 g/m*3 7.6 C 0 km/h
535 18-10-2010 10:54:02 7.6 C 5.56 g/m*3 7.6 C 0 km/h
536 18-10-2010 11:06:02 7.5 C 5.12 g/m*3 7.5 C 0 km/h
537 18-10-2010 11:18:02 7.6 C 5.08 g/m*3 7.6 C 0 km/h
538 18-10-2010 11:30:02 7.8 C 5.14 g/m*3 7.8 C 0 km/h
539 18-10-2010 11:42:02 8 C 4.96 g/m*3 8 C 0 km/h
540 18-10-2010 11:54:02 7.9 C 5.01 g/m*3 7.9 C 0 km/h
541 18-10-2010 12:06:02 8 C 4.96 g/m*3 8 C 0 km/h
542 18-10-2010 12:18:01 8.3 C 5.06 g/m*3 8.3 C 0 km/h
543 18-10-2010 12:30:01 8.4 C 5.01 g/m*3 8.4 C 0 km/h
544 18-10-2010 12:42:02 8.2 C 4.94 g/m*3 8.2 C 0 km/h
545 18-10-2010 12:54:02 8.4 C 4.92 g/m*3 8.4 C 0 km/h
546 18-10-2010 13:06:02 9 C 4.85 g/m*3 9 C 0 km/h
547 18-10-2010 13:18:02 8.7 C 4.76 g/m*3 8.7 C 0 km/h
548 18-10-2010 13:30:02 8.7 C 4.76 g/m*3 8.7 C 0 km/h
549 18-10-2010 13:42:02 8.8 C 4.96 g/m*3 8.8 C 0 km/h
550 18-10-2010 13:54:01 8.9 C 4.91 g/m*3 8.9 C 0 km/h
Sensor: Nr:Datum:Temp:Abs-Feuchte:Windchill:Wind:
Aussen-T/F 551 18-10-2010 14:06:02 9 C 4.94 g/m*3 9 C 0 km/h
552 18-10-2010 14:18:01 8.8 C 4.79 g/m*3 8.8 C 0 km/h
553 18-10-2010 14:30:01 8.8 C 4.87 g/m*3 8.8 C 0 km/h
554 18-10-2010 14:42:01 8.8 C 4.87 g/m*3 8.8 C 0 km/h
555 18-10-2010 14:54:01 9 C 4.85 g/m*3 9 C 0 km/h
556 18-10-2010 15:06:02 8.9 C 4.82 g/m*3 8.9 C 0 km/h
557 18-10-2010 15:18:01 8.7 C 4.76 g/m*3 8.7 C 0 km/h
558 18-10-2010 15:30:01 8.7 C 4.84 g/m*3 8.7 C 0 km/h
559 18-10-2010 15:42:01 8.7 C 4.93 g/m*3 8.7 C 0 km/h
560 18-10-2010 15:54:01 8.7 C 4.93 g/m*3 8.7 C 0 km/h
561 18-10-2010 16:06:01 8.7 C 4.84 g/m*3 8.7 C 0 km/h
562 18-10-2010 16:18:02 8.6 C 4.81 g/m*3 8.6 C 0 km/h
563 18-10-2010 16:30:02 8.7 C 4.84 g/m*3 8.7 C 0 km/h
564 18-10-2010 16:42:01 8.9 C 4.99 g/m*3 8.9 C 0 km/h
565 18-10-2010 16:54:03 8.8 C 5.05 g/m*3 8.8 C 0 km/h
566 18-10-2010 17:06:02 8.8 C 5.05 g/m*3 8.8 C 0 km/h
567 18-10-2010 17:18:02 8.7 C 4.84 g/m*3 8.7 C 0 km/h
568 18-10-2010 17:30:02 8.5 C 4.78 g/m*3 8.5 C 0 km/h
569 18-10-2010 17:42:02 8.4 C 4.84 g/m*3 8.4 C 0 km/h
570 18-10-2010 17:54:02 8.2 C 4.77 g/m*3 8.2 C 0 km/h
571 18-10-2010 18:06:01 8 C 4.88 g/m*3 8 C 0 km/h
572 18-10-2010 18:18:02 7.9 C 5.01 g/m*3 7.9 C 0 km/h
573 18-10-2010 18:30:02 7.8 C 5.06 g/m*3 7.8 C 0 km/h
574 18-10-2010 18:42:02 7.7 C 5.03 g/m*3 7.7 C 0 km/h
575 18-10-2010 18:54:02 7.4 C 4.85 g/m*3 7.4 C 0 km/h
Sensor: Nr:Datum:Temp:Abs-Feuchte:Windchill:Wind:
Aussen-T/F 576 18-10-2010 19:06:01 6.8 C 4.82 g/m*3 6.8 C 0 km/h
577 18-10-2010 19:18:01 6.6 C 4.83 g/m*3 6.6 C 0 km/h
578 18-10-2010 19:30:01 6.3 C 4.89 g/m*3 6.3 C 0 km/h
579 18-10-2010 19:42:02 6.1 C 4.89 g/m*3 6.1 C 0 km/h
580 18-10-2010 19:54:02 5.8 C 5.01 g/m*3 5.8 C 0 km/h
581 18-10-2010 20:06:02 5.7 C 5.05 g/m*3 5.7 C 0 km/h
582 18-10-2010 20:18:01 5.7 C 5.05 g/m*3 5.7 C 0 km/h
583 18-10-2010 20:30:01 5.6 C 5.02 g/m*3 5.6 C 0 km/h
584 18-10-2010 20:42:02 5.5 C 5.06 g/m*3 5.5 C 0 km/h
585 18-10-2010 20:54:02 5.5 C 5.06 g/m*3 5.5 C 0 km/h
586 18-10-2010 21:06:02 5.3 C 4.99 g/m*3 5.3 C 0 km/h
587 18-10-2010 21:18:02 5.3 C 5.06 g/m*3 5.3 C 0 km/h
588 18-10-2010 21:30:02 5.3 C 5.06 g/m*3 5.3 C 0 km/h
589 18-10-2010 21:42:02 5.1 C 4.99 g/m*3 5.1 C 0 km/h
590 18-10-2010 21:54:02 4.9 C 5.06 g/m*3 4.9 C 0 km/h
591 18-10-2010 22:06:02 5 C 5.03 g/m*3 5 C 0 km/h
592 18-10-2010 22:18:02 5 C 5.03 g/m*3 5 C 0 km/h
593 18-10-2010 22:30:02 5 C 5.03 g/m*3 5 C 0 km/h
594 18-10-2010 22:42:02 4.8 C 5.1 g/m*3 4.8 C 0 km/h
595 18-10-2010 22:54:02 4.8 C 5.1 g/m*3 4.8 C 0 km/h
596 18-10-2010 23:06:02 4.8 C 5.1 g/m*3 4.8 C 0 km/h
597 18-10-2010 23:18:02 4.9 C 5.13 g/m*3 4.9 C 0 km/h
598 18-10-2010 23:30:02 4.9 C 5.2 g/m*3 4.9 C 0 km/h
599 18-10-2010 23:42:02 4.9 C 5.2 g/m*3 4.9 C 0 km/h
600 18-10-2010 23:54:02 4.8 C 5.23 g/m*3 4.8 C 0 km/h
Sensor: Nr:Datum:Temp:Abs-Feuchte:Windchill:Wind:
Aussen-T/F 601 19-10-2010 00:06:01 5 C 5.23 g/m*3 5 C 0 km/h
602 19-10-2010 00:18:02 5.1 C 5.2 g/m*3 5.1 C 0 km/h
603 19-10-2010 00:30:02 5.1 C 5.27 g/m*3 5.1 C 0 km/h
604 19-10-2010 00:42:01 5.2 C 5.23 g/m*3 5.2 C 0 km/h
605 19-10-2010 00:54:02 5.3 C 5.27 g/m*3 5.3 C 0 km/h
606 19-10-2010 01:06:01 5.4 C 5.23 g/m*3 5.4 C 0 km/h
607 19-10-2010 01:18:02 5.4 C 5.23 g/m*3 5.4 C 0 km/h
608 19-10-2010 01:30:02 5.4 C 5.3 g/m*3 5.4 C 0 km/h
609 19-10-2010 01:42:01 5.4 C 5.3 g/m*3 5.4 C 0 km/h
610 19-10-2010 01:54:02 5.5 C 5.27 g/m*3 5.5 C 0 km/h
611 19-10-2010 02:06:02 5.6 C 5.23 g/m*3 5.6 C 0 km/h
612 19-10-2010 02:18:02 5.6 C 5.23 g/m*3 5.6 C 0 km/h
613 19-10-2010 02:30:02 5.6 C 5.3 g/m*3 5.6 C 0 km/h
614 19-10-2010 02:42:03 5.4 C 5.37 g/m*3 5.4 C 0 km/h
615 19-10-2010 02:55:04 5.3 C 5.48 g/m*3 5.3 C 0 km/h
616 19-10-2010 03:07:04 5.3 C 5.54 g/m*3 5.3 C 0 km/h
617 19-10-2010 03:19:03 5 C 5.64 g/m*3 5 C 0 km/h
618 19-10-2010 03:31:02 4.9 C 5.81 g/m*3 4.9 C 0 km/h
619 19-10-2010 03:43:02 4.8 C 5.83 g/m*3 4.8 C 0 km/h
620 19-10-2010 03:55:02 4.8 C 5.9 g/m*3 4.8 C 0 km/h
621 19-10-2010 04:07:01 4.8 C 5.97 g/m*3 4.8 C 0 km/h
622 19-10-2010 04:19:01 4.9 C 6.08 g/m*3 4.9 C 0 km/h
623 19-10-2010 04:31:02 5 C 6.05 g/m*3 5 C 0 km/h
624 19-10-2010 04:43:02 5.2 C 6.06 g/m*3 5.2 C 0 km/h
625 19-10-2010 04:55:02 5.3 C 6.03 g/m*3 5.3 C 0 km/h
Sensor: Nr:Datum:Temp:Abs-Feuchte:Windchill:Wind:
Aussen-T/F 626 19-10-2010 05:07:02 5.4 C 6 g/m*3 5.4 C 0 km/h
627 19-10-2010 05:19:02 5.5 C 5.97 g/m*3 5.5 C 0 km/h
628 19-10-2010 05:31:02 5.5 C 6.04 g/m*3 5.5 C 0 km/h
629 19-10-2010 05:43:02 5.4 C 6.14 g/m*3 5.4 C 0 km/h
630 19-10-2010 05:55:01 5.3 C 6.17 g/m*3 5.3 C 0 km/h
631 19-10-2010 06:07:02 5.3 C 6.17 g/m*3 5.3 C 0 km/h
632 19-10-2010 06:19:01 5.5 C 6.32 g/m*3 5.5 C 0 km/h
633 19-10-2010 06:31:01 5.7 C 6.33 g/m*3 5.7 C 0 km/h
634 19-10-2010 06:43:02 5.7 C 6.33 g/m*3 5.7 C 0 km/h
635 19-10-2010 06:55:02 5.8 C 6.38 g/m*3 5.8 C 0 km/h
636 19-10-2010 07:07:02 5.9 C 6.42 g/m*3 5.9 C 0 km/h
637 19-10-2010 07:19:02 5.9 C 6.42 g/m*3 5.9 C 0 km/h
638 19-10-2010 07:31:02 6 C 6.39 g/m*3 6 C 0 km/h
639 19-10-2010 07:43:02 6 C 6.31 g/m*3 6 C 0 km/h
640 19-10-2010 07:55:02 6.1 C 6.36 g/m*3 6.1 C 0 km/h
641 19-10-2010 08:07:02 6.1 C 6.36 g/m*3 6.1 C 0 km/h
642 19-10-2010 08:19:02 6 C 6.39 g/m*3 6 C 0 km/h
643 19-10-2010 08:31:02 5.9 C 6.42 g/m*3 5.9 C 0 km/h
644 19-10-2010 08:43:03 5.9 C 6.49 g/m*3 5.9 C 0 km/h
645 19-10-2010 08:55:02 6 C 6.46 g/m*3 6 C 0 km/h
646 19-10-2010 09:07:02 6.2 C 6.55 g/m*3 6.2 C 0 km/h
647 19-10-2010 09:19:02 6.4 C 6.63 g/m*3 6.4 C 0 km/h
648 19-10-2010 09:31:02 6.6 C 6.64 g/m*3 6.6 C 0 km/h
649 19-10-2010 09:43:02 6.7 C 6.61 g/m*3 6.7 C 0 km/h
650 19-10-2010 09:55:02 6.8 C 6.65 g/m*3 6.8 C 0 km/h
Sensor: Nr:Datum:Temp:Abs-Feuchte:Windchill:Wind:
Aussen-T/F 651 19-10-2010 10:07:02 7.1 C 6.63 g/m*3 7.1 C 0 km/h
652 19-10-2010 10:19:03 7.3 C 6.64 g/m*3 7.3 C 0 km/h
653 19-10-2010 10:31:02 7.4 C 6.68 g/m*3 7.4 C 0 km/h
654 19-10-2010 10:43:02 7.4 C 6.6 g/m*3 7.4 C 0 km/h
655 19-10-2010 10:55:02 7.5 C 6.72 g/m*3 7.5 C 0 km/h
656 19-10-2010 11:07:02 7.3 C 6.72 g/m*3 7.3 C 0 km/h
657 19-10-2010 11:19:02 7.4 C 6.92 g/m*3 7.4 C 0 km/h
658 19-10-2010 11:31:02 7.5 C 6.96 g/m*3 7.5 C 0 km/h
659 19-10-2010 11:43:02 7.6 C 7.01 g/m*3 7.6 C 0 km/h
660 19-10-2010 11:55:02 7.7 C 7.05 g/m*3 7.7 C 0 km/h
661 19-10-2010 12:07:01 7.9 C 7.06 g/m*3 7.9 C 0 km/h
662 19-10-2010 12:19:02 8 C 6.94 g/m*3 8 C 0 km/h
663 19-10-2010 12:31:01 7.9 C 7.06 g/m*3 7.9 C 0 km/h
664 19-10-2010 12:43:01 8 C 7.11 g/m*3 8 C 0 km/h
665 19-10-2010 12:55:02 8.1 C 7.24 g/m*3 8.1 C 0 km/h
666 19-10-2010 13:07:02 8.5 C 7.43 g/m*3 8.5 C 0 km/h
667 19-10-2010 13:19:02 8.9 C 7.62 g/m*3 8.9 C 0 km/h
668 19-10-2010 13:31:02 9 C 7.49 g/m*3 9 C 0 km/h
669 19-10-2010 13:43:02 9.3 C 7.46 g/m*3 9.3 C 0 km/h
670 19-10-2010 13:55:02 9.7 C 7.38 g/m*3 9.7 C 0 km/h
671 19-10-2010 14:07:02 10 C 7.24 g/m*3 10 C 0 km/h
672 19-10-2010 14:19:02 9.7 C 7.19 g/m*3 9.7 C 0 km/h
673 19-10-2010 14:31:01 9.7 C 7.47 g/m*3 9.7 C 0 km/h
674 19-10-2010 14:43:01 9.6 C 7.6 g/m*3 9.6 C 0 km/h
675 19-10-2010 14:55:02 10 C 7.61 g/m*3 10 C 0 km/h
Sensor: Nr:Datum:Temp:Abs-Feuchte:Windchill:Wind:
Aussen-T/F 676 19-10-2010 15:07:01 9.8 C 7.42 g/m*3 9.8 C 0 km/h
677 19-10-2010 15:19:01 10.2 C 7.33 g/m*3 10.2 C 0 km/h
678 19-10-2010 15:31:02 10.3 C 7.18 g/m*3 10.3 C 0 km/h
679 19-10-2010 15:43:02 10.2 C 7.23 g/m*3 10.2 C 0 km/h
680 19-10-2010 15:55:02 11.2 C 7.7 g/m*3 11.2 C 0 km/h
681 19-10-2010 16:07:02 12.6 C 7.52 g/m*3 12.6 C 0 km/h
682 19-10-2010 16:19:02 14.2 C 7.45 g/m*3 14.2 C 0 km/h
683 19-10-2010 16:31:02 14.1 C 6.43 g/m*3 14.1 C 0 km/h
684 19-10-2010 16:43:02 11 C 6.41 g/m*3 11 C 0 km/h
685 19-10-2010 16:55:02 10.4 C 7.04 g/m*3 10.4 C 0 km/h
686 19-10-2010 17:07:03 9.9 C 7.28 g/m*3 9.9 C 0 km/h
687 19-10-2010 17:19:02 9.7 C 7.1 g/m*3 9.7 C 0 km/h
688 19-10-2010 17:31:02 10.1 C 7 g/m*3 10.1 C 0 km/h
689 19-10-2010 17:43:02 10.8 C 7.41 g/m*3 10.8 C 0 km/h
690 19-10-2010 17:55:01 11 C 7.31 g/m*3 11 C 0 km/h
691 19-10-2010 18:07:02 10.3 C 6.99 g/m*3 10.3 C 0 km/h
692 19-10-2010 18:19:02 9.3 C 6.92 g/m*3 9.3 C 0 km/h
693 19-10-2010 18:31:01 8.9 C 7.01 g/m*3 8.9 C 0 km/h
694 19-10-2010 18:43:01 8.4 C 6.87 g/m*3 8.4 C 0 km/h
695 19-10-2010 18:55:01 8.3 C 7 g/m*3 8.3 C 0 km/h
696 19-10-2010 19:07:01 8.1 C 6.91 g/m*3 8.1 C 0 km/h
697 19-10-2010 19:19:02 8 C 6.86 g/m*3 8 C 0 km/h
698 19-10-2010 19:31:01 8.1 C 6.99 g/m*3 8.1 C 0 km/h
699 19-10-2010 19:43:01 7.9 C 6.9 g/m*3 7.9 C 0 km/h
700 19-10-2010 19:55:02 7.8 C 6.61 g/m*3 7.8 C 0 km/h
Sensor: Nr:Datum:Temp:Abs-Feuchte:Windchill:Wind:
Aussen-T/F 701 19-10-2010 20:07:01 7.4 C 6.44 g/m*3 7.4 C 0 km/h
702 19-10-2010 20:19:01 7.4 C 6.52 g/m*3 7.4 C 0 km/h
703 19-10-2010 20:31:01 7.3 C 6.4 g/m*3 7.3 C 0 km/h
704 19-10-2010 20:43:01 7.3 C 6.48 g/m*3 7.3 C 0 km/h
705 19-10-2010 20:55:02 7.4 C 6.44 g/m*3 7.4 C 0 km/h
706 19-10-2010 21:07:02 7.4 C 6.36 g/m*3 7.4 C 0 km/h
707 19-10-2010 21:19:02 7 C 6.2 g/m*3 7 C 0 km/h
708 19-10-2010 21:31:02 6.9 C 6.24 g/m*3 6.9 C 0 km/h
709 19-10-2010 21:43:02 6.7 C 6.15 g/m*3 6.7 C 0 km/h
710 19-10-2010 21:55:02 6.7 C 6.15 g/m*3 6.7 C 0 km/h
711 19-10-2010 22:07:02 6.5 C 6.15 g/m*3 6.5 C 0 km/h
712 19-10-2010 22:20:03 6.5 C 6.15 g/m*3 6.5 C 0 km/h
713 19-10-2010 22:32:03 6.5 C 6.15 g/m*3 6.5 C 0 km/h
714 19-10-2010 22:44:03 6.5 C 6.15 g/m*3 6.5 C 0 km/h
715 19-10-2010 22:56:03 6.6 C 6.19 g/m*3 6.6 C 0 km/h
716 19-10-2010 23:08:03 6.7 C 6.23 g/m*3 6.7 C 0 km/h
717 19-10-2010 23:20:03 6.7 C 6.23 g/m*3 6.7 C 0 km/h
718 19-10-2010 23:32:04 6.5 C 6.15 g/m*3 6.5 C 0 km/h
719 19-10-2010 23:44:04 6.4 C 6.18 g/m*3 6.4 C 0 km/h
720 19-10-2010 23:56:04 6.4 C 6.18 g/m*3 6.4 C 0 km/h
721 20-10-2010 00:08:04 6.3 C 6.14 g/m*3 6.3 C 0 km/h
722 20-10-2010 00:20:04 6.4 C 6.18 g/m*3 6.4 C 0 km/h
723 20-10-2010 00:32:04 6.2 C 6.1 g/m*3 6.2 C 0 km/h
724 20-10-2010 00:44:04 6.4 C 6.18 g/m*3 6.4 C 0 km/h
725 20-10-2010 00:56:04 6.4 C 6.18 g/m*3 6.4 C 0 km/h
Sensor: Nr:Datum:Temp:Abs-Feuchte:Windchill:Wind:
Aussen-T/F 726 20-10-2010 01:08:04 6.4 C 6.18 g/m*3 6.4 C 0 km/h
727 20-10-2010 01:20:04 6.5 C 6.15 g/m*3 6.5 C 0 km/h
728 20-10-2010 01:32:04 6.4 C 6.11 g/m*3 6.4 C 0 km/h
729 20-10-2010 01:44:04 6.4 C 6.18 g/m*3 6.4 C 0 km/h
730 20-10-2010 01:56:04 6.2 C 6.18 g/m*3 6.2 C 0 km/h
731 20-10-2010 02:08:04 6.1 C 6.28 g/m*3 6.1 C 0 km/h
732 20-10-2010 02:20:04 6 C 6.31 g/m*3 6 C 0 km/h
733 20-10-2010 02:32:04 5.9 C 6.42 g/m*3 5.9 C 0 km/h
734 20-10-2010 02:44:04 5.9 C 6.49 g/m*3 5.9 C 0 km/h
735 20-10-2010 02:56:04 5.8 C 6.45 g/m*3 5.8 C 0 km/h
736 20-10-2010 03:08:04 5.8 C 6.52 g/m*3 5.8 C 0 km/h
737 20-10-2010 03:20:04 5.7 C 6.48 g/m*3 5.7 C 0 km/h
738 20-10-2010 03:32:04 5.7 C 6.48 g/m*3 5.7 C 0 km/h
739 20-10-2010 03:44:05 5.8 C 6.59 g/m*3 5.8 C 0 km/h
740 20-10-2010 03:56:05 5.8 C 6.59 g/m*3 5.8 C 0 km/h
741 20-10-2010 04:08:05 5.8 C 6.52 g/m*3 5.8 C 0 km/h
742 20-10-2010 04:20:05 5.8 C 6.52 g/m*3 5.8 C 0 km/h
743 20-10-2010 04:32:05 5.9 C 6.56 g/m*3 5.9 C 0 km/h
744 20-10-2010 04:44:05 5.9 C 6.49 g/m*3 5.9 C 0 km/h
745 20-10-2010 04:56:05 5.8 C 6.45 g/m*3 5.8 C 0 km/h
746 20-10-2010 05:08:05 5.7 C 6.48 g/m*3 5.7 C 0 km/h
747 20-10-2010 05:20:05 5.7 C 6.55 g/m*3 5.7 C 0 km/h
748 20-10-2010 05:32:05 5.6 C 6.57 g/m*3 5.6 C 0 km/h
749 20-10-2010 05:44:05 5.6 C 6.57 g/m*3 5.6 C 0 km/h
750 20-10-2010 05:56:05 5.5 C 6.6 g/m*3 5.5 C 0 km/h
Sensor: Nr:Datum:Temp:Abs-Feuchte:Windchill:Wind:
Aussen-T/F 751 20-10-2010 06:08:05 5.5 C 6.6 g/m*3 5.5 C 0 km/h
752 20-10-2010 06:20:05 5.5 C 6.6 g/m*3 5.5 C 0 km/h
753 20-10-2010 06:32:05 5.5 C 6.6 g/m*3 5.5 C 0 km/h
754 20-10-2010 06:44:05 5.5 C 6.6 g/m*3 5.5 C 0 km/h
755 20-10-2010 06:56:05 5.6 C 6.65 g/m*3 5.6 C 0 km/h
756 20-10-2010 07:08:05 5.5 C 6.67 g/m*3 5.5 C 0 km/h
757 20-10-2010 07:20:05 5.5 C 6.67 g/m*3 5.5 C 0 km/h
758 20-10-2010 07:32:05 5.5 C 6.67 g/m*3 5.5 C 0 km/h
759 20-10-2010 07:44:05 5.5 C 6.6 g/m*3 5.5 C 0 km/h
760 20-10-2010 07:56:06 5.5 C 6.6 g/m*3 5.5 C 0 km/h
761 20-10-2010 08:08:03 5.5 C 6.6 g/m*3 5.5 C 0 km/h
762 20-10-2010 08:20:04 5.5 C 6.6 g/m*3 5.5 C 0 km/h
763 20-10-2010 08:32:03 5.6 C 6.65 g/m*3 5.6 C 0 km/h
764 20-10-2010 08:44:03 5.6 C 6.65 g/m*3 5.6 C 0 km/h
765 20-10-2010 08:56:02 5.8 C 6.81 g/m*3 5.8 C 0 km/h
766 20-10-2010 09:08:02 5.8 C 6.81 g/m*3 5.8 C 0 km/h
767 20-10-2010 09:20:02 5.8 C 6.73 g/m*3 5.8 C 0 km/h
768 20-10-2010 09:32:02 5.9 C 6.78 g/m*3 5.9 C 0 km/h
769 20-10-2010 09:44:02 6.1 C 6.87 g/m*3 6.1 C 0 km/h
770 20-10-2010 09:56:02 6.4 C 7 g/m*3 6.4 C 0 km/h
771 20-10-2010 10:08:01 6.8 C 7.11 g/m*3 6.8 C 0 km/h
772 20-10-2010 10:20:02 6.8 C 7.04 g/m*3 6.8 C 0 km/h
773 20-10-2010 10:32:02 7 C 6.97 g/m*3 7 C 0 km/h
774 20-10-2010 10:44:02 7.1 C 6.94 g/m*3 7.1 C 0 km/h
775 20-10-2010 10:56:01 6.9 C 6.7 g/m*3 6.9 C 0 km/h
Sensor: Nr:Datum:Temp:Abs-Feuchte:Windchill:Wind:
Aussen-T/F 776 20-10-2010 11:08:02 6.9 C 6.54 g/m*3 6.9 C 0 km/h
777 20-10-2010 11:20:01 6.9 C 6.54 g/m*3 6.9 C 0 km/h
778 20-10-2010 11:32:02 6.9 C 6.54 g/m*3 6.9 C 0 km/h
779 20-10-2010 11:44:02 6.8 C 6.35 g/m*3 6.8 C 0 km/h
780 20-10-2010 11:56:02 6.7 C 6.23 g/m*3 6.7 C 0 km/h
781 20-10-2010 12:08:02 6.7 C 6.23 g/m*3 6.7 C 0 km/h
782 20-10-2010 12:20:01 7 C 6.43 g/m*3 7 C 0 km/h
783 20-10-2010 12:32:02 6.9 C 6.47 g/m*3 6.9 C 0 km/h
784 20-10-2010 12:44:02 6.9 C 6.39 g/m*3 6.9 C 0 km/h
785 20-10-2010 12:56:02 7.1 C 6.4 g/m*3 7.1 C 0 km/h
786 20-10-2010 13:08:02 7.4 C 6.44 g/m*3 7.4 C 0 km/h
787 20-10-2010 13:20:01 7.6 C 6.36 g/m*3 7.6 C 0 km/h
788 20-10-2010 13:32:02 7.9 C 6.32 g/m*3 7.9 C 0 km/h
789 20-10-2010 13:44:02 8.4 C 6.02 g/m*3 8.4 C 0 km/h
790 20-10-2010 13:56:02 8.3 C 5.82 g/m*3 8.3 C 0 km/h
791 20-10-2010 14:08:02 8.4 C 5.77 g/m*3 8.4 C 0 km/h
792 20-10-2010 14:20:02 9.2 C 5.98 g/m*3 9.2 C 0 km/h
793 20-10-2010 14:32:02 9.5 C 5.73 g/m*3 9.5 C 0 km/h
794 20-10-2010 14:44:02 10.2 C 5.71 g/m*3 10.2 C 0 km/h
795 20-10-2010 14:56:02 10.1 C 5.11 g/m*3 10.1 C 0 km/h
796 20-10-2010 15:08:02 7.8 C 5.22 g/m*3 7.8 C 0 km/h
797 20-10-2010 15:20:02 7.2 C 5.65 g/m*3 7.2 C 0 km/h
798 20-10-2010 15:32:02 7.6 C 5.72 g/m*3 7.6 C 0 km/h
799 20-10-2010 15:44:02 7.8 C 5.63 g/m*3 7.8 C 0 km/h
800 20-10-2010 15:56:02 8 C 5.54 g/m*3 8 C 0 km/h
Sensor: Nr:Datum:Temp:Abs-Feuchte:Windchill:Wind:
Aussen-T/F 801 20-10-2010 16:08:01 8.2 C 5.28 g/m*3 8.2 C 0 km/h
802 20-10-2010 16:20:02 7.6 C 5.16 g/m*3 7.6 C 0 km/h
803 20-10-2010 16:32:02 7 C 4.88 g/m*3 7 C 0 km/h
804 20-10-2010 16:44:02 6.9 C 4.93 g/m*3 6.9 C 0 km/h
805 20-10-2010 16:56:02 7.1 C 5.07 g/m*3 7.1 C 0 km/h
806 20-10-2010 17:08:01 7.3 C 4.9 g/m*3 7.3 C 0 km/h
807 20-10-2010 17:20:01 7.3 C 4.66 g/m*3 7.3 C 0 km/h
808 20-10-2010 17:32:02 6.9 C 4.93 g/m*3 6.9 C 0 km/h
809 20-10-2010 17:44:02 6.9 C 5.08 g/m*3 6.9 C 0 km/h
810 20-10-2010 17:56:02 6.7 C 5.01 g/m*3 6.7 C 0 km/h
811 20-10-2010 18:08:02 6.4 C 4.99 g/m*3 6.4 C 0 km/h
812 20-10-2010 18:20:02 6.2 C 5 g/m*3 6.2 C 0 km/h
813 20-10-2010 18:32:02 6.3 C 5.11 g/m*3 6.3 C 0 km/h
814 20-10-2010 18:44:02 6.3 C 5.03 g/m*3 6.3 C 0 km/h
815 20-10-2010 18:56:02 6.4 C 5.07 g/m*3 6.4 C 0 km/h
816 20-10-2010 19:08:02 5.5 C 4.99 g/m*3 5.5 C 0 km/h
817 20-10-2010 19:20:02 4.7 C 5.13 g/m*3 4.7 C 0 km/h
818 20-10-2010 19:32:02 4.5 C 5.32 g/m*3 4.5 C 0 km/h
819 20-10-2010 19:44:02 4.2 C 5.35 g/m*3 4.2 C 0 km/h
820 20-10-2010 19:56:01 4.3 C 5.38 g/m*3 4.3 C 0 km/h
821 20-10-2010 20:08:01 4.5 C 5.39 g/m*3 4.5 C 0 km/h
822 20-10-2010 20:20:02 4.5 C 5.32 g/m*3 4.5 C 0 km/h
823 20-10-2010 20:32:01 4.5 C 5.26 g/m*3 4.5 C 0 km/h
824 20-10-2010 20:44:01 4.7 C 5.2 g/m*3 4.7 C 0 km/h
825 20-10-2010 20:56:01 4.5 C 5.06 g/m*3 4.5 C 0 km/h
Sensor: Nr:Datum:Temp:Abs-Feuchte:Windchill:Wind:
Aussen-T/F 826 20-10-2010 21:08:01 4.5 C 5.13 g/m*3 4.5 C 0 km/h
827 20-10-2010 21:20:02 4.5 C 5.13 g/m*3 4.5 C 0 km/h
828 20-10-2010 21:32:01 4.5 C 5.13 g/m*3 4.5 C 0 km/h
829 20-10-2010 21:44:01 4.5 C 5.13 g/m*3 4.5 C 0 km/h
830 20-10-2010 21:56:03 4.3 C 5.06 g/m*3 4.3 C 0 km/h
831 20-10-2010 22:08:02 4.2 C 5.09 g/m*3 4.2 C 0 km/h
832 20-10-2010 22:20:02 4.4 C 5.09 g/m*3 4.4 C 0 km/h
833 20-10-2010 22:32:02 4.6 C 5.16 g/m*3 4.6 C 0 km/h
834 20-10-2010 22:44:02 4.6 C 5.03 g/m*3 4.6 C 0 km/h
835 20-10-2010 22:57:04 4.6 C 4.96 g/m*3 4.6 C 0 km/h
836 20-10-2010 23:09:04 4.5 C 5 g/m*3 4.5 C 0 km/h
837 20-10-2010 23:21:04 4.2 C 5.03 g/m*3 4.2 C 0 km/h
838 20-10-2010 23:33:04 4.3 C 5.06 g/m*3 4.3 C 0 km/h
839 20-10-2010 23:45:04 4.2 C 5.03 g/m*3 4.2 C 0 km/h
840 20-10-2010 23:57:04 4.4 C 5.16 g/m*3 4.4 C 0 km/h
841 21-10-2010 00:09:04 4.5 C 5.13 g/m*3 4.5 C 0 km/h
842 21-10-2010 00:21:04 4.5 C 5.06 g/m*3 4.5 C 0 km/h
843 21-10-2010 00:33:04 4.6 C 5.1 g/m*3 4.6 C 0 km/h
844 21-10-2010 00:45:04 4.7 C 5.13 g/m*3 4.7 C 0 km/h
845 21-10-2010 00:57:04 4.7 C 5.13 g/m*3 4.7 C 0 km/h
846 21-10-2010 01:09:04 4.6 C 5.1 g/m*3 4.6 C 0 km/h
847 21-10-2010 01:21:04 4.5 C 5.06 g/m*3 4.5 C 0 km/h
848 21-10-2010 01:33:04 4.3 C 4.99 g/m*3 4.3 C 0 km/h
849 21-10-2010 01:45:04 4.5 C 5.06 g/m*3 4.5 C 0 km/h
850 21-10-2010 01:57:04 4.3 C 4.99 g/m*3 4.3 C 0 km/h
Sensor: Nr:Datum:Temp:Abs-Feuchte:Windchill:Wind:
Aussen-T/F 851 21-10-2010 02:09:04 4.1 C 4.93 g/m*3 4.1 C 0 km/h
852 21-10-2010 02:21:04 3.8 C 4.96 g/m*3 3.8 C 0 km/h
853 21-10-2010 02:33:05 3.7 C 4.99 g/m*3 3.7 C 0 km/h
854 21-10-2010 02:45:05 3.6 C 5.01 g/m*3 3.6 C 0 km/h
855 21-10-2010 02:57:05 3.5 C 4.98 g/m*3 3.5 C 0 km/h
856 21-10-2010 03:09:05 3.5 C 4.98 g/m*3 3.5 C 0 km/h
857 21-10-2010 03:21:05 3.4 C 5.01 g/m*3 3.4 C 0 km/h
858 21-10-2010 03:33:05 3.4 C 5.01 g/m*3 3.4 C 0 km/h
859 21-10-2010 03:45:05 3.3 C 4.97 g/m*3 3.3 C 0 km/h
860 21-10-2010 03:57:05 3 C 4.93 g/m*3 3 C 0 km/h
861 21-10-2010 04:09:05 3 C 4.93 g/m*3 3 C 0 km/h
862 21-10-2010 04:21:05 3 C 4.99 g/m*3 3 C 0 km/h
863 21-10-2010 04:33:05 2.5 C 4.83 g/m*3 2.5 C 0 km/h
864 21-10-2010 04:45:05 2.3 C 4.82 g/m*3 2.3 C 0 km/h
865 21-10-2010 04:57:05 2.4 C 4.91 g/m*3 2.4 C 0 km/h
866 21-10-2010 05:09:05 2.4 C 4.97 g/m*3 2.4 C 0 km/h
867 21-10-2010 05:21:05 2.1 C 4.87 g/m*3 2.1 C 0 km/h
868 21-10-2010 05:33:05 1.8 C 4.77 g/m*3 1.8 C 0 km/h
869 21-10-2010 05:45:05 1.6 C 4.7 g/m*3 1.6 C 0 km/h
870 21-10-2010 05:57:05 1.7 C 4.79 g/m*3 1.7 C 0 km/h
871 21-10-2010 06:09:05 1.5 C 4.73 g/m*3 1.5 C 0 km/h
872 21-10-2010 06:21:05 1.6 C 4.81 g/m*3 1.6 C 0 km/h
873 21-10-2010 06:33:06 1.8 C 4.93 g/m*3 1.8 C 0 km/h
874 21-10-2010 06:45:06 1.8 C 4.99 g/m*3 1.8 C 0 km/h
875 21-10-2010 06:57:06 1.8 C 5.04 g/m*3 1.8 C 0 km/h
Sensor: Nr:Datum:Temp:Abs-Feuchte:Windchill:Wind:
Aussen-T/F 876 21-10-2010 07:09:06 1.7 C 5.01 g/m*3 1.7 C 0 km/h
877 21-10-2010 07:21:06 1.8 C 5.04 g/m*3 1.8 C 0 km/h
878 21-10-2010 07:33:06 1.6 C 4.97 g/m*3 1.6 C 0 km/h
879 21-10-2010 07:45:06 1.6 C 4.97 g/m*3 1.6 C 0 km/h
880 21-10-2010 07:57:06 1.6 C 4.97 g/m*3 1.6 C 0 km/h
881 21-10-2010 08:09:06 1.7 C 5.01 g/m*3 1.7 C 0 km/h
882 21-10-2010 08:21:03 1.8 C 5.04 g/m*3 1.8 C 0 km/h
883 21-10-2010 08:33:04 1.9 C 5.08 g/m*3 1.9 C 0 km/h
884 21-10-2010 08:45:02 2.5 C 5.29 g/m*3 2.5 C 0 km/h
885 21-10-2010 08:57:03 2.6 C 5.27 g/m*3 2.6 C 0 km/h
886 21-10-2010 09:09:02 2.6 C 5.27 g/m*3 2.6 C 0 km/h
887 21-10-2010 09:21:02 2.8 C 5.28 g/m*3 2.8 C 0 km/h
888 21-10-2010 09:33:02 3 C 5.23 g/m*3 3 C 0 km/h
889 21-10-2010 09:45:01 3.2 C 5.24 g/m*3 3.2 C 0 km/h
890 21-10-2010 09:57:01 3.4 C 5.19 g/m*3 3.4 C 0 km/h
891 21-10-2010 10:09:02 3.7 C 5.17 g/m*3 3.7 C 0 km/h
892 21-10-2010 10:21:01 3.9 C 5.05 g/m*3 3.9 C 0 km/h
893 21-10-2010 10:33:02 4.1 C 4.99 g/m*3 4.1 C 0 km/h
894 21-10-2010 10:45:02 4.3 C 4.99 g/m*3 4.3 C 0 km/h
895 21-10-2010 10:57:02 4.8 C 5.1 g/m*3 4.8 C 0 km/h
896 21-10-2010 11:09:02 5.1 C 4.99 g/m*3 5.1 C 0 km/h
897 21-10-2010 11:21:01 5.4 C 5.09 g/m*3 5.4 C 0 km/h
898 21-10-2010 11:33:02 5.7 C 4.98 g/m*3 5.7 C 0 km/h
899 21-10-2010 11:45:02 5.9 C 4.98 g/m*3 5.9 C 0 km/h
900 21-10-2010 11:57:02 6.1 C 4.89 g/m*3 6.1 C 0 km/h
Sensor: Nr:Datum:Temp:Abs-Feuchte:Windchill:Wind:
Aussen-T/F 901 21-10-2010 12:09:02 6.4 C 4.84 g/m*3 6.4 C 0 km/h
902 21-10-2010 12:21:01 6.7 C 4.71 g/m*3 6.7 C 0 km/h
903 21-10-2010 12:33:02 7 C 4.57 g/m*3 7 C 0 km/h
904 21-10-2010 12:45:02 7.2 C 4.47 g/m*3 7.2 C 0 km/h
905 21-10-2010 12:57:02 7.6 C 4.51 g/m*3 7.6 C 0 km/h
906 21-10-2010 13:09:02 7.9 C 4.44 g/m*3 7.9 C 0 km/h
907 21-10-2010 13:21:02 8.3 C 4.3 g/m*3 8.3 C 0 km/h
908 21-10-2010 13:33:02 8.7 C 4.06 g/m*3 8.7 C 0 km/h
909 21-10-2010 13:45:02 9.1 C 3.99 g/m*3 9.1 C 0 km/h
910 21-10-2010 13:57:02 9.5 C 3.82 g/m*3 9.5 C 0 km/h
911 21-10-2010 14:09:02 9.9 C 3.92 g/m*3 9.9 C 0 km/h
912 21-10-2010 14:21:02 10.1 C 3.78 g/m*3 10.1 C 0 km/h
913 21-10-2010 14:33:01 10.5 C 3.88 g/m*3 10.5 C 0 km/h
914 21-10-2010 14:45:02 10.6 C 3.9 g/m*3 10.6 C 0 km/h
915 21-10-2010 14:57:02 10.8 C 3.85 g/m*3 10.8 C 0 km/h
916 21-10-2010 15:09:01 10.7 C 3.63 g/m*3 10.7 C 0 km/h
917 21-10-2010 15:21:02 10.6 C 3.61 g/m*3 10.6 C 0 km/h
918 21-10-2010 15:33:01 10.6 C 3.51 g/m*3 10.6 C 0 km/h
919 21-10-2010 15:45:02 10.7 C 3.73 g/m*3 10.7 C 0 km/h
920 21-10-2010 15:57:03 10.7 C 3.63 g/m*3 10.7 C 0 km/h
921 21-10-2010 16:09:02 10.9 C 3.78 g/m*3 10.9 C 0 km/h
922 21-10-2010 16:21:02 10.6 C 3.61 g/m*3 10.6 C 0 km/h
923 21-10-2010 16:33:02 10.2 C 3.52 g/m*3 10.2 C 0 km/h
924 21-10-2010 16:45:02 9.9 C 3.64 g/m*3 9.9 C 0 km/h
925 21-10-2010 16:57:02 10.4 C 3.66 g/m*3 10.4 C 0 km/h
Sensor: Nr:Datum:Temp:Abs-Feuchte:Windchill:Wind:
Aussen-T/F 926 21-10-2010 17:09:02 11.2 C 3.65 g/m*3 11.2 C 0 km/h
927 21-10-2010 17:21:01 11.4 C 3.59 g/m*3 11.4 C 0 km/h
928 21-10-2010 17:33:02 11.3 C 3.47 g/m*3 11.3 C 0 km/h
929 21-10-2010 17:45:02 10.9 C 3.58 g/m*3 10.9 C 0 km/h
930 21-10-2010 17:57:02 10 C 3.48 g/m*3 10 C 0 km/h
931 21-10-2010 18:09:02 8.9 C 3.94 g/m*3 8.9 C 0 km/h
932 21-10-2010 18:21:01 7.8 C 3.92 g/m*3 7.8 C 0 km/h
933 21-10-2010 18:33:02 7.2 C 3.92 g/m*3 7.2 C 0 km/h
934 21-10-2010 18:45:02 6.7 C 4.03 g/m*3 6.7 C 0 km/h
935 21-10-2010 18:57:02 6.3 C 4.07 g/m*3 6.3 C 0 km/h
936 21-10-2010 19:09:02 6.1 C 4.02 g/m*3 6.1 C 0 km/h
937 21-10-2010 19:21:01 5.8 C 4.01 g/m*3 5.8 C 0 km/h
938 21-10-2010 19:33:02 5.6 C 4.03 g/m*3 5.6 C 0 km/h
939 21-10-2010 19:45:02 5.5 C 4.07 g/m*3 5.5 C 0 km/h
940 21-10-2010 19:57:02 5.2 C 4.13 g/m*3 5.2 C 0 km/h
941 21-10-2010 20:09:02 5 C 4.08 g/m*3 5 C 0 km/h
942 21-10-2010 20:21:02 4.8 C 4.09 g/m*3 4.8 C 0 km/h
943 21-10-2010 20:33:02 4.7 C 4.06 g/m*3 4.7 C 0 km/h
944 21-10-2010 20:45:02 4.7 C 3.86 g/m*3 4.7 C 0 km/h
945 21-10-2010 20:57:02 5.1 C 3.69 g/m*3 5.1 C 0 km/h
946 21-10-2010 21:09:02 5 C 3.6 g/m*3 5 C 0 km/h
947 21-10-2010 21:21:02 4.9 C 3.71 g/m*3 4.9 C 0 km/h
948 21-10-2010 21:33:02 4.6 C 3.77 g/m*3 4.6 C 0 km/h
949 21-10-2010 21:45:02 4.5 C 3.75 g/m*3 4.5 C 0 km/h
950 21-10-2010 21:57:02 4.1 C 3.84 g/m*3 4.1 C 0 km/h
Sensor: Nr:Datum:Temp:Abs-Feuchte:Windchill:Wind:
Aussen-T/F 951 21-10-2010 22:09:02 4 C 3.81 g/m*3 4 C 0 km/h
952 21-10-2010 22:22:04 4.1 C 3.78 g/m*3 4.1 C 0 km/h
953 21-10-2010 22:34:04 3.8 C 3.83 g/m*3 3.8 C 0 km/h
954 21-10-2010 22:46:04 3.7 C 3.86 g/m*3 3.7 C 0 km/h
955 21-10-2010 22:58:04 3.6 C 3.9 g/m*3 3.6 C 0 km/h
956 21-10-2010 23:10:04 3.5 C 3.87 g/m*3 3.5 C 0 km/h
957 21-10-2010 23:22:04 3.5 C 3.87 g/m*3 3.5 C 0 km/h
958 21-10-2010 23:34:04 3.3 C 3.88 g/m*3 3.3 C 0 km/h
959 21-10-2010 23:46:04 2.9 C 3.9 g/m*3 2.9 C 0 km/h
960 21-10-2010 23:58:04 2.5 C 3.91 g/m*3 2.5 C 0 km/h
961 22-10-2010 00:10:04 2.2 C 4 g/m*3 2.2 C 0 km/h
962 22-10-2010 00:22:04 2.2 C 4.06 g/m*3 2.2 C 0 km/h
963 22-10-2010 00:34:05 2.8 C 4.11 g/m*3 2.8 C 0 km/h
964 22-10-2010 00:46:05 2.5 C 4.08 g/m*3 2.5 C 0 km/h
965 22-10-2010 00:58:05 2.2 C 4.06 g/m*3 2.2 C 0 km/h
966 22-10-2010 01:10:05 1.6 C 4 g/m*3 1.6 C 0 km/h
967 22-10-2010 01:22:05 1.3 C 4.03 g/m*3 1.3 C 0 km/h
968 22-10-2010 01:34:05 1.8 C 4.22 g/m*3 1.8 C 0 km/h
969 22-10-2010 01:46:05 2 C 4.17 g/m*3 2 C 0 km/h
970 22-10-2010 01:58:05 2 C 4.11 g/m*3 2 C 0 km/h
971 22-10-2010 02:10:05 2.1 C 4.08 g/m*3 2.1 C 0 km/h
972 22-10-2010 02:22:05 2.1 C 4.08 g/m*3 2.1 C 0 km/h
973 22-10-2010 02:34:05 2 C 4.06 g/m*3 2 C 0 km/h
974 22-10-2010 02:46:05 2.2 C 4.11 g/m*3 2.2 C 0 km/h
975 22-10-2010 02:58:05 2.2 C 4.11 g/m*3 2.2 C 0 km/h
Sensor: Nr:Datum:Temp:Abs-Feuchte:Windchill:Wind:
Aussen-T/F 976 22-10-2010 03:10:05 2.1 C 4.08 g/m*3 2.1 C 0 km/h
977 22-10-2010 03:22:05 2.3 C 4.08 g/m*3 2.3 C 0 km/h
978 22-10-2010 03:34:05 2.1 C 4.03 g/m*3 2.1 C 0 km/h
979 22-10-2010 03:46:05 2.3 C 4.14 g/m*3 2.3 C 0 km/h
980 22-10-2010 03:58:05 2 C 4.06 g/m*3 2 C 0 km/h
981 22-10-2010 04:10:05 1.7 C 4.03 g/m*3 1.7 C 0 km/h
982 22-10-2010 04:22:05 1.4 C 4.05 g/m*3 1.4 C 0 km/h
983 22-10-2010 04:34:06 1.4 C 4.11 g/m*3 1.4 C 0 km/h
984 22-10-2010 04:46:06 1.5 C 4.14 g/m*3 1.5 C 0 km/h
985 22-10-2010 04:58:06 1.4 C 4.11 g/m*3 1.4 C 0 km/h
986 22-10-2010 05:10:06 1.2 C 4.1 g/m*3 1.2 C 0 km/h
987 22-10-2010 05:22:06 1.3 C 4.13 g/m*3 1.3 C 0 km/h
988 22-10-2010 05:34:06 1.6 C 4.16 g/m*3 1.6 C 0 km/h
989 22-10-2010 05:46:06 1.4 C 4.05 g/m*3 1.4 C 0 km/h
990 22-10-2010 05:58:06 1.4 C 4.11 g/m*3 1.4 C 0 km/h
991 22-10-2010 06:10:06 1.5 C 4.08 g/m*3 1.5 C 0 km/h
992 22-10-2010 06:22:06 1.6 C 4.11 g/m*3 1.6 C 0 km/h
993 22-10-2010 06:34:06 1.8 C 4.06 g/m*3 1.8 C 0 km/h
994 22-10-2010 06:46:06 1.7 C 4.03 g/m*3 1.7 C 0 km/h
995 22-10-2010 06:58:06 1.7 C 4.03 g/m*3 1.7 C 0 km/h
996 22-10-2010 07:10:02 1.4 C 4 g/m*3 1.4 C 0 km/h
997 22-10-2010 07:22:03 1 C 3.89 g/m*3 1 C 0 km/h
998 22-10-2010 07:34:03 0.7 C 3.92 g/m*3 0.7 C 0 km/h
999 22-10-2010 07:46:02 0.6 C 3.99 g/m*3 0.6 C 0 km/h
1000 22-10-2010 07:58:02 1 C 4.1 g/m*3 1 C 0 km/h
Sensor: Nr:Datum:Temp:Abs-Feuchte:Windchill:Wind:
Aussen-T/F 1001 22-10-2010 08:10:01 1.5 C 4.14 g/m*3 1.5 C 0 km/h
1002 22-10-2010 08:22:02 1.3 C 4.03 g/m*3 1.3 C 0 km/h
1003 22-10-2010 08:34:02 1.1 C 3.97 g/m*3 1.1 C 0 km/h
1004 22-10-2010 08:46:02 1.1 C 3.97 g/m*3 1.1 C 0 km/h
1005 22-10-2010 08:58:02 1.4 C 4.11 g/m*3 1.4 C 0 km/h
1006 22-10-2010 09:10:03 1.3 C 4.13 g/m*3 1.3 C 0 km/h
1007 22-10-2010 09:22:02 1.4 C 4.16 g/m*3 1.4 C 0 km/h
1008 22-10-2010 09:34:02 1.9 C 4.3 g/m*3 1.9 C 0 km/h
1009 22-10-2010 09:46:01 2.5 C 4.43 g/m*3 2.5 C 0 km/h
1010 22-10-2010 09:58:01 3.2 C 4.46 g/m*3 3.2 C 0 km/h
1011 22-10-2010 10:10:02 3.8 C 4.58 g/m*3 3.8 C 0 km/h
1012 22-10-2010 10:22:01 4.1 C 4.29 g/m*3 4.1 C 0 km/h
1013 22-10-2010 10:34:01 4.3 C 4.15 g/m*3 4.3 C 0 km/h
1014 22-10-2010 10:46:01 4.6 C 4.1 g/m*3 4.6 C 0 km/h
1015 22-10-2010 10:58:01 4.7 C 4 g/m*3 4.7 C 0 km/h
1016 22-10-2010 11:10:02 4.8 C 4.02 g/m*3 4.8 C 0 km/h
1017 22-10-2010 11:22:01 5.1 C 3.9 g/m*3 5.1 C 0 km/h
1018 22-10-2010 11:34:01 5.4 C 3.91 g/m*3 5.4 C 0 km/h
1019 22-10-2010 11:46:01 5.7 C 3.91 g/m*3 5.7 C 0 km/h
1020 22-10-2010 11:58:01 5.8 C 3.94 g/m*3 5.8 C 0 km/h
1021 22-10-2010 12:10:02 6.1 C 3.87 g/m*3 6.1 C 0 km/h
1022 22-10-2010 12:22:02 6.5 C 3.9 g/m*3 6.5 C 0 km/h
1023 22-10-2010 12:34:01 6.5 C 3.82 g/m*3 6.5 C 0 km/h
1024 22-10-2010 12:46:02 6.8 C 3.98 g/m*3 6.8 C 0 km/h
1025 22-10-2010 12:58:02 6.9 C 3.93 g/m*3 6.9 C 0 km/h
Sensor: Nr:Datum:Temp:Abs-Feuchte:Windchill:Wind:
Aussen-T/F 1026 22-10-2010 13:10:01 7 C 3.87 g/m*3 7 C 0 km/h
1027 22-10-2010 13:22:02 7.1 C 3.82 g/m*3 7.1 C 0 km/h
1028 22-10-2010 13:34:01 7.2 C 3.92 g/m*3 7.2 C 0 km/h
1029 22-10-2010 13:46:02 7.3 C 3.87 g/m*3 7.3 C 0 km/h
1030 22-10-2010 13:58:02 7.3 C 3.95 g/m*3 7.3 C 0 km/h
1031 22-10-2010 14:10:02 7.3 C 3.87 g/m*3 7.3 C 0 km/h
1032 22-10-2010 14:22:02 7.5 C 3.92 g/m*3 7.5 C 0 km/h
1033 22-10-2010 14:34:03 7.5 C 3.84 g/m*3 7.5 C 0 km/h
1034 22-10-2010 14:46:02 7.3 C 3.87 g/m*3 7.3 C 0 km/h
1035 22-10-2010 14:58:03 7.2 C 3.85 g/m*3 7.2 C 0 km/h
1036 22-10-2010 15:10:01 7.2 C 3.69 g/m*3 7.2 C 0 km/h
1037 22-10-2010 15:22:02 7.3 C 3.79 g/m*3 7.3 C 0 km/h
1038 22-10-2010 15:34:02 7.2 C 3.77 g/m*3 7.2 C 0 km/h
1039 22-10-2010 15:46:02 7.1 C 3.82 g/m*3 7.1 C 0 km/h
1040 22-10-2010 15:58:02 7.3 C 4.03 g/m*3 7.3 C 0 km/h
1041 22-10-2010 16:10:03 7.4 C 4.06 g/m*3 7.4 C 0 km/h
1042 22-10-2010 16:22:02 7.5 C 4.08 g/m*3 7.5 C 0 km/h
1043 22-10-2010 16:34:02 7.4 C 4.29 g/m*3 7.4 C 0 km/h
1044 22-10-2010 16:46:01 7.4 C 4.53 g/m*3 7.4 C 0 km/h
1045 22-10-2010 16:58:01 7.4 C 4.69 g/m*3 7.4 C 0 km/h
1046 22-10-2010 17:10:02 7.5 C 4.4 g/m*3 7.5 C 0 km/h
1047 22-10-2010 17:22:01 7.7 C 4.14 g/m*3 7.7 C 0 km/h
1048 22-10-2010 17:34:01 7.6 C 4.19 g/m*3 7.6 C 0 km/h
1049 22-10-2010 17:46:01 6.9 C 4.31 g/m*3 6.9 C 0 km/h
1050 22-10-2010 17:58:01 6.4 C 4.32 g/m*3 6.4 C 0 km/h
Sensor: Nr:Datum:Temp:Abs-Feuchte:Windchill:Wind:
Aussen-T/F 1051 22-10-2010 18:10:02 6.4 C 4.17 g/m*3 6.4 C 0 km/h
1052 22-10-2010 18:22:01 6.2 C 4.19 g/m*3 6.2 C 0 km/h
1053 22-10-2010 18:34:01 6 C 4.21 g/m*3 6 C 0 km/h
1054 22-10-2010 18:46:01 6.1 C 4.09 g/m*3 6.1 C 0 km/h
1055 22-10-2010 18:58:01 6.2 C 3.82 g/m*3 6.2 C 0 km/h
1056 22-10-2010 19:10:01 6.2 C 3.68 g/m*3 6.2 C 0 km/h
1057 22-10-2010 19:22:02 6.2 C 3.68 g/m*3 6.2 C 0 km/h
1058 22-10-2010 19:34:01 6.2 C 3.68 g/m*3 6.2 C 0 km/h
1059 22-10-2010 19:46:03 6.2 C 3.68 g/m*3 6.2 C 0 km/h
1060 22-10-2010 19:58:03 6.2 C 3.75 g/m*3 6.2 C 0 km/h
1061 22-10-2010 20:10:02 6.2 C 3.75 g/m*3 6.2 C 0 km/h
1062 22-10-2010 20:22:02 6 C 3.77 g/m*3 6 C 0 km/h
1063 22-10-2010 20:34:02 6 C 3.77 g/m*3 6 C 0 km/h
1064 22-10-2010 20:46:02 6 C 3.85 g/m*3 6 C 0 km/h
1065 22-10-2010 20:58:02 5.9 C 3.97 g/m*3 5.9 C 0 km/h
1066 22-10-2010 21:10:02 6 C 3.85 g/m*3 6 C 0 km/h
1067 22-10-2010 21:22:02 5.9 C 3.97 g/m*3 5.9 C 0 km/h
1068 22-10-2010 21:34:02 5.7 C 3.91 g/m*3 5.7 C 0 km/h
1069 22-10-2010 21:46:01 5.7 C 3.91 g/m*3 5.7 C 0 km/h
1070 22-10-2010 21:58:01 5.3 C 3.88 g/m*3 5.3 C 0 km/h
1071 22-10-2010 22:10:02 4.9 C 3.92 g/m*3 4.9 C 0 km/h
1072 22-10-2010 22:22:01 4.3 C 3.96 g/m*3 4.3 C 0 km/h
1073 22-10-2010 22:35:03 4.1 C 4.1 g/m*3 4.1 C 0 km/h
1074 22-10-2010 22:47:03 3.8 C 4.2 g/m*3 3.8 C 0 km/h
1075 22-10-2010 22:59:03 3.6 C 4.27 g/m*3 3.6 C 0 km/h
Sensor: Nr:Datum:Temp:Abs-Feuchte:Windchill:Wind:
Aussen-T/F 1076 22-10-2010 23:11:03 3.4 C 4.28 g/m*3 3.4 C 0 km/h
1077 22-10-2010 23:23:03 3.1 C 4.31 g/m*3 3.1 C 0 km/h
1078 22-10-2010 23:35:03 2.7 C 4.31 g/m*3 2.7 C 0 km/h
1079 22-10-2010 23:47:03 2.4 C 4.28 g/m*3 2.4 C 0 km/h
1080 22-10-2010 23:59:03 2.2 C 4.34 g/m*3 2.2 C 0 km/h
1081 23-10-2010 00:11:03 2 C 4.28 g/m*3 2 C 0 km/h
1082 23-10-2010 00:23:03 1.8 C 4.28 g/m*3 1.8 C 0 km/h
1083 23-10-2010 00:35:03 1.7 C 4.3 g/m*3 1.7 C 0 km/h
1084 23-10-2010 00:47:03 1.6 C 4.33 g/m*3 1.6 C 0 km/h
1085 23-10-2010 00:59:03 1.4 C 4.32 g/m*3 1.4 C 0 km/h
1086 23-10-2010 01:11:04 1.3 C 4.29 g/m*3 1.3 C 0 km/h
1087 23-10-2010 01:23:04 1.2 C 4.31 g/m*3 1.2 C 0 km/h
1088 23-10-2010 01:35:04 1.1 C 4.29 g/m*3 1.1 C 0 km/h
1089 23-10-2010 01:47:04 1 C 4.26 g/m*3 1 C 0 km/h
1090 23-10-2010 01:59:04 0.8 C 4.3 g/m*3 0.8 C 0 km/h
1091 23-10-2010 02:11:04 0.7 C 4.27 g/m*3 0.7 C 0 km/h
1092 23-10-2010 02:23:04 0.6 C 4.24 g/m*3 0.6 C 0 km/h
1093 23-10-2010 02:35:04 0.5 C 4.21 g/m*3 0.5 C 0 km/h
1094 23-10-2010 02:47:04 0.5 C 4.26 g/m*3 0.5 C 0 km/h
1095 23-10-2010 02:59:04 0.4 C 4.23 g/m*3 0.4 C 0 km/h
1096 23-10-2010 03:11:04 0.3 C 4.2 g/m*3 0.3 C 0 km/h
1097 23-10-2010 03:23:04 0.2 C 4.22 g/m*3 0.2 C 0 km/h
1098 23-10-2010 03:35:04 0.1 C 4.2 g/m*3 0.1 C 0 km/h
1099 23-10-2010 03:47:04 0 C 4.17 g/m*3 0 C 0 km/h
1100 23-10-2010 03:59:04 -0.1 C 4.14 g/m*3 -0.1 C 0 km/h
Sensor: Nr:Datum:Temp:Abs-Feuchte:Windchill:Wind:
Aussen-T/F 1101 23-10-2010 04:11:04 -0.2 C 4.16 g/m*3 -0.2 C 0 km/h
1102 23-10-2010 04:23:04 -0.3 C 4.13 g/m*3 -0.3 C 0 km/h
1103 23-10-2010 04:35:04 -0.3 C 4.13 g/m*3 -0.3 C 0 km/h
1104 23-10-2010 04:47:04 -0.4 C 4.15 g/m*3 -0.4 C 0 km/h
1105 23-10-2010 04:59:04 -0.5 C 4.12 g/m*3 -0.5 C 0 km/h
1106 23-10-2010 05:11:05 -0.6 C 4.09 g/m*3 -0.6 C 0 km/h
1107 23-10-2010 05:23:05 -0.7 C 4.06 g/m*3 -0.7 C 0 km/h
1108 23-10-2010 05:35:05 -0.8 C 4.03 g/m*3 -0.8 C 0 km/h
1109 23-10-2010 05:47:05 -1 C 3.98 g/m*3 -1 C 0 km/h
1110 23-10-2010 05:59:05 -1 C 3.98 g/m*3 -1 C 0 km/h
1111 23-10-2010 06:11:05 -1 C 3.98 g/m*3 -1 C 0 km/h
1112 23-10-2010 06:23:05 -1 C 4.02 g/m*3 -1 C 0 km/h
1113 23-10-2010 06:35:05 -1 C 4.02 g/m*3 -1 C 0 km/h
1114 23-10-2010 06:47:05 -1.1 C 4 g/m*3 -1.1 C 0 km/h
1115 23-10-2010 06:59:05 -1.1 C 4 g/m*3 -1.1 C 0 km/h
1116 23-10-2010 07:11:05 -1.1 C 4 g/m*3 -1.1 C 0 km/h
1117 23-10-2010 07:23:05 -1 C 4.02 g/m*3 -1 C 0 km/h
1118 23-10-2010 07:35:05 -0.9 C 4.05 g/m*3 -0.9 C 0 km/h
1119 23-10-2010 07:47:05 -0.7 C 4.15 g/m*3 -0.7 C 0 km/h
1120 23-10-2010 07:59:05 -0.6 C 4.23 g/m*3 -0.6 C 0 km/h
1121 23-10-2010 08:11:02 -0.5 C 4.26 g/m*3 -0.5 C 0 km/h
1122 23-10-2010 08:23:03 -0.6 C 4.28 g/m*3 -0.6 C 0 km/h
1123 23-10-2010 08:35:02 -0.8 C 4.17 g/m*3 -0.8 C 0 km/h
1124 23-10-2010 08:47:03 -1 C 4.11 g/m*3 -1 C 0 km/h
1125 23-10-2010 08:59:03 -1 C 4.07 g/m*3 -1 C 0 km/h
Sensor: Nr:Datum:Temp:Abs-Feuchte:Windchill:Wind:
Aussen-T/F 1126 23-10-2010 09:11:02 -1 C 4.07 g/m*3 -1 C 0 km/h
1127 23-10-2010 09:23:02 -0.9 C 4.1 g/m*3 -0.9 C 0 km/h
1128 23-10-2010 09:35:02 -0.9 C 4.1 g/m*3 -0.9 C 0 km/h
1129 23-10-2010 09:47:02 -0.7 C 4.2 g/m*3 -0.7 C 0 km/h
1130 23-10-2010 09:59:02 -0.6 C 4.23 g/m*3 -0.6 C 0 km/h
1131 23-10-2010 10:11:01 -0.1 C 4.38 g/m*3 -0.1 C 0 km/h
1132 23-10-2010 10:23:02 0.4 C 4.58 g/m*3 0.4 C 0 km/h
1133 23-10-2010 10:35:02 0.9 C 4.74 g/m*3 0.9 C 0 km/h
1134 23-10-2010 10:47:01 1.5 C 4.94 g/m*3 1.5 C 0 km/h
1135 23-10-2010 10:59:01 2.6 C 5.32 g/m*3 2.6 C 0 km/h
1136 23-10-2010 11:11:02 3.3 C 5.46 g/m*3 3.3 C 0 km/h
1137 23-10-2010 11:23:01 3.7 C 5.55 g/m*3 3.7 C 0 km/h
1138 23-10-2010 11:35:02 4.1 C 5.38 g/m*3 4.1 C 0 km/h
1139 23-10-2010 11:47:02 4.4 C 5.09 g/m*3 4.4 C 0 km/h
1140 23-10-2010 11:59:02 4.9 C 5.13 g/m*3 4.9 C 0 km/h
1141 23-10-2010 12:11:02 5.5 C 5.06 g/m*3 5.5 C 0 km/h
1142 23-10-2010 12:23:01 6.2 C 5.15 g/m*3 6.2 C 0 km/h
1143 23-10-2010 12:35:02 6.7 C 5.17 g/m*3 6.7 C 0 km/h
1144 23-10-2010 12:47:01 7.2 C 5.18 g/m*3 7.2 C 0 km/h
1145 23-10-2010 12:59:01 7.6 C 5.24 g/m*3 7.6 C 0 km/h
1146 23-10-2010 13:11:02 7.8 C 5.22 g/m*3 7.8 C 0 km/h
1147 23-10-2010 13:23:01 8.3 C 5.23 g/m*3 8.3 C 0 km/h
1148 23-10-2010 13:35:02 8.5 C 4.95 g/m*3 8.5 C 0 km/h
1149 23-10-2010 13:47:01 8.8 C 4.79 g/m*3 8.8 C 0 km/h
1150 23-10-2010 13:59:01 9.4 C 4.61 g/m*3 9.4 C 0 km/h
Sensor: Nr:Datum:Temp:Abs-Feuchte:Windchill:Wind:
Aussen-T/F 1151 23-10-2010 14:11:02 9.6 C 4.21 g/m*3 9.6 C 0 km/h
1152 23-10-2010 14:23:02 9.5 C 4.19 g/m*3 9.5 C 0 km/h
1153 23-10-2010 14:35:01 9.1 C 4.17 g/m*3 9.1 C 0 km/h
1154 23-10-2010 14:47:02 8.8 C 4.26 g/m*3 8.8 C 0 km/h
1155 23-10-2010 14:59:02 8.4 C 4.41 g/m*3 8.4 C 0 km/h
1156 23-10-2010 15:11:01 8.3 C 4.47 g/m*3 8.3 C 0 km/h
1157 23-10-2010 15:23:02 8.3 C 4.64 g/m*3 8.3 C 0 km/h
1158 23-10-2010 15:35:01 8.4 C 4.75 g/m*3 8.4 C 0 km/h
1159 23-10-2010 15:47:02 8.5 C 4.7 g/m*3 8.5 C 0 km/h
1160 23-10-2010 15:59:02 8.6 C 4.64 g/m*3 8.6 C 0 km/h
1161 23-10-2010 16:11:02 8.5 C 4.61 g/m*3 8.5 C 0 km/h
1162 23-10-2010 16:23:02 8.4 C 4.67 g/m*3 8.4 C 0 km/h
1163 23-10-2010 16:35:03 7.6 C 4.99 g/m*3 7.6 C 0 km/h
1164 23-10-2010 16:47:02 7.4 C 5.17 g/m*3 7.4 C 0 km/h
1165 23-10-2010 16:59:02 7.7 C 5.19 g/m*3 7.7 C 0 km/h
1166 23-10-2010 17:11:01 7.8 C 5.3 g/m*3 7.8 C 0 km/h
1167 23-10-2010 17:23:02 7.9 C 5.34 g/m*3 7.9 C 0 km/h
1168 23-10-2010 17:35:02 7.9 C 5.34 g/m*3 7.9 C 0 km/h
1169 23-10-2010 17:47:02 7.8 C 5.39 g/m*3 7.8 C 0 km/h
1170 23-10-2010 17:59:02 8 C 5.37 g/m*3 8 C 0 km/h
1171 23-10-2010 18:11:02 8.1 C 5.41 g/m*3 8.1 C 0 km/h
1172 23-10-2010 18:23:02 8.1 C 5.49 g/m*3 8.1 C 0 km/h
1173 23-10-2010 18:35:02 8 C 5.54 g/m*3 8 C 0 km/h
1174 23-10-2010 18:47:02 8 C 5.54 g/m*3 8 C 0 km/h
1175 23-10-2010 18:59:02 8 C 5.46 g/m*3 8 C 0 km/h
Sensor: Nr:Datum:Temp:Abs-Feuchte:Windchill:Wind:
Aussen-T/F 1176 23-10-2010 19:11:02 8.1 C 5.33 g/m*3 8.1 C 0 km/h
1177 23-10-2010 19:23:02 8.4 C 5.26 g/m*3 8.4 C 0 km/h
1178 23-10-2010 19:35:02 8.6 C 5.07 g/m*3 8.6 C 0 km/h
1179 23-10-2010 19:47:01 8.8 C 5.05 g/m*3 8.8 C 0 km/h
1180 23-10-2010 19:59:01 8.9 C 5.08 g/m*3 8.9 C 0 km/h
1181 23-10-2010 20:11:01 9.1 C 5.06 g/m*3 9.1 C 0 km/h
1182 23-10-2010 20:23:02 9.1 C 5.15 g/m*3 9.1 C 0 km/h
1183 23-10-2010 20:35:01 9.2 C 5.27 g/m*3 9.2 C 0 km/h
1184 23-10-2010 20:47:03 9.2 C 5.36 g/m*3 9.2 C 0 km/h
1185 23-10-2010 20:59:03 9.1 C 5.5 g/m*3 9.1 C 0 km/h
1186 23-10-2010 21:11:02 9.1 C 5.68 g/m*3 9.1 C 0 km/h
1187 23-10-2010 21:23:02 9.2 C 5.71 g/m*3 9.2 C 0 km/h
1188 23-10-2010 21:35:02 9.3 C 5.84 g/m*3 9.3 C 0 km/h
1189 23-10-2010 21:47:02 9.4 C 5.79 g/m*3 9.4 C 0 km/h
1190 23-10-2010 21:59:02 9.3 C 5.84 g/m*3 9.3 C 0 km/h
1191 23-10-2010 22:11:01 9.3 C 5.84 g/m*3 9.3 C 0 km/h
1192 23-10-2010 22:24:04 9.4 C 5.88 g/m*3 9.4 C 0 km/h
1193 23-10-2010 22:36:04 9.4 C 5.88 g/m*3 9.4 C 0 km/h
1194 23-10-2010 22:48:04 9.4 C 5.79 g/m*3 9.4 C 0 km/h
1195 23-10-2010 23:00:04 9.5 C 5.73 g/m*3 9.5 C 0 km/h
1196 23-10-2010 23:12:04 9.4 C 5.7 g/m*3 9.4 C 0 km/h
1197 23-10-2010 23:24:04 9.3 C 5.66 g/m*3 9.3 C 0 km/h
1198 23-10-2010 23:36:04 9.2 C 5.63 g/m*3 9.2 C 0 km/h
1199 23-10-2010 23:48:04 9.2 C 5.63 g/m*3 9.2 C 0 km/h
1200 24-10-2010 00:00:04 9.1 C 5.68 g/m*3 9.1 C 0 km/h
Sensor: Nr:Datum:Temp:Abs-Feuchte:Windchill:Wind:
Aussen-T/F 1201 24-10-2010 00:12:04 9 C 5.73 g/m*3 9 C 0 km/h
1202 24-10-2010 00:24:04 8.9 C 5.78 g/m*3 8.9 C 0 km/h
1203 24-10-2010 00:36:04 9.1 C 5.77 g/m*3 9.1 C 0 km/h
1204 24-10-2010 00:48:05 9 C 5.73 g/m*3 9 C 0 km/h
1205 24-10-2010 01:00:05 8.8 C 5.83 g/m*3 8.8 C 0 km/h
1206 24-10-2010 01:12:05 8.9 C 5.87 g/m*3 8.9 C 0 km/h
1207 24-10-2010 01:24:05 9.1 C 5.86 g/m*3 9.1 C 0 km/h
1208 24-10-2010 01:36:05 9 C 5.82 g/m*3 9 C 0 km/h
1209 24-10-2010 01:48:05 9.1 C 5.86 g/m*3 9.1 C 0 km/h
1210 24-10-2010 02:00:05 9 C 5.99 g/m*3 9 C 0 km/h
1211 24-10-2010 02:12:05 8.8 C 6.09 g/m*3 8.8 C 0 km/h
1212 24-10-2010 02:24:05 8.2 C 6.28 g/m*3 8.2 C 0 km/h
1213 24-10-2010 02:36:05 8.1 C 6.49 g/m*3 8.1 C 0 km/h
1214 24-10-2010 02:48:05 8.2 C 6.53 g/m*3 8.2 C 0 km/h
1215 24-10-2010 03:00:05 8.3 C 6.49 g/m*3 8.3 C 0 km/h
1216 24-10-2010 03:12:05 8.4 C 6.45 g/m*3 8.4 C 0 km/h
1217 24-10-2010 03:24:05 8.5 C 6.32 g/m*3 8.5 C 0 km/h
1218 24-10-2010 03:36:05 8.6 C 6.19 g/m*3 8.6 C 0 km/h
1219 24-10-2010 03:48:05 8.5 C 6.06 g/m*3 8.5 C 0 km/h
1220 24-10-2010 04:00:05 8.7 C 6.05 g/m*3 8.7 C 0 km/h
1221 24-10-2010 04:12:05 8.7 C 6.05 g/m*3 8.7 C 0 km/h
1222 24-10-2010 04:24:05 8.6 C 6.02 g/m*3 8.6 C 0 km/h
1223 24-10-2010 04:36:05 8.6 C 6.02 g/m*3 8.6 C 0 km/h
1224 24-10-2010 04:48:05 8.7 C 5.97 g/m*3 8.7 C 0 km/h
1225 24-10-2010 05:00:05 8.8 C 5.83 g/m*3 8.8 C 0 km/h
Sensor: Nr:Datum:Temp:Abs-Feuchte:Windchill:Wind:
Aussen-T/F 1226 24-10-2010 05:12:06 8.8 C 5.92 g/m*3 8.8 C 0 km/h
1227 24-10-2010 05:24:06 8.7 C 5.97 g/m*3 8.7 C 0 km/h
1228 24-10-2010 05:36:06 8.1 C 5.99 g/m*3 8.1 C 0 km/h
1229 24-10-2010 05:48:06 8.1 C 6.16 g/m*3 8.1 C 0 km/h
1230 24-10-2010 06:00:06 8 C 6.12 g/m*3 8 C 0 km/h
1231 24-10-2010 06:12:06 8.2 C 6.2 g/m*3 8.2 C 0 km/h
1232 24-10-2010 06:24:06 8.3 C 6.15 g/m*3 8.3 C 0 km/h
1233 24-10-2010 06:36:06 7.9 C 6.32 g/m*3 7.9 C 0 km/h
1234 24-10-2010 06:48:06 7.5 C 6.4 g/m*3 7.5 C 0 km/h
1235 24-10-2010 07:00:06 7.3 C 6.64 g/m*3 7.3 C 0 km/h
1236 24-10-2010 07:12:06 7.1 C 6.71 g/m*3 7.1 C 0 km/h
1237 24-10-2010 07:24:02 7 C 6.66 g/m*3 7 C 0 km/h
1238 24-10-2010 07:36:03 6.9 C 6.77 g/m*3 6.9 C 0 km/h
1239 24-10-2010 07:48:02 7 C 6.82 g/m*3 7 C 0 km/h
1240 24-10-2010 08:00:02 7 C 6.82 g/m*3 7 C 0 km/h
1241 24-10-2010 08:12:02 7 C 6.9 g/m*3 7 C 0 km/h
1242 24-10-2010 08:24:02 7 C 6.9 g/m*3 7 C 0 km/h
1243 24-10-2010 08:36:02 6.9 C 6.93 g/m*3 6.9 C 0 km/h
1244 24-10-2010 08:48:02 6.9 C 7.01 g/m*3 6.9 C 0 km/h
1245 24-10-2010 09:00:02 7 C 6.97 g/m*3 7 C 0 km/h
1246 24-10-2010 09:12:02 6.9 C 7.01 g/m*3 6.9 C 0 km/h
1247 24-10-2010 09:24:02 7 C 6.97 g/m*3 7 C 0 km/h
1248 24-10-2010 09:36:02 7.3 C 7.11 g/m*3 7.3 C 0 km/h
1249 24-10-2010 09:48:01 7.5 C 7.04 g/m*3 7.5 C 0 km/h
1250 24-10-2010 10:00:01 7.1 C 6.79 g/m*3 7.1 C 0 km/h
Sensor: Nr:Datum:Temp:Abs-Feuchte:Windchill:Wind:
Aussen-T/F 1251 24-10-2010 10:12:01 7 C 6.74 g/m*3 7 C 0 km/h
1252 24-10-2010 10:24:02 7 C 6.66 g/m*3 7 C 0 km/h
1253 24-10-2010 10:36:01 6.9 C 6.54 g/m*3 6.9 C 0 km/h
1254 24-10-2010 10:48:03 7 C 6.51 g/m*3 7 C 0 km/h
1255 24-10-2010 11:00:03 7.3 C 6.48 g/m*3 7.3 C 0 km/h
1256 24-10-2010 11:12:02 7.9 C 6.49 g/m*3 7.9 C 0 km/h
1257 24-10-2010 11:24:02 8.8 C 5.74 g/m*3 8.8 C 0 km/h
1258 24-10-2010 11:36:02 8.6 C 5.16 g/m*3 8.6 C 0 km/h
1259 24-10-2010 11:48:02 8.9 C 5.26 g/m*3 8.9 C 0 km/h
1260 24-10-2010 12:00:02 9 C 5.03 g/m*3 9 C 0 km/h
1261 24-10-2010 12:12:02 9.2 C 4.91 g/m*3 9.2 C 0 km/h
1262 24-10-2010 12:24:02 9.4 C 4.61 g/m*3 9.4 C 0 km/h
1263 24-10-2010 12:36:02 9.5 C 4.64 g/m*3 9.5 C 0 km/h
1264 24-10-2010 12:48:02 9.7 C 4.52 g/m*3 9.7 C 0 km/h
1265 24-10-2010 13:00:02 9.7 C 4.61 g/m*3 9.7 C 0 km/h
1266 24-10-2010 13:12:01 10.2 C 4.57 g/m*3 10.2 C 0 km/h
1267 24-10-2010 13:24:01 10.6 C 4.68 g/m*3 10.6 C 0 km/h
1268 24-10-2010 13:36:02 10.6 C 4.68 g/m*3 10.6 C 0 km/h
1269 24-10-2010 13:48:02 11.2 C 4.46 g/m*3 11.2 C 0 km/h
1270 24-10-2010 14:00:02 10.9 C 4.58 g/m*3 10.9 C 0 km/h
1271 24-10-2010 14:12:02 10.9 C 4.48 g/m*3 10.9 C 0 km/h
1272 24-10-2010 14:24:01 11.9 C 4.45 g/m*3 11.9 C 0 km/h
1273 24-10-2010 14:36:02 12.2 C 3.99 g/m*3 12.2 C 0 km/h
1274 24-10-2010 14:48:02 12.2 C 3.88 g/m*3 12.2 C 0 km/h
1275 24-10-2010 15:00:02 12.9 C 4.28 g/m*3 12.9 C 0 km/h
Sensor: Nr:Datum:Temp:Abs-Feuchte:Windchill:Wind:
Aussen-T/F 1276 24-10-2010 15:12:02 12.7 C 4.45 g/m*3 12.7 C 0 km/h
1277 24-10-2010 15:24:01 11.7 C 4.39 g/m*3 11.7 C 0 km/h
1278 24-10-2010 15:36:02 11.8 C 4.1 g/m*3 11.8 C 0 km/h
1279 24-10-2010 15:48:02 12.4 C 3.93 g/m*3 12.4 C 0 km/h
1280 24-10-2010 16:00:02 12.1 C 3.65 g/m*3 12.1 C 0 km/h
1281 24-10-2010 16:12:02 12.8 C 3.92 g/m*3 12.8 C 0 km/h
1282 24-10-2010 16:24:02 13.4 C 3.72 g/m*3 13.4 C 0 km/h
1283 24-10-2010 16:36:02 13.4 C 3.6 g/m*3 13.4 C 0 km/h
1284 24-10-2010 16:48:02 13.5 C 3.86 g/m*3 13.5 C 0 km/h
1285 24-10-2010 17:00:02 13 C 3.52 g/m*3 13 C 0 km/h
1286 24-10-2010 17:12:02 12.2 C 3.88 g/m*3 12.2 C 0 km/h
1287 24-10-2010 17:24:02 12.2 C 4.21 g/m*3 12.2 C 0 km/h
1288 24-10-2010 17:36:01 11.4 C 4.11 g/m*3 11.4 C 0 km/h
1289 24-10-2010 17:48:02 11.3 C 4.28 g/m*3 11.3 C 0 km/h
1290 24-10-2010 18:00:02 10.6 C 4.29 g/m*3 10.6 C 0 km/h
1291 24-10-2010 18:12:01 10 C 4.51 g/m*3 10 C 0 km/h
1292 24-10-2010 18:24:02 9.6 C 4.86 g/m*3 9.6 C 0 km/h
1293 24-10-2010 18:36:01 9 C 4.94 g/m*3 9 C 0 km/h
1294 24-10-2010 18:48:02 8.6 C 5.07 g/m*3 8.6 C 0 km/h
1295 24-10-2010 19:00:03 8.2 C 5.19 g/m*3 8.2 C 0 km/h
1296 24-10-2010 19:12:02 7.8 C 5.22 g/m*3 7.8 C 0 km/h
1297 24-10-2010 19:24:02 7.3 C 5.14 g/m*3 7.3 C 0 km/h
1298 24-10-2010 19:36:02 7 C 5.04 g/m*3 7 C 0 km/h
1299 24-10-2010 19:48:01 6.8 C 5.12 g/m*3 6.8 C 0 km/h
1300 24-10-2010 20:00:01 6.6 C 5.06 g/m*3 6.6 C 0 km/h
Sensor: Nr:Datum:Temp:Abs-Feuchte:Windchill:Wind:
Aussen-T/F 1301 24-10-2010 20:12:02 6.5 C 5.17 g/m*3 6.5 C 0 km/h
1302 24-10-2010 20:24:01 6.4 C 5.14 g/m*3 6.4 C 0 km/h
1303 24-10-2010 20:36:01 6.4 C 5.22 g/m*3 6.4 C 0 km/h
1304 24-10-2010 20:48:01 6.5 C 5.32 g/m*3 6.5 C 0 km/h
1305 24-10-2010 21:00:01 6.7 C 5.39 g/m*3 6.7 C 0 km/h
1306 24-10-2010 21:12:02 6.4 C 5.36 g/m*3 6.4 C 0 km/h
1307 24-10-2010 21:24:01 6 C 5.3 g/m*3 6 C 0 km/h
1308 24-10-2010 21:36:02 5.8 C 5.37 g/m*3 5.8 C 0 km/h
1309 24-10-2010 21:48:01 5.7 C 5.48 g/m*3 5.7 C 0 km/h
1310 24-10-2010 22:00:01 5.5 C 5.48 g/m*3 5.5 C 0 km/h
1311 24-10-2010 22:12:02 5.7 C 5.62 g/m*3 5.7 C 0 km/h
1312 24-10-2010 22:24:02 5.9 C 5.7 g/m*3 5.9 C 0 km/h
1313 24-10-2010 22:36:01 5.6 C 5.51 g/m*3 5.6 C 0 km/h
1314 24-10-2010 22:48:02 5.4 C 5.51 g/m*3 5.4 C 0 km/h
1315 24-10-2010 23:00:02 5.1 C 5.4 g/m*3 5.1 C 0 km/h
1316 24-10-2010 23:13:04 5 C 5.5 g/m*3 5 C 0 km/h
1317 24-10-2010 23:25:04 4.7 C 5.46 g/m*3 4.7 C 0 km/h
1318 24-10-2010 23:37:04 4.7 C 5.53 g/m*3 4.7 C 0 km/h
1319 24-10-2010 23:49:04 4.7 C 5.53 g/m*3 4.7 C 0 km/h
1320 25-10-2010 00:01:04 4.7 C 5.6 g/m*3 4.7 C 0 km/h
1321 25-10-2010 00:13:04 4.8 C 5.7 g/m*3 4.8 C 0 km/h
1322 25-10-2010 00:25:04 5 C 5.78 g/m*3 5 C 0 km/h
1323 25-10-2010 00:37:04 4.8 C 5.7 g/m*3 4.8 C 0 km/h
1324 25-10-2010 00:49:04 4.7 C 5.73 g/m*3 4.7 C 0 km/h
1325 25-10-2010 01:01:05 4.6 C 5.62 g/m*3 4.6 C 0 km/h
Sensor: Nr:Datum:Temp:Abs-Feuchte:Windchill:Wind:
Aussen-T/F 1326 25-10-2010 01:13:05 4.6 C 5.69 g/m*3 4.6 C 0 km/h
1327 25-10-2010 01:25:05 4.4 C 5.62 g/m*3 4.4 C 0 km/h
1328 25-10-2010 01:37:05 4.4 C 5.62 g/m*3 4.4 C 0 km/h
1329 25-10-2010 01:49:05 4.5 C 5.72 g/m*3 4.5 C 0 km/h
1330 25-10-2010 02:01:05 4.6 C 5.76 g/m*3 4.6 C 0 km/h
1331 25-10-2010 02:13:05 4.4 C 5.68 g/m*3 4.4 C 0 km/h
1332 25-10-2010 02:25:05 4.4 C 5.68 g/m*3 4.4 C 0 km/h
1333 25-10-2010 02:37:05 4.2 C 5.61 g/m*3 4.2 C 0 km/h
1334 25-10-2010 02:49:05 4.5 C 5.72 g/m*3 4.5 C 0 km/h
1335 25-10-2010 03:01:05 4.5 C 5.78 g/m*3 4.5 C 0 km/h
1336 25-10-2010 03:13:05 4.5 C 5.72 g/m*3 4.5 C 0 km/h
1337 25-10-2010 03:25:05 4.5 C 5.72 g/m*3 4.5 C 0 km/h
1338 25-10-2010 03:37:05 4.7 C 5.8 g/m*3 4.7 C 0 km/h
1339 25-10-2010 03:49:05 4.9 C 5.81 g/m*3 4.9 C 0 km/h
1340 25-10-2010 04:01:05 5 C 5.78 g/m*3 5 C 0 km/h
1341 25-10-2010 04:13:05 5.1 C 5.75 g/m*3 5.1 C 0 km/h
1342 25-10-2010 04:25:05 5.1 C 5.75 g/m*3 5.1 C 0 km/h
1343 25-10-2010 04:37:05 5.1 C 5.68 g/m*3 5.1 C 0 km/h
1344 25-10-2010 04:49:05 5.2 C 5.71 g/m*3 5.2 C 0 km/h
1345 25-10-2010 05:01:05 5.2 C 5.71 g/m*3 5.2 C 0 km/h
1346 25-10-2010 05:13:06 5.2 C 5.65 g/m*3 5.2 C 0 km/h
1347 25-10-2010 05:25:06 5.1 C 5.61 g/m*3 5.1 C 0 km/h
1348 25-10-2010 05:37:06 5 C 5.57 g/m*3 5 C 0 km/h
1349 25-10-2010 05:49:06 5 C 5.57 g/m*3 5 C 0 km/h
1350 25-10-2010 06:01:06 5 C 5.57 g/m*3 5 C 0 km/h
Sensor: Nr:Datum:Temp:Abs-Feuchte:Windchill:Wind:
Aussen-T/F 1351 25-10-2010 06:13:06 5.1 C 5.61 g/m*3 5.1 C 0 km/h
1352 25-10-2010 06:25:06 5.1 C 5.54 g/m*3 5.1 C 0 km/h
1353 25-10-2010 06:37:06 5 C 5.5 g/m*3 5 C 0 km/h
1354 25-10-2010 06:49:02 5 C 5.5 g/m*3 5 C 0 km/h
1355 25-10-2010 07:01:02 5 C 5.5 g/m*3 5 C 0 km/h
1356 25-10-2010 07:13:02 4.9 C 5.54 g/m*3 4.9 C 0 km/h
1357 25-10-2010 07:25:02 4.8 C 5.5 g/m*3 4.8 C 0 km/h
1358 25-10-2010 07:37:02 4.8 C 5.5 g/m*3 4.8 C 0 km/h
1359 25-10-2010 07:49:02 4.8 C 5.5 g/m*3 4.8 C 0 km/h
1360 25-10-2010 08:01:02 4.9 C 5.54 g/m*3 4.9 C 0 km/h
1361 25-10-2010 08:13:02 4.9 C 5.54 g/m*3 4.9 C 0 km/h
1362 25-10-2010 08:25:02 4.8 C 5.5 g/m*3 4.8 C 0 km/h
1363 25-10-2010 08:37:02 4.9 C 5.54 g/m*3 4.9 C 0 km/h
1364 25-10-2010 08:49:01 5 C 5.5 g/m*3 5 C 0 km/h
1365 25-10-2010 09:01:01 5 C 5.5 g/m*3 5 C 0 km/h
1366 25-10-2010 09:13:02 5 C 5.44 g/m*3 5 C 0 km/h
1367 25-10-2010 09:25:01 5 C 5.44 g/m*3 5 C 0 km/h
1368 25-10-2010 09:37:01 5 C 5.44 g/m*3 5 C 0 km/h
1369 25-10-2010 09:49:02 5.3 C 5.54 g/m*3 5.3 C 0 km/h
1370 25-10-2010 10:01:02 5.5 C 5.55 g/m*3 5.5 C 0 km/h
1371 25-10-2010 10:13:02 5.9 C 5.62 g/m*3 5.9 C 0 km/h
1372 25-10-2010 10:25:03 5.8 C 5.44 g/m*3 5.8 C 0 km/h
1373 25-10-2010 10:37:02 5.8 C 5.44 g/m*3 5.8 C 0 km/h
1374 25-10-2010 10:49:03 6 C 5.44 g/m*3 6 C 0 km/h
1375 25-10-2010 11:01:02 6.2 C 5.44 g/m*3 6.2 C 0 km/h
Sensor: Nr:Datum:Temp:Abs-Feuchte:Windchill:Wind:
Aussen-T/F 1376 25-10-2010 11:13:02 6.4 C 5.44 g/m*3 6.4 C 0 km/h
1377 25-10-2010 11:25:02 6.5 C 5.4 g/m*3 6.5 C 0 km/h
1378 25-10-2010 11:37:02 6.6 C 5.44 g/m*3 6.6 C 0 km/h
1379 25-10-2010 11:49:02 7 C 5.5 g/m*3 7 C 0 km/h
1380 25-10-2010 12:01:01 7.3 C 5.37 g/m*3 7.3 C 0 km/h
1381 25-10-2010 12:13:01 8 C 5.54 g/m*3 8 C 0 km/h
1382 25-10-2010 12:25:02 8.2 C 5.28 g/m*3 8.2 C 0 km/h
1383 25-10-2010 12:37:01 7.6 C 5.16 g/m*3 7.6 C 0 km/h
1384 25-10-2010 12:49:02 8.1 C 5.16 g/m*3 8.1 C 0 km/h
1385 25-10-2010 13:01:02 8.2 C 5.02 g/m*3 8.2 C 0 km/h
1386 25-10-2010 13:13:02 8.4 C 5.01 g/m*3 8.4 C 0 km/h
1387 25-10-2010 13:25:02 8.7 C 5.36 g/m*3 8.7 C 0 km/h
1388 25-10-2010 13:37:03 8.9 C 5.08 g/m*3 8.9 C 0 km/h
1389 25-10-2010 13:49:02 9.5 C 5.1 g/m*3 9.5 C 0 km/h
1390 25-10-2010 14:01:02 9.7 C 4.79 g/m*3 9.7 C 0 km/h
1391 25-10-2010 14:13:02 9.6 C 4.86 g/m*3 9.6 C 0 km/h
1392 25-10-2010 14:25:01 10.1 C 4.73 g/m*3 10.1 C 0 km/h
1393 25-10-2010 14:37:02 10.4 C 4.63 g/m*3 10.4 C 0 km/h
1394 25-10-2010 14:49:02 10.7 C 4.13 g/m*3 10.7 C 0 km/h
1395 25-10-2010 15:01:02 10.4 C 4.05 g/m*3 10.4 C 0 km/h
1396 25-10-2010 15:13:02 10.4 C 3.95 g/m*3 10.4 C 0 km/h
1397 25-10-2010 15:25:01 10.2 C 3.81 g/m*3 10.2 C 0 km/h
1398 25-10-2010 15:37:02 10.4 C 3.76 g/m*3 10.4 C 0 km/h
1399 25-10-2010 15:49:02 10.6 C 4 g/m*3 10.6 C 0 km/h
1400 25-10-2010 16:01:02 11.7 C 4.08 g/m*3 11.7 C 0 km/h
Sensor: Nr:Datum:Temp:Abs-Feuchte:Windchill:Wind:
Aussen-T/F 1401 25-10-2010 16:13:02 10.4 C 3.66 g/m*3 10.4 C 0 km/h
1402 25-10-2010 16:25:01 10.5 C 3.98 g/m*3 10.5 C 0 km/h
1403 25-10-2010 16:37:02 10.5 C 3.88 g/m*3 10.5 C 0 km/h
1404 25-10-2010 16:49:01 10.5 C 3.98 g/m*3 10.5 C 0 km/h
1405 25-10-2010 17:01:02 10.9 C 4.18 g/m*3 10.9 C 0 km/h
1406 25-10-2010 17:13:02 11.1 C 4.03 g/m*3 11.1 C 0 km/h
1407 25-10-2010 17:25:02 11.2 C 4.05 g/m*3 11.2 C 0 km/h
1408 25-10-2010 17:37:02 10.4 C 3.95 g/m*3 10.4 C 0 km/h
1409 25-10-2010 17:49:02 9.8 C 4.08 g/m*3 9.8 C 0 km/h
1410 25-10-2010 18:01:01 9.2 C 4.11 g/m*3 9.2 C 0 km/h
1411 25-10-2010 18:13:01 8.9 C 4.2 g/m*3 8.9 C 0 km/h
1412 25-10-2010 18:25:02 8.3 C 4.21 g/m*3 8.3 C 0 km/h
1413 25-10-2010 18:37:01 8 C 4.22 g/m*3 8 C 0 km/h
1414 25-10-2010 18:49:02 7.4 C 4.45 g/m*3 7.4 C 0 km/h
1415 25-10-2010 19:01:01 7 C 4.49 g/m*3 7 C 0 km/h
1416 25-10-2010 19:13:01 6.7 C 4.71 g/m*3 6.7 C 0 km/h
1417 25-10-2010 19:25:01 6.2 C 4.71 g/m*3 6.2 C 0 km/h
1418 25-10-2010 19:37:02 5.8 C 4.73 g/m*3 5.8 C 0 km/h
1419 25-10-2010 19:49:02 5.4 C 4.74 g/m*3 5.4 C 0 km/h
1420 25-10-2010 20:01:01 5 C 4.69 g/m*3 5 C 0 km/h
1421 25-10-2010 20:13:01 4.7 C 4.73 g/m*3 4.7 C 0 km/h
1422 25-10-2010 20:25:02 4.7 C 4.86 g/m*3 4.7 C 0 km/h
1423 25-10-2010 20:37:02 4.5 C 4.8 g/m*3 4.5 C 0 km/h
1424 25-10-2010 20:49:02 4.4 C 4.77 g/m*3 4.4 C 0 km/h
1425 25-10-2010 21:01:03 4.3 C 4.86 g/m*3 4.3 C 0 km/h
Sensor: Nr:Datum:Temp:Abs-Feuchte:Windchill:Wind:
Aussen-T/F 1426 25-10-2010 21:13:03 4.1 C 4.93 g/m*3 4.1 C 0 km/h
1427 25-10-2010 21:25:02 3.9 C 4.93 g/m*3 3.9 C 0 km/h
1428 25-10-2010 21:37:02 3.7 C 4.92 g/m*3 3.7 C 0 km/h
1429 25-10-2010 21:49:01 3.6 C 4.95 g/m*3 3.6 C 0 km/h
1430 25-10-2010 22:01:01 3.4 C 4.95 g/m*3 3.4 C 0 km/h
1431 25-10-2010 22:13:01 3.1 C 4.79 g/m*3 3.1 C 0 km/h
1432 25-10-2010 22:25:01 3 C 4.76 g/m*3 3 C 0 km/h
1433 25-10-2010 22:37:02 2.9 C 4.84 g/m*3 2.9 C 0 km/h
1434 25-10-2010 22:49:02 2.6 C 4.8 g/m*3 2.6 C 0 km/h
1435 25-10-2010 23:01:02 2.4 C 4.8 g/m*3 2.4 C 0 km/h
1436 25-10-2010 23:13:02 2.4 C 4.8 g/m*3 2.4 C 0 km/h
1437 25-10-2010 23:25:02 2.2 C 4.73 g/m*3 2.2 C 0 km/h
1438 25-10-2010 23:37:02 2.2 C 4.79 g/m*3 2.2 C 0 km/h
1439 25-10-2010 23:49:01 2.2 C 4.84 g/m*3 2.2 C 0 km/h
1440 26-10-2010 00:01:02 2.2 C 4.84 g/m*3 2.2 C 0 km/h
1441 26-10-2010 00:13:02 2 C 4.78 g/m*3 2 C 0 km/h
1442 26-10-2010 00:25:01 1.8 C 4.77 g/m*3 1.8 C 0 km/h
1443 26-10-2010 00:37:01 1.7 C 4.74 g/m*3 1.7 C 0 km/h
1444 26-10-2010 00:49:02 1.7 C 4.79 g/m*3 1.7 C 0 km/h
1445 26-10-2010 01:01:01 1.6 C 4.76 g/m*3 1.6 C 0 km/h
1446 26-10-2010 01:13:01 1.6 C 4.81 g/m*3 1.6 C 0 km/h
1447 26-10-2010 01:25:02 1.6 C 4.81 g/m*3 1.6 C 0 km/h
1448 26-10-2010 01:37:02 1.4 C 4.75 g/m*3 1.4 C 0 km/h
1449 26-10-2010 01:49:01 1.2 C 4.68 g/m*3 1.2 C 0 km/h
1450 26-10-2010 02:01:02 1 C 4.62 g/m*3 1 C 0 km/h
Sensor: Nr:Datum:Temp:Abs-Feuchte:Windchill:Wind:
Aussen-T/F 1451 26-10-2010 02:13:02 0.8 C 4.61 g/m*3 0.8 C 0 km/h
1452 26-10-2010 02:25:01 0.7 C 4.63 g/m*3 0.7 C 0 km/h
1453 26-10-2010 02:37:01 0.8 C 4.66 g/m*3 0.8 C 0 km/h
1454 26-10-2010 02:50:03 0.8 C 4.71 g/m*3 0.8 C 0 km/h
1455 26-10-2010 03:02:03 0.7 C 4.63 g/m*3 0.7 C 0 km/h
1456 26-10-2010 03:14:04 0.4 C 4.53 g/m*3 0.4 C 0 km/h
1457 26-10-2010 03:26:04 0.3 C 4.5 g/m*3 0.3 C 0 km/h
1458 26-10-2010 03:38:02 0.1 C 4.44 g/m*3 0.1 C 0 km/h
1459 26-10-2010 03:50:02 0 C 4.41 g/m*3 0 C 0 km/h
1460 26-10-2010 04:02:02 0.1 C 4.49 g/m*3 0.1 C 0 km/h
1461 26-10-2010 04:14:02 0.1 C 4.49 g/m*3 0.1 C 0 km/h
1462 26-10-2010 04:26:02 0.2 C 4.52 g/m*3 0.2 C 0 km/h
1463 26-10-2010 04:38:02 0.1 C 4.54 g/m*3 0.1 C 0 km/h
1464 26-10-2010 04:50:02 0.1 C 4.54 g/m*3 0.1 C 0 km/h
1465 26-10-2010 05:02:02 0.1 C 4.54 g/m*3 0.1 C 0 km/h
1466 26-10-2010 05:14:02 0 C 4.51 g/m*3 0 C 0 km/h
1467 26-10-2010 05:26:02 0.1 C 4.59 g/m*3 0.1 C 0 km/h
1468 26-10-2010 05:38:02 0.1 C 4.59 g/m*3 0.1 C 0 km/h
1469 26-10-2010 05:50:01 0.1 C 4.59 g/m*3 0.1 C 0 km/h
1470 26-10-2010 06:02:01 0.2 C 4.62 g/m*3 0.2 C 0 km/h
1471 26-10-2010 06:14:01 0.2 C 4.62 g/m*3 0.2 C 0 km/h
1472 26-10-2010 06:26:01 0.2 C 4.62 g/m*3 0.2 C 0 km/h
1473 26-10-2010 06:38:01 0.2 C 4.62 g/m*3 0.2 C 0 km/h
1474 26-10-2010 06:50:01 -0.1 C 4.52 g/m*3 -0.1 C 0 km/h
1475 26-10-2010 07:02:01 -0.1 C 4.52 g/m*3 -0.1 C 0 km/h
Sensor: Nr:Datum:Temp:Abs-Feuchte:Windchill:Wind:
Aussen-T/F 1476 26-10-2010 07:14:01 -0.2 C 4.49 g/m*3 -0.2 C 0 km/h
1477 26-10-2010 07:26:02 -0.3 C 4.46 g/m*3 -0.3 C 0 km/h
1478 26-10-2010 07:38:01 -0.5 C 4.4 g/m*3 -0.5 C 0 km/h
1479 26-10-2010 07:50:02 -0.5 C 4.4 g/m*3 -0.5 C 0 km/h
1480 26-10-2010 08:02:02 -0.5 C 4.4 g/m*3 -0.5 C 0 km/h
1481 26-10-2010 08:14:02 -0.5 C 4.4 g/m*3 -0.5 C 0 km/h
1482 26-10-2010 08:26:03 -0.4 C 4.43 g/m*3 -0.4 C 0 km/h
1483 26-10-2010 08:38:02 -0.4 C 4.43 g/m*3 -0.4 C 0 km/h
1484 26-10-2010 08:50:02 -0.3 C 4.46 g/m*3 -0.3 C 0 km/h
1485 26-10-2010 09:02:02 -0.1 C 4.52 g/m*3 -0.1 C 0 km/h
1486 26-10-2010 09:14:02 -0.3 C 4.46 g/m*3 -0.3 C 0 km/h
1487 26-10-2010 09:26:02 -0.5 C 4.4 g/m*3 -0.5 C 0 km/h
1488 26-10-2010 09:38:02 -0.5 C 4.4 g/m*3 -0.5 C 0 km/h
1489 26-10-2010 09:50:02 -0.4 C 4.43 g/m*3 -0.4 C 0 km/h
1490 26-10-2010 10:02:01 -0.3 C 4.46 g/m*3 -0.3 C 0 km/h
1491 26-10-2010 10:14:01 -0.1 C 4.52 g/m*3 -0.1 C 0 km/h
1492 26-10-2010 10:26:02 0.1 C 4.59 g/m*3 0.1 C 0 km/h
1493 26-10-2010 10:38:01 0.3 C 4.65 g/m*3 0.3 C 0 km/h
1494 26-10-2010 10:50:03 0.5 C 4.66 g/m*3 0.5 C 0 km/h
1495 26-10-2010 11:02:02 0.8 C 4.76 g/m*3 0.8 C 0 km/h
1496 26-10-2010 11:14:02 0.8 C 4.71 g/m*3 0.8 C 0 km/h
1497 26-10-2010 11:26:02 1.1 C 4.76 g/m*3 1.1 C 0 km/h
1498 26-10-2010 11:38:03 1.5 C 4.89 g/m*3 1.5 C 0 km/h
1499 26-10-2010 11:50:02 1.9 C 4.97 g/m*3 1.9 C 0 km/h
1500 26-10-2010 12:02:01 2.1 C 4.92 g/m*3 2.1 C 0 km/h
Sensor: Nr:Datum:Temp:Abs-Feuchte:Windchill:Wind:
Aussen-T/F 1501 26-10-2010 12:14:01 2.9 C 5.2 g/m*3 2.9 C 0 km/h
1502 26-10-2010 12:26:02 3.4 C 5.31 g/m*3 3.4 C 0 km/h
1503 26-10-2010 12:38:02 3.4 C 5.19 g/m*3 3.4 C 0 km/h
1504 26-10-2010 12:50:02 4 C 5.34 g/m*3 4 C 0 km/h
1505 26-10-2010 13:02:02 4.3 C 5.38 g/m*3 4.3 C 0 km/h
1506 26-10-2010 13:14:02 4.7 C 5.53 g/m*3 4.7 C 0 km/h
1507 26-10-2010 13:26:02 5.5 C 5.69 g/m*3 5.5 C 0 km/h
1508 26-10-2010 13:38:02 6.2 C 5.74 g/m*3 6.2 C 0 km/h
1509 26-10-2010 13:50:02 7 C 5.66 g/m*3 7 C 0 km/h
1510 26-10-2010 14:02:03 7.8 C 5.71 g/m*3 7.8 C 0 km/h
1511 26-10-2010 14:14:03 8.4 C 5.51 g/m*3 8.4 C 0 km/h
1512 26-10-2010 14:26:02 9.1 C 5.5 g/m*3 9.1 C 0 km/h
1513 26-10-2010 14:38:02 9.5 C 5.46 g/m*3 9.5 C 0 km/h
1514 26-10-2010 14:50:01 9.6 C 5.31 g/m*3 9.6 C 0 km/h
1515 26-10-2010 15:02:01 9.5 C 5.19 g/m*3 9.5 C 0 km/h
1516 26-10-2010 15:14:01 9.4 C 5.25 g/m*3 9.4 C 0 km/h
1517 26-10-2010 15:26:01 9.6 C 5.4 g/m*3 9.6 C 0 km/h
1518 26-10-2010 15:38:01 10 C 5.26 g/m*3 10 C 0 km/h
1519 26-10-2010 15:50:02 10.1 C 5.3 g/m*3 10.1 C 0 km/h
1520 26-10-2010 16:02:02 9.9 C 5.32 g/m*3 9.9 C 0 km/h
1521 26-10-2010 16:14:02 9.6 C 5.31 g/m*3 9.6 C 0 km/h
1522 26-10-2010 16:26:03 9.3 C 5.39 g/m*3 9.3 C 0 km/h
1523 26-10-2010 16:38:02 8.9 C 5.43 g/m*3 8.9 C 0 km/h
1524 26-10-2010 16:50:02 8.5 C 5.55 g/m*3 8.5 C 0 km/h
1525 26-10-2010 17:02:02 8.4 C 5.68 g/m*3 8.4 C 0 km/h
Sensor: Nr:Datum:Temp:Abs-Feuchte:Windchill:Wind:
Aussen-T/F 1526 26-10-2010 17:14:02 8.2 C 5.61 g/m*3 8.2 C 0 km/h
1527 26-10-2010 17:26:02 8 C 5.62 g/m*3 8 C 0 km/h
1528 26-10-2010 17:38:02 7.9 C 5.75 g/m*3 7.9 C 0 km/h
1529 26-10-2010 17:50:02 7.7 C 5.76 g/m*3 7.7 C 0 km/h
1530 26-10-2010 18:02:01 7.4 C 5.65 g/m*3 7.4 C 0 km/h
1531 26-10-2010 18:14:01 7.2 C 5.65 g/m*3 7.2 C 0 km/h
1532 26-10-2010 18:26:02 7.1 C 5.62 g/m*3 7.1 C 0 km/h
1533 26-10-2010 18:38:02 6.9 C 5.62 g/m*3 6.9 C 0 km/h
1534 26-10-2010 18:50:02 6.8 C 5.66 g/m*3 6.8 C 0 km/h
1535 26-10-2010 19:02:03 6.8 C 5.66 g/m*3 6.8 C 0 km/h
1536 26-10-2010 19:14:03 6.6 C 5.66 g/m*3 6.6 C 0 km/h
1537 26-10-2010 19:26:02 6.6 C 5.74 g/m*3 6.6 C 0 km/h
1538 26-10-2010 19:38:02 6.5 C 5.7 g/m*3 6.5 C 0 km/h
1539 26-10-2010 19:50:01 6.4 C 5.66 g/m*3 6.4 C 0 km/h
1540 26-10-2010 20:02:02 6.4 C 5.66 g/m*3 6.4 C 0 km/h
1541 26-10-2010 20:14:02 6.4 C 5.66 g/m*3 6.4 C 0 km/h
1542 26-10-2010 20:26:01 6.4 C 5.66 g/m*3 6.4 C 0 km/h
1543 26-10-2010 20:38:02 6.3 C 5.63 g/m*3 6.3 C 0 km/h
1544 26-10-2010 20:50:02 6.2 C 5.66 g/m*3 6.2 C 0 km/h
1545 26-10-2010 21:02:02 6.1 C 5.63 g/m*3 6.1 C 0 km/h
1546 26-10-2010 21:14:02 6.1 C 5.63 g/m*3 6.1 C 0 km/h
1547 26-10-2010 21:26:01 6.2 C 5.52 g/m*3 6.2 C 0 km/h
1548 26-10-2010 21:38:02 6 C 5.52 g/m*3 6 C 0 km/h
1549 26-10-2010 21:50:01 5.9 C 5.62 g/m*3 5.9 C 0 km/h
1550 26-10-2010 22:02:02 5.7 C 5.62 g/m*3 5.7 C 0 km/h
Sensor: Nr:Datum:Temp:Abs-Feuchte:Windchill:Wind:
Aussen-T/F 1551 26-10-2010 22:14:02 5.7 C 5.69 g/m*3 5.7 C 0 km/h
1552 26-10-2010 22:26:02 5.7 C 5.69 g/m*3 5.7 C 0 km/h
1553 26-10-2010 22:39:02 5.7 C 5.76 g/m*3 5.7 C 0 km/h
1554 26-10-2010 22:51:02 5.7 C 5.76 g/m*3 5.7 C 0 km/h
1555 26-10-2010 23:03:02 5.7 C 5.76 g/m*3 5.7 C 0 km/h
1556 26-10-2010 23:15:02 5.7 C 5.76 g/m*3 5.7 C 0 km/h
1557 26-10-2010 23:27:02 5.7 C 5.76 g/m*3 5.7 C 0 km/h
1558 26-10-2010 23:39:02 5.5 C 5.69 g/m*3 5.5 C 0 km/h
1559 26-10-2010 23:51:02 5.4 C 5.65 g/m*3 5.4 C 0 km/h
1560 27-10-2010 00:03:02 5.4 C 5.72 g/m*3 5.4 C 0 km/h
1561 27-10-2010 00:15:02 5.4 C 5.72 g/m*3 5.4 C 0 km/h
1562 27-10-2010 00:27:02 5.2 C 5.58 g/m*3 5.2 C 0 km/h
1563 27-10-2010 00:39:02 5 C 5.5 g/m*3 5 C 0 km/h
1564 27-10-2010 00:51:02 4.8 C 5.5 g/m*3 4.8 C 0 km/h
1565 27-10-2010 01:03:02 5.1 C 5.34 g/m*3 5.1 C 0 km/h
1566 27-10-2010 01:15:03 5.2 C 5.23 g/m*3 5.2 C 0 km/h
1567 27-10-2010 01:27:03 5.3 C 5.2 g/m*3 5.3 C 0 km/h
1568 27-10-2010 01:39:03 5.5 C 5.06 g/m*3 5.5 C 0 km/h
1569 27-10-2010 01:51:03 5.7 C 4.84 g/m*3 5.7 C 0 km/h
1570 27-10-2010 02:03:03 5.7 C 4.91 g/m*3 5.7 C 0 km/h
1571 27-10-2010 02:15:03 5.5 C 5.06 g/m*3 5.5 C 0 km/h
1572 27-10-2010 02:27:03 5.6 C 5.16 g/m*3 5.6 C 0 km/h
1573 27-10-2010 02:39:03 5.5 C 5.2 g/m*3 5.5 C 0 km/h
1574 27-10-2010 02:51:03 5.4 C 5.23 g/m*3 5.4 C 0 km/h
1575 27-10-2010 03:03:03 5.6 C 5.23 g/m*3 5.6 C 0 km/h
Sensor: Nr:Datum:Temp:Abs-Feuchte:Windchill:Wind:
Aussen-T/F 1576 27-10-2010 03:15:03 5.6 C 5.3 g/m*3 5.6 C 0 km/h
1577 27-10-2010 03:27:03 5.4 C 5.23 g/m*3 5.4 C 0 km/h
1578 27-10-2010 03:39:03 5.4 C 5.3 g/m*3 5.4 C 0 km/h
1579 27-10-2010 03:51:03 5.4 C 5.23 g/m*3 5.4 C 0 km/h
1580 27-10-2010 04:03:03 5.4 C 5.23 g/m*3 5.4 C 0 km/h
1581 27-10-2010 04:15:03 5.4 C 5.23 g/m*3 5.4 C 0 km/h
1582 27-10-2010 04:27:03 5.4 C 5.3 g/m*3 5.4 C 0 km/h
1583 27-10-2010 04:39:03 5.4 C 5.23 g/m*3 5.4 C 0 km/h
1584 27-10-2010 04:51:03 5.5 C 5.2 g/m*3 5.5 C 0 km/h
1585 27-10-2010 05:03:03 5.6 C 5.16 g/m*3 5.6 C 0 km/h
1586 27-10-2010 05:15:03 5.7 C 5.12 g/m*3 5.7 C 0 km/h
1587 27-10-2010 05:27:03 5.7 C 5.19 g/m*3 5.7 C 0 km/h
1588 27-10-2010 05:39:03 5.6 C 5.16 g/m*3 5.6 C 0 km/h
1589 27-10-2010 05:51:04 5.6 C 5.16 g/m*3 5.6 C 0 km/h
1590 27-10-2010 06:03:04 5.6 C 5.16 g/m*3 5.6 C 0 km/h
1591 27-10-2010 06:15:04 5.7 C 5.19 g/m*3 5.7 C 0 km/h
1592 27-10-2010 06:27:04 5.7 C 5.27 g/m*3 5.7 C 0 km/h
1593 27-10-2010 06:39:04 5.7 C 5.27 g/m*3 5.7 C 0 km/h
1594 27-10-2010 06:51:04 5.7 C 5.19 g/m*3 5.7 C 0 km/h
1595 27-10-2010 07:03:04 5.7 C 5.19 g/m*3 5.7 C 0 km/h
1596 27-10-2010 07:15:04 5.7 C 5.19 g/m*3 5.7 C 0 km/h
1597 27-10-2010 07:27:04 5.7 C 5.19 g/m*3 5.7 C 0 km/h
1598 27-10-2010 07:39:03 5.8 C 5.16 g/m*3 5.8 C 0 km/h
1599 27-10-2010 07:51:02 5.9 C 5.05 g/m*3 5.9 C 0 km/h
1600 27-10-2010 08:03:01 5.9 C 4.98 g/m*3 5.9 C 0 km/h
Sensor: Nr:Datum:Temp:Abs-Feuchte:Windchill:Wind:
Aussen-T/F 1601 27-10-2010 08:15:02 5.9 C 5.05 g/m*3 5.9 C 0 km/h
1602 27-10-2010 08:27:02 5.7 C 5.05 g/m*3 5.7 C 0 km/h
1603 27-10-2010 08:39:02 5.5 C 5.13 g/m*3 5.5 C 0 km/h
1604 27-10-2010 08:51:02 5.4 C 5.23 g/m*3 5.4 C 0 km/h
1605 27-10-2010 09:03:03 5.5 C 5.48 g/m*3 5.5 C 0 km/h
1606 27-10-2010 09:15:02 5.6 C 5.51 g/m*3 5.6 C 0 km/h
1607 27-10-2010 09:27:02 5.8 C 5.66 g/m*3 5.8 C 0 km/h
1608 27-10-2010 09:39:02 6 C 5.73 g/m*3 6 C 0 km/h
1609 27-10-2010 09:51:01 6.3 C 5.85 g/m*3 6.3 C 0 km/h
1610 27-10-2010 10:03:02 6.5 C 5.85 g/m*3 6.5 C 0 km/h
1611 27-10-2010 10:15:01 6.8 C 5.89 g/m*3 6.8 C 0 km/h
1612 27-10-2010 10:27:01 7 C 5.89 g/m*3 7 C 0 km/h
1613 27-10-2010 10:39:01 7.3 C 5.77 g/m*3 7.3 C 0 km/h
1614 27-10-2010 10:51:01 7.4 C 5.57 g/m*3 7.4 C 0 km/h
1615 27-10-2010 11:03:01 7.6 C 5.56 g/m*3 7.6 C 0 km/h
1616 27-10-2010 11:15:02 7.8 C 5.55 g/m*3 7.8 C 0 km/h
1617 27-10-2010 11:27:02 8.2 C 5.53 g/m*3 8.2 C 0 km/h
1618 27-10-2010 11:39:01 8.6 C 5.41 g/m*3 8.6 C 0 km/h
1619 27-10-2010 11:51:02 8.9 C 5.17 g/m*3 8.9 C 0 km/h
1620 27-10-2010 12:03:01 9.1 C 4.7 g/m*3 9.1 C 0 km/h
1621 27-10-2010 12:15:02 9.4 C 4.43 g/m*3 9.4 C 0 km/h
1622 27-10-2010 12:27:02 9.5 C 4.37 g/m*3 9.5 C 0 km/h
1623 27-10-2010 12:39:01 9.8 C 4.36 g/m*3 9.8 C 0 km/h
1624 27-10-2010 12:51:02 10.3 C 4.41 g/m*3 10.3 C 0 km/h
1625 27-10-2010 13:03:02 10.7 C 4.22 g/m*3 10.7 C 0 km/h
Sensor: Nr:Datum:Temp:Abs-Feuchte:Windchill:Wind:
Aussen-T/F 1626 27-10-2010 13:15:02 10.8 C 3.95 g/m*3 10.8 C 0 km/h
1627 27-10-2010 13:27:02 11.1 C 3.73 g/m*3 11.1 C 0 km/h
1628 27-10-2010 13:39:02 11 C 3.6 g/m*3 11 C 0 km/h
1629 27-10-2010 13:51:02 11 C 3.7 g/m*3 11 C 0 km/h
1630 27-10-2010 14:03:02 11 C 3.7 g/m*3 11 C 0 km/h
1631 27-10-2010 14:15:01 11 C 3.8 g/m*3 11 C 0 km/h
1632 27-10-2010 14:27:01 11 C 3.5 g/m*3 11 C 0 km/h
1633 27-10-2010 14:39:02 11.1 C 3.63 g/m*3 11.1 C 0 km/h
1634 27-10-2010 14:51:02 11.2 C 3.55 g/m*3 11.2 C 0 km/h
1635 27-10-2010 15:03:02 11.3 C 3.57 g/m*3 11.3 C 0 km/h
1636 27-10-2010 15:15:02 11.5 C 3.51 g/m*3 11.5 C 0 km/h
1637 27-10-2010 15:27:02 11.7 C 3.66 g/m*3 11.7 C 0 km/h
1638 27-10-2010 15:39:02 11.6 C 3.64 g/m*3 11.6 C 0 km/h
1639 27-10-2010 15:51:02 11.7 C 3.35 g/m*3 11.7 C 0 km/h
1640 27-10-2010 16:03:02 11.8 C 3.58 g/m*3 11.8 C 0 km/h
1641 27-10-2010 16:15:03 11.9 C 3.39 g/m*3 11.9 C 0 km/h
1642 27-10-2010 16:27:03 12.1 C 3.43 g/m*3 12.1 C 0 km/h
1643 27-10-2010 16:39:02 12.1 C 3.32 g/m*3 12.1 C 0 km/h
1644 27-10-2010 16:51:02 12 C 3.41 g/m*3 12 C 0 km/h
1645 27-10-2010 17:03:02 11.9 C 3.6 g/m*3 11.9 C 0 km/h
1646 27-10-2010 17:15:02 11.8 C 3.68 g/m*3 11.8 C 0 km/h
1647 27-10-2010 17:27:02 11.6 C 3.33 g/m*3 11.6 C 0 km/h
1648 27-10-2010 17:39:02 11.5 C 3.51 g/m*3 11.5 C 0 km/h
1649 27-10-2010 17:51:02 11.2 C 3.65 g/m*3 11.2 C 0 km/h
1650 27-10-2010 18:03:02 10.9 C 4.08 g/m*3 10.9 C 0 km/h
Sensor: Nr:Datum:Temp:Abs-Feuchte:Windchill:Wind:
Aussen-T/F 1651 27-10-2010 18:15:02 10.6 C 4.2 g/m*3 10.6 C 0 km/h
1652 27-10-2010 18:27:03 10.4 C 4.14 g/m*3 10.4 C 0 km/h
1653 27-10-2010 18:39:01 10.1 C 4.63 g/m*3 10.1 C 0 km/h
1654 27-10-2010 18:51:02 10.2 C 4.28 g/m*3 10.2 C 0 km/h
1655 27-10-2010 19:03:01 10.2 C 4.38 g/m*3 10.2 C 0 km/h
1656 27-10-2010 19:15:02 10.1 C 4.54 g/m*3 10.1 C 0 km/h
1657 27-10-2010 19:27:02 10 C 4.32 g/m*3 10 C 0 km/h
1658 27-10-2010 19:39:02 10 C 4.42 g/m*3 10 C 0 km/h
1659 27-10-2010 19:51:02 9.9 C 4.39 g/m*3 9.9 C 0 km/h
1660 27-10-2010 20:03:02 9.8 C 4.55 g/m*3 9.8 C 0 km/h
1661 27-10-2010 20:15:02 9.7 C 4.33 g/m*3 9.7 C 0 km/h
1662 27-10-2010 20:27:02 9.9 C 4.48 g/m*3 9.9 C 0 km/h
1663 27-10-2010 20:39:02 9.8 C 4.36 g/m*3 9.8 C 0 km/h
1664 27-10-2010 20:51:01 9.8 C 4.36 g/m*3 9.8 C 0 km/h
1665 27-10-2010 21:03:02 9.7 C 4.61 g/m*3 9.7 C 0 km/h
1666 27-10-2010 21:15:01 9.6 C 4.76 g/m*3 9.6 C 0 km/h
1667 27-10-2010 21:27:01 9.6 C 4.49 g/m*3 9.6 C 0 km/h
1668 27-10-2010 21:39:02 9.5 C 4.82 g/m*3 9.5 C 0 km/h
1669 27-10-2010 21:51:02 9.4 C 4.88 g/m*3 9.4 C 0 km/h
1670 27-10-2010 22:03:02 9.3 C 4.94 g/m*3 9.3 C 0 km/h
1671 27-10-2010 22:15:01 9.2 C 4.91 g/m*3 9.2 C 0 km/h
1672 27-10-2010 22:27:01 9.1 C 4.97 g/m*3 9.1 C 0 km/h
1673 27-10-2010 22:39:02 9.2 C 4.91 g/m*3 9.2 C 0 km/h
1674 27-10-2010 22:51:01 9.2 C 4.73 g/m*3 9.2 C 0 km/h
1675 27-10-2010 23:03:02 9.2 C 4.55 g/m*3 9.2 C 0 km/h
Sensor: Nr:Datum:Temp:Abs-Feuchte:Windchill:Wind:
Aussen-T/F 1676 27-10-2010 23:15:02 9.1 C 4.88 g/m*3 9.1 C 0 km/h
1677 27-10-2010 23:27:02 9 C 4.85 g/m*3 9 C 0 km/h
1678 27-10-2010 23:39:02 8.9 C 4.99 g/m*3 8.9 C 0 km/h
1679 27-10-2010 23:51:02 8.9 C 4.99 g/m*3 8.9 C 0 km/h
1680 28-10-2010 00:03:02 8.8 C 4.79 g/m*3 8.8 C 0 km/h
1681 28-10-2010 00:15:02 8.7 C 4.84 g/m*3 8.7 C 0 km/h
1682 28-10-2010 00:27:02 8.7 C 4.93 g/m*3 8.7 C 0 km/h
1683 28-10-2010 00:39:02 8.6 C 4.9 g/m*3 8.6 C 0 km/h
1684 28-10-2010 00:51:01 8.5 C 4.87 g/m*3 8.5 C 0 km/h
1685 28-10-2010 01:03:02 8.5 C 4.87 g/m*3 8.5 C 0 km/h
1686 28-10-2010 01:15:02 8.5 C 4.87 g/m*3 8.5 C 0 km/h
1687 28-10-2010 01:27:02 8.5 C 4.87 g/m*3 8.5 C 0 km/h
1688 28-10-2010 01:39:01 8.4 C 4.92 g/m*3 8.4 C 0 km/h
1689 28-10-2010 01:51:02 8.4 C 5.01 g/m*3 8.4 C 0 km/h
1690 28-10-2010 02:03:01 8.3 C 4.97 g/m*3 8.3 C 0 km/h
1691 28-10-2010 02:15:02 8.1 C 4.99 g/m*3 8.1 C 0 km/h
1692 28-10-2010 02:27:02 8 C 5.04 g/m*3 8 C 0 km/h
1693 28-10-2010 02:39:02 8 C 5.13 g/m*3 8 C 0 km/h
1694 28-10-2010 02:52:04 7.9 C 5.09 g/m*3 7.9 C 0 km/h
1695 28-10-2010 03:04:05 7.8 C 4.98 g/m*3 7.8 C 0 km/h
1696 28-10-2010 03:16:04 7.5 C 4.8 g/m*3 7.5 C 0 km/h
1697 28-10-2010 03:28:04 7.5 C 4.72 g/m*3 7.5 C 0 km/h
1698 28-10-2010 03:40:02 7.6 C 4.91 g/m*3 7.6 C 0 km/h
1699 28-10-2010 03:52:02 7.7 C 4.87 g/m*3 7.7 C 0 km/h
1700 28-10-2010 04:04:02 7.7 C 4.95 g/m*3 7.7 C 0 km/h
Sensor: Nr:Datum:Temp:Abs-Feuchte:Windchill:Wind:
Aussen-T/F 1701 28-10-2010 04:16:02 7.7 C 5.03 g/m*3 7.7 C 0 km/h
1702 28-10-2010 04:28:03 7.6 C 5.08 g/m*3 7.6 C 0 km/h
1703 28-10-2010 04:40:01 7.6 C 5.16 g/m*3 7.6 C 0 km/h
1704 28-10-2010 04:52:02 7.7 C 5.11 g/m*3 7.7 C 0 km/h
1705 28-10-2010 05:04:01 7.6 C 5.08 g/m*3 7.6 C 0 km/h
1706 28-10-2010 05:16:01 7.6 C 5.24 g/m*3 7.6 C 0 km/h
1707 28-10-2010 05:28:01 7.4 C 5.01 g/m*3 7.4 C 0 km/h
1708 28-10-2010 05:40:02 7.4 C 5.01 g/m*3 7.4 C 0 km/h
1709 28-10-2010 05:52:02 7.6 C 4.91 g/m*3 7.6 C 0 km/h
1710 28-10-2010 06:04:02 7.9 C 4.85 g/m*3 7.9 C 0 km/h
1711 28-10-2010 06:16:02 8.1 C 4.33 g/m*3 8.1 C 0 km/h
1712 28-10-2010 06:28:02 7.9 C 4.35 g/m*3 7.9 C 0 km/h
1713 28-10-2010 06:40:02 7.8 C 4.33 g/m*3 7.8 C 0 km/h
1714 28-10-2010 06:52:01 8.2 C 4.19 g/m*3 8.2 C 0 km/h
1715 28-10-2010 07:04:02 8.4 C 4.24 g/m*3 8.4 C 0 km/h
1716 28-10-2010 07:16:01 8.5 C 4.27 g/m*3 8.5 C 0 km/h
1717 28-10-2010 07:28:01 8.6 C 4.38 g/m*3 8.6 C 0 km/h
1718 28-10-2010 07:40:01 8.4 C 4.33 g/m*3 8.4 C 0 km/h
1719 28-10-2010 07:52:01 8.5 C 4.35 g/m*3 8.5 C 0 km/h
1720 28-10-2010 08:04:02 8.7 C 4.5 g/m*3 8.7 C 0 km/h
1721 28-10-2010 08:16:01 8.7 C 4.58 g/m*3 8.7 C 0 km/h
1722 28-10-2010 08:28:01 8.6 C 4.73 g/m*3 8.6 C 0 km/h
1723 28-10-2010 08:40:01 8.7 C 4.76 g/m*3 8.7 C 0 km/h
1724 28-10-2010 08:52:02 8.8 C 4.79 g/m*3 8.8 C 0 km/h
1725 28-10-2010 09:04:01 9 C 4.58 g/m*3 9 C 0 km/h
Sensor: Nr:Datum:Temp:Abs-Feuchte:Windchill:Wind:
Aussen-T/F 1726 28-10-2010 09:16:02 9.2 C 4.46 g/m*3 9.2 C 0 km/h
1727 28-10-2010 09:28:02 8.9 C 4.99 g/m*3 8.9 C 0 km/h
1728 28-10-2010 09:40:01 8.6 C 5.24 g/m*3 8.6 C 0 km/h
1729 28-10-2010 09:52:02 8.6 C 5.24 g/m*3 8.6 C 0 km/h
1730 28-10-2010 10:04:02 8.1 C 5.66 g/m*3 8.1 C 0 km/h
1731 28-10-2010 10:16:02 7.7 C 6 g/m*3 7.7 C 0 km/h
1732 28-10-2010 10:28:02 7.7 C 6.32 g/m*3 7.7 C 0 km/h
1733 28-10-2010 10:40:02 7.9 C 6.32 g/m*3 7.9 C 0 km/h
1734 28-10-2010 10:52:02 8.1 C 6.16 g/m*3 8.1 C 0 km/h
1735 28-10-2010 11:04:02 8.6 C 6.02 g/m*3 8.6 C 0 km/h
1736 28-10-2010 11:16:01 9.3 C 6.11 g/m*3 9.3 C 0 km/h
1737 28-10-2010 11:28:01 10 C 6.11 g/m*3 10 C 0 km/h
1738 28-10-2010 11:40:02 10.2 C 5.8 g/m*3 10.2 C 0 km/h
1739 28-10-2010 11:52:02 10.4 C 5.78 g/m*3 10.4 C 0 km/h
1740 28-10-2010 12:04:02 10.4 C 5.59 g/m*3 10.4 C 0 km/h
1741 28-10-2010 12:16:02 10.8 C 5.83 g/m*3 10.8 C 0 km/h
1742 28-10-2010 12:28:02 10.7 C 5.8 g/m*3 10.7 C 0 km/h
1743 28-10-2010 12:40:02 10.7 C 5.89 g/m*3 10.7 C 0 km/h
1744 28-10-2010 12:52:02 11 C 5.81 g/m*3 11 C 0 km/h
1745 28-10-2010 13:04:03 11.2 C 5.68 g/m*3 11.2 C 0 km/h
1746 28-10-2010 13:16:02 10.9 C 5.67 g/m*3 10.9 C 0 km/h
1747 28-10-2010 13:28:02 11.2 C 5.68 g/m*3 11.2 C 0 km/h
1748 28-10-2010 13:40:02 11.6 C 5.72 g/m*3 11.6 C 0 km/h
1749 28-10-2010 13:52:01 11.8 C 5.68 g/m*3 11.8 C 0 km/h
1750 28-10-2010 14:04:02 11.9 C 5.72 g/m*3 11.9 C 0 km/h
Sensor: Nr:Datum:Temp:Abs-Feuchte:Windchill:Wind:
Aussen-T/F 1751 28-10-2010 14:16:01 12 C 5.65 g/m*3 12 C 0 km/h
1752 28-10-2010 14:28:01 12.4 C 5.68 g/m*3 12.4 C 0 km/h
1753 28-10-2010 14:40:01 12.4 C 5.57 g/m*3 12.4 C 0 km/h
1754 28-10-2010 14:52:01 12.8 C 5.71 g/m*3 12.8 C 0 km/h
1755 28-10-2010 15:04:02 13.1 C 5.59 g/m*3 13.1 C 0 km/h
1756 28-10-2010 15:16:01 12.6 C 5.53 g/m*3 12.6 C 0 km/h
1757 28-10-2010 15:28:01 12.7 C 5.68 g/m*3 12.7 C 0 km/h
1758 28-10-2010 15:40:01 12.6 C 5.75 g/m*3 12.6 C 0 km/h
1759 28-10-2010 15:52:01 12.6 C 5.75 g/m*3 12.6 C 0 km/h
1760 28-10-2010 16:04:02 11.9 C 5.93 g/m*3 11.9 C 0 km/h
1761 28-10-2010 16:16:02 11.6 C 6.03 g/m*3 11.6 C 0 km/h
1762 28-10-2010 16:28:02 11.5 C 6.2 g/m*3 11.5 C 0 km/h
1763 28-10-2010 16:40:01 11.5 C 6.2 g/m*3 11.5 C 0 km/h
1764 28-10-2010 16:52:01 11.6 C 6.24 g/m*3 11.6 C 0 km/h
1765 28-10-2010 17:04:01 11.6 C 6.24 g/m*3 11.6 C 0 km/h
1766 28-10-2010 17:16:02 11.5 C 6.2 g/m*3 11.5 C 0 km/h
1767 28-10-2010 17:28:02 11.1 C 6.04 g/m*3 11.1 C 0 km/h
1768 28-10-2010 17:40:01 10.7 C 6.09 g/m*3 10.7 C 0 km/h
1769 28-10-2010 17:52:03 10.5 C 6.11 g/m*3 10.5 C 0 km/h
1770 28-10-2010 18:04:02 10.2 C 6.09 g/m*3 10.2 C 0 km/h
1771 28-10-2010 18:16:02 10 C 6.11 g/m*3 10 C 0 km/h
1772 28-10-2010 18:28:02 10 C 6.11 g/m*3 10 C 0 km/h
1773 28-10-2010 18:40:02 9.7 C 6.18 g/m*3 9.7 C 0 km/h
1774 28-10-2010 18:52:02 9.4 C 6.15 g/m*3 9.4 C 0 km/h
1775 28-10-2010 19:04:02 9.2 C 6.25 g/m*3 9.2 C 0 km/h
Sensor: Nr:Datum:Temp:Abs-Feuchte:Windchill:Wind:
Aussen-T/F 1776 28-10-2010 19:16:02 9.2 C 6.25 g/m*3 9.2 C 0 km/h
1777 28-10-2010 19:28:02 9.2 C 6.25 g/m*3 9.2 C 0 km/h
1778 28-10-2010 19:40:02 9.2 C 6.25 g/m*3 9.2 C 0 km/h
1779 28-10-2010 19:52:02 9.1 C 6.12 g/m*3 9.1 C 0 km/h
1780 28-10-2010 20:04:01 9.2 C 6.25 g/m*3 9.2 C 0 km/h
1781 28-10-2010 20:16:02 9.2 C 6.25 g/m*3 9.2 C 0 km/h
1782 28-10-2010 20:28:02 9 C 6.17 g/m*3 9 C 0 km/h
1783 28-10-2010 20:40:02 8.9 C 6.31 g/m*3 8.9 C 0 km/h
1784 28-10-2010 20:52:02 8.7 C 6.23 g/m*3 8.7 C 0 km/h
1785 28-10-2010 21:04:03 8.6 C 6.27 g/m*3 8.6 C 0 km/h
1786 28-10-2010 21:16:02 8.6 C 6.36 g/m*3 8.6 C 0 km/h
1787 28-10-2010 21:28:02 8.5 C 6.32 g/m*3 8.5 C 0 km/h
1788 28-10-2010 21:40:02 8.1 C 6.16 g/m*3 8.1 C 0 km/h
1789 28-10-2010 21:52:01 8.1 C 6.41 g/m*3 8.1 C 0 km/h
1790 28-10-2010 22:04:02 7.7 C 6.32 g/m*3 7.7 C 0 km/h
1791 28-10-2010 22:16:01 7.6 C 6.36 g/m*3 7.6 C 0 km/h
1792 28-10-2010 22:28:01 7.9 C 6.57 g/m*3 7.9 C 0 km/h
1793 28-10-2010 22:40:02 7.4 C 6.28 g/m*3 7.4 C 0 km/h
1794 28-10-2010 22:52:01 7.2 C 6.28 g/m*3 7.2 C 0 km/h
1795 28-10-2010 23:04:02 7 C 6.28 g/m*3 7 C 0 km/h
1796 28-10-2010 23:16:01 6.9 C 6.31 g/m*3 6.9 C 0 km/h
1797 28-10-2010 23:28:01 6.8 C 6.35 g/m*3 6.8 C 0 km/h
1798 28-10-2010 23:40:02 6.7 C 6.38 g/m*3 6.7 C 0 km/h
1799 28-10-2010 23:52:01 6.5 C 6.3 g/m*3 6.5 C 0 km/h
1800 29-10-2010 00:04:02 6.3 C 6.22 g/m*3 6.3 C 0 km/h
Sensor: Nr:Datum:Temp:Abs-Feuchte:Windchill:Wind:
Aussen-T/F 1801 29-10-2010 00:16:02 6.2 C 6.18 g/m*3 6.2 C 0 km/h
1802 29-10-2010 00:28:02 6.2 C 6.25 g/m*3 6.2 C 0 km/h
1803 29-10-2010 00:40:02 6.3 C 6.29 g/m*3 6.3 C 0 km/h
1804 29-10-2010 00:52:02 6.3 C 6.37 g/m*3 6.3 C 0 km/h
1805 29-10-2010 01:04:02 6.4 C 6.41 g/m*3 6.4 C 0 km/h
1806 29-10-2010 01:16:02 6.3 C 6.37 g/m*3 6.3 C 0 km/h
1807 29-10-2010 01:28:03 6.2 C 6.4 g/m*3 6.2 C 0 km/h
1808 29-10-2010 01:40:02 6.3 C 6.44 g/m*3 6.3 C 0 km/h
1809 29-10-2010 01:52:02 6.2 C 6.4 g/m*3 6.2 C 0 km/h
1810 29-10-2010 02:04:01 6.1 C 6.36 g/m*3 6.1 C 0 km/h
1811 29-10-2010 02:16:02 6.2 C 6.47 g/m*3 6.2 C 0 km/h
1812 29-10-2010 02:28:02 6.4 C 6.56 g/m*3 6.4 C 0 km/h
1813 29-10-2010 02:40:01 6.8 C 6.73 g/m*3 6.8 C 0 km/h
1814 29-10-2010 02:52:02 6.8 C 6.73 g/m*3 6.8 C 0 km/h
1815 29-10-2010 03:04:02 6.9 C 6.7 g/m*3 6.9 C 0 km/h
1816 29-10-2010 03:16:01 7.2 C 6.75 g/m*3 7.2 C 0 km/h
1817 29-10-2010 03:28:01 7.6 C 7.01 g/m*3 7.6 C 0 km/h
1818 02-11-2010 08:03:09 8.6 C 7.05 g/m*3 8.6 C 0 km/h
1819 02-11-2010 08:15:01 8.4 C 6.96 g/m*3 8.4 C 0 km/h
1820 02-11-2010 08:15:09 8.9 C 7.1 g/m*3 8.9 C 0 km/h
1821 02-11-2010 08:27:01 8.5 C 7 g/m*3 8.5 C 0 km/h
1822 02-11-2010 08:27:09 9 C 6.96 g/m*3 9 C 0 km/h
1823 02-11-2010 08:39:02 8.5 C 7 g/m*3 8.5 C 0 km/h
1824 02-11-2010 08:39:09 9.2 C 6.88 g/m*3 9.2 C 0 km/h
1825 02-11-2010 08:51:01 8.6 C 7.05 g/m*3 8.6 C 0 km/h
Sensor: Nr:Datum:Temp:Abs-Feuchte:Windchill:Wind:
Aussen-T/F 1826 02-11-2010 08:51:42 9.3 C 6.83 g/m*3 9.3 C 0 km/h
1827 02-11-2010 09:03:59 9.5 C 6.92 g/m*3 9.5 C 0 km/h
1828 02-11-2010 09:15:59 9.7 C 6.91 g/m*3 9.7 C 0 km/h
1829 02-11-2010 09:27:26 9.8 C 6.87 g/m*3 9.8 C 0 km/h
1830 02-11-2010 09:39:43 10.1 C 6.81 g/m*3 10.1 C 0 km/h
1831 02-11-2010 09:51:10 10.4 C 6.75 g/m*3 10.4 C 0 km/h
1832 02-11-2010 10:03:10 10.9 C 6.86 g/m*3 10.9 C 0 km/h
1833 02-11-2010 10:15:26 10.8 C 6.72 g/m*3 10.8 C 0 km/h
1834 02-11-2010 10:27:53 11 C 6.71 g/m*3 11 C 0 km/h
1835 02-11-2010 10:39:10 11 C 6.71 g/m*3 11 C 0 km/h
1836 02-11-2010 10:51:10 11.5 C 6.71 g/m*3 11.5 C 0 km/h
1837 02-11-2010 11:03:37 11.8 C 6.42 g/m*3 11.8 C 0 km/h
1838 02-11-2010 11:15:54 12.1 C 6.33 g/m*3 12.1 C 0 km/h
1839 02-11-2010 11:27:22 11.8 C 6.42 g/m*3 11.8 C 0 km/h
1840 02-11-2010 11:39:22 11.7 C 6.48 g/m*3 11.7 C 0 km/h
1841 02-11-2010 11:51:38 12 C 6.5 g/m*3 12 C 0 km/h
1842 02-11-2010 12:03:06 12.2 C 6.58 g/m*3 12.2 C 0 km/h
1843 02-11-2010 12:15:06 12.5 C 6.49 g/m*3 12.5 C 0 km/h
1844 02-11-2010 12:27:21 12.7 C 6.57 g/m*3 12.7 C 0 km/h
1845 02-11-2010 12:39:49 12.8 C 6.5 g/m*3 12.8 C 0 km/h
1846 02-11-2010 12:51:06 12.4 C 6.34 g/m*3 12.4 C 0 km/h
1847 02-11-2010 13:03:06 12.4 C 6.34 g/m*3 12.4 C 0 km/h
1848 02-11-2010 13:15:33 12.7 C 6.35 g/m*3 12.7 C 0 km/h
1849 02-11-2010 13:27:49 12.7 C 6.23 g/m*3 12.7 C 0 km/h
1850 02-11-2010 13:39:16 12.9 C 6.42 g/m*3 12.9 C 0 km/h
Sensor: Nr:Datum:Temp:Abs-Feuchte:Windchill:Wind:
Aussen-T/F 1851 02-11-2010 13:51:16 12.9 C 6.31 g/m*3 12.9 C 0 km/h
1852 02-11-2010 14:03:33 12.6 C 6.31 g/m*3 12.6 C 0 km/h
1853 02-11-2010 14:15:00 12.9 C 6.31 g/m*3 12.9 C 0 km/h
1854 02-11-2010 14:27:00 12.7 C 6.35 g/m*3 12.7 C 0 km/h
1855 02-11-2010 14:39:16 12.7 C 6.46 g/m*3 12.7 C 0 km/h
1856 02-11-2010 14:51:43 13.1 C 6.39 g/m*3 13.1 C 0 km/h
1857 02-11-2010 15:03:00 13.2 C 6.2 g/m*3 13.2 C 0 km/h
1858 02-11-2010 15:15:00 13 C 6.24 g/m*3 13 C 0 km/h
1859 02-11-2010 15:27:27 13 C 6.35 g/m*3 13 C 0 km/h
1860 02-11-2010 15:39:43 12.7 C 6.57 g/m*3 12.7 C 0 km/h
1861 02-11-2010 15:51:11 12.7 C 6.57 g/m*3 12.7 C 0 km/h
1862 02-11-2010 16:03:11 12.8 C 6.5 g/m*3 12.8 C 0 km/h
1863 02-11-2010 16:15:27 12.4 C 6.45 g/m*3 12.4 C 0 km/h
1864 02-11-2010 16:27:54 12.2 C 6.47 g/m*3 12.2 C 0 km/h
1865 02-11-2010 16:39:10 12.2 C 6.37 g/m*3 12.2 C 0 km/h
1866 02-11-2010 16:51:10 12.1 C 6.43 g/m*3 12.1 C 0 km/h
1867 02-11-2010 17:03:38 12.2 C 6.47 g/m*3 12.2 C 0 km/h
1868 02-11-2010 17:15:54 11.6 C 6.55 g/m*3 11.6 C 0 km/h
1869 02-11-2010 17:27:21 11 C 6.61 g/m*3 11 C 0 km/h
1870 02-11-2010 17:39:21 11 C 6.71 g/m*3 11 C 0 km/h
1871 02-11-2010 17:51:37 10.9 C 6.66 g/m*3 10.9 C 0 km/h
1872 02-11-2010 18:03:05 11 C 6.61 g/m*3 11 C 0 km/h
1873 02-11-2010 18:15:05 10.9 C 6.66 g/m*3 10.9 C 0 km/h
1874 02-11-2010 18:27:21 11.2 C 6.69 g/m*3 11.2 C 0 km/h
1875 02-11-2010 18:39:48 11.4 C 6.67 g/m*3 11.4 C 0 km/h
Sensor: Nr:Datum:Temp:Abs-Feuchte:Windchill:Wind:
Aussen-T/F 1876 02-11-2010 18:51:05 11.6 C 6.65 g/m*3 11.6 C 0 km/h
1877 02-11-2010 19:03:05 11.4 C 6.57 g/m*3 11.4 C 0 km/h
1878 02-11-2010 19:15:32 11.5 C 6.71 g/m*3 11.5 C 0 km/h
1879 02-11-2010 19:27:48 11.7 C 6.69 g/m*3 11.7 C 0 km/h
1880 02-11-2010 19:39:15 11.7 C 6.69 g/m*3 11.7 C 0 km/h
1881 02-11-2010 19:51:15 11 C 6.61 g/m*3 11 C 0 km/h
1882 02-11-2010 20:03:32 10.5 C 6.79 g/m*3 10.5 C 0 km/h
1883 02-11-2010 20:15:00 10.7 C 7.07 g/m*3 10.7 C 0 km/h
1884 02-11-2010 20:27:00 11.1 C 7.15 g/m*3 11.1 C 0 km/h
1885 02-11-2010 20:39:15 11.3 C 7.04 g/m*3 11.3 C 0 km/h
1886 02-11-2010 20:51:02 11.4 C 6.98 g/m*3 11.4 C 0 km/h
1887 02-11-2010 21:03:02 11.2 C 6.99 g/m*3 11.2 C 0 km/h
1888 02-11-2010 21:15:02 11 C 7.11 g/m*3 11 C 0 km/h
1889 02-11-2010 21:27:03 10.8 C 7.22 g/m*3 10.8 C 0 km/h
1890 02-11-2010 21:39:02 10.9 C 7.26 g/m*3 10.9 C 0 km/h
1891 02-11-2010 21:51:02 10.8 C 7.31 g/m*3 10.8 C 0 km/h
1892 02-11-2010 22:03:02 10.8 C 7.41 g/m*3 10.8 C 0 km/h
1893 02-11-2010 22:15:01 11 C 7.41 g/m*3 11 C 0 km/h
1894 02-11-2010 22:27:01 11.3 C 7.45 g/m*3 11.3 C 0 km/h
1895 02-11-2010 22:39:02 11.2 C 7.4 g/m*3 11.2 C 0 km/h
1896 02-11-2010 22:51:02 11.1 C 7.45 g/m*3 11.1 C 0 km/h
1897 02-11-2010 23:03:02 11 C 7.51 g/m*3 11 C 0 km/h
1898 02-11-2010 23:15:02 11.1 C 7.55 g/m*3 11.1 C 0 km/h
1899 02-11-2010 23:27:02 11.5 C 7.64 g/m*3 11.5 C 0 km/h
1900 02-11-2010 23:39:02 11.2 C 7.5 g/m*3 11.2 C 0 km/h
Sensor: Nr:Datum:Temp:Abs-Feuchte:Windchill:Wind:
Aussen-T/F 1901 02-11-2010 23:51:02 10.9 C 7.66 g/m*3 10.9 C 0 km/h
1902 03-11-2010 00:03:02 10.8 C 7.71 g/m*3 10.8 C 0 km/h
1903 03-11-2010 00:15:02 11.3 C 7.85 g/m*3 11.3 C 0 km/h
1904 03-11-2010 00:27:02 11.4 C 7.6 g/m*3 11.4 C 0 km/h
1905 03-11-2010 00:39:02 11.4 C 7.49 g/m*3 11.4 C 0 km/h
1906 03-11-2010 00:51:02 11.7 C 7.64 g/m*3 11.7 C 0 km/h
1907 03-11-2010 01:03:02 10.9 C 7.56 g/m*3 10.9 C 0 km/h
1908 03-11-2010 01:15:02 11.4 C 7.6 g/m*3 11.4 C 0 km/h
1909 03-11-2010 01:27:02 11 C 7.41 g/m*3 11 C 0 km/h
1910 03-11-2010 01:39:02 10.5 C 7.27 g/m*3 10.5 C 0 km/h
1911 03-11-2010 01:51:02 10.6 C 7.61 g/m*3 10.6 C 0 km/h
1912 03-11-2010 02:03:02 11.4 C 7.7 g/m*3 11.4 C 0 km/h
1913 03-11-2010 02:15:01 11.8 C 7.58 g/m*3 11.8 C 0 km/h
1914 03-11-2010 02:27:01 12 C 7.57 g/m*3 12 C 0 km/h
1915 03-11-2010 02:39:02 11.9 C 7.63 g/m*3 11.9 C 0 km/h
1916 03-11-2010 02:52:03 11.3 C 7.34 g/m*3 11.3 C 0 km/h
1917 03-11-2010 03:04:03 11.8 C 7.58 g/m*3 11.8 C 0 km/h
1918 03-11-2010 03:16:04 12.1 C 7.29 g/m*3 12.1 C 0 km/h
1919 03-11-2010 03:28:04 12.1 C 7.18 g/m*3 12.1 C 0 km/h
1920 03-11-2010 03:40:02 12.1 C 7.29 g/m*3 12.1 C 0 km/h
1921 03-11-2010 03:52:02 12.2 C 7.34 g/m*3 12.2 C 0 km/h
1922 03-11-2010 04:04:02 12.2 C 7.34 g/m*3 12.2 C 0 km/h
1923 03-11-2010 04:16:02 12.2 C 7.45 g/m*3 12.2 C 0 km/h
1924 03-11-2010 04:28:02 12.6 C 7.63 g/m*3 12.6 C 0 km/h
1925 03-11-2010 04:40:02 12.5 C 7.48 g/m*3 12.5 C 0 km/h
Sensor: Nr:Datum:Temp:Abs-Feuchte:Windchill:Wind:
Aussen-T/F 1926 03-11-2010 04:52:02 12.7 C 7.46 g/m*3 12.7 C 0 km/h
1927 03-11-2010 05:04:03 12.8 C 7.5 g/m*3 12.8 C 0 km/h
1928 03-11-2010 05:16:02 12.7 C 7.46 g/m*3 12.7 C 0 km/h
1929 03-11-2010 05:28:02 12.7 C 7.46 g/m*3 12.7 C 0 km/h
1930 03-11-2010 05:40:02 12.8 C 7.5 g/m*3 12.8 C 0 km/h
1931 03-11-2010 05:52:01 12.6 C 7.52 g/m*3 12.6 C 0 km/h
1932 03-11-2010 06:04:01 12.7 C 7.57 g/m*3 12.7 C 0 km/h
1933 03-11-2010 06:16:02 12.6 C 7.63 g/m*3 12.6 C 0 km/h
1934 03-11-2010 06:28:02 12.7 C 7.57 g/m*3 12.7 C 0 km/h
1935 03-11-2010 06:40:01 12.6 C 7.63 g/m*3 12.6 C 0 km/h
1936 03-11-2010 06:52:01 12.7 C 7.68 g/m*3 12.7 C 0 km/h
1937 03-11-2010 07:04:01 12.7 C 7.68 g/m*3 12.7 C 0 km/h
1938 03-11-2010 07:16:02 12.6 C 7.63 g/m*3 12.6 C 0 km/h
1939 03-11-2010 07:28:02 12.8 C 7.73 g/m*3 12.8 C 0 km/h
1940 03-11-2010 07:40:01 12.9 C 7.66 g/m*3 12.9 C 0 km/h
1941 03-11-2010 07:52:02 12.8 C 7.62 g/m*3 12.8 C 0 km/h
1942 03-11-2010 08:04:02 13 C 7.6 g/m*3 13 C 0 km/h
1943 03-11-2010 08:16:02 13.2 C 7.58 g/m*3 13.2 C 0 km/h
1944 03-11-2010 08:28:02 13.3 C 7.51 g/m*3 13.3 C 0 km/h
1945 03-11-2010 08:40:01 13.4 C 7.56 g/m*3 13.4 C 0 km/h
1946 03-11-2010 08:52:02 13.5 C 7.6 g/m*3 13.5 C 0 km/h
1947 03-11-2010 09:04:01 13.6 C 7.65 g/m*3 13.6 C 0 km/h
1948 03-11-2010 09:16:01 13.7 C 7.7 g/m*3 13.7 C 0 km/h
1949 03-11-2010 09:28:01 13.7 C 7.58 g/m*3 13.7 C 0 km/h
1950 03-11-2010 09:40:02 14 C 7.6 g/m*3 14 C 0 km/h
Sensor: Nr:Datum:Temp:Abs-Feuchte:Windchill:Wind:
Aussen-T/F 1951 03-11-2010 09:52:02 13.9 C 7.67 g/m*3 13.9 C 0 km/h
1952 03-11-2010 10:04:03 14 C 7.6 g/m*3 14 C 0 km/h
1953 03-11-2010 10:16:02 14.2 C 7.57 g/m*3 14.2 C 0 km/h
1954 03-11-2010 10:28:02 14.2 C 7.57 g/m*3 14.2 C 0 km/h
1955 03-11-2010 10:40:01 14.3 C 7.49 g/m*3 14.3 C 0 km/h
1956 03-11-2010 10:52:02 14.3 C 7.49 g/m*3 14.3 C 0 km/h
1957 03-11-2010 11:04:01 14.4 C 7.54 g/m*3 14.4 C 0 km/h
1958 03-11-2010 11:16:02 14.4 C 7.54 g/m*3 14.4 C 0 km/h
1959 03-11-2010 11:28:02 14.6 C 7.76 g/m*3 14.6 C 0 km/h
1960 03-11-2010 11:40:01 14.4 C 7.66 g/m*3 14.4 C 0 km/h
1961 03-11-2010 11:52:02 14.3 C 7.74 g/m*3 14.3 C 0 km/h
1962 03-11-2010 12:04:02 14.1 C 7.65 g/m*3 14.1 C 0 km/h
1963 03-11-2010 12:16:02 14.1 C 7.77 g/m*3 14.1 C 0 km/h
1964 03-11-2010 12:28:02 14 C 7.72 g/m*3 14 C 0 km/h
1965 03-11-2010 12:40:02 13.8 C 7.74 g/m*3 13.8 C 0 km/h
1966 03-11-2010 12:52:02 13.7 C 7.82 g/m*3 13.7 C 0 km/h
1967 03-11-2010 13:04:02 13.6 C 7.77 g/m*3 13.6 C 0 km/h
1968 03-11-2010 13:16:01 13.5 C 7.84 g/m*3 13.5 C 0 km/h
1969 03-11-2010 13:28:01 13.6 C 7.89 g/m*3 13.6 C 0 km/h
1970 03-11-2010 13:40:02 13.5 C 7.84 g/m*3 13.5 C 0 km/h
1971 03-11-2010 13:52:02 13.5 C 7.84 g/m*3 13.5 C 0 km/h
1972 03-11-2010 14:04:02 13.5 C 7.95 g/m*3 13.5 C 0 km/h
1973 03-11-2010 14:16:01 13.7 C 7.93 g/m*3 13.7 C 0 km/h
1974 03-11-2010 14:28:01 13.6 C 7.89 g/m*3 13.6 C 0 km/h
1975 03-11-2010 14:40:02 13.7 C 7.93 g/m*3 13.7 C 0 km/h
Sensor: Nr:Datum:Temp:Abs-Feuchte:Windchill:Wind:
Aussen-T/F 1976 03-11-2010 14:52:02 13.8 C 7.98 g/m*3 13.8 C 0 km/h
1977 03-11-2010 15:04:02 13.8 C 7.98 g/m*3 13.8 C 0 km/h
1978 03-11-2010 15:16:02 13.8 C 8.1 g/m*3 13.8 C 0 km/h
1979 03-11-2010 15:28:02 13.8 C 8.1 g/m*3 13.8 C 0 km/h
1980 03-11-2010 15:40:02 13.8 C 8.1 g/m*3 13.8 C 0 km/h
1981 03-11-2010 15:52:02 13.7 C 8.05 g/m*3 13.7 C 0 km/h
1982 03-11-2010 16:04:02 13.7 C 8.17 g/m*3 13.7 C 0 km/h
1983 03-11-2010 16:16:02 13.7 C 8.17 g/m*3 13.7 C 0 km/h
1984 03-11-2010 16:28:02 13.4 C 8.02 g/m*3 13.4 C 0 km/h
1985 03-11-2010 16:40:02 13.4 C 8.14 g/m*3 13.4 C 0 km/h
1986 03-11-2010 16:52:01 13.1 C 7.99 g/m*3 13.1 C 0 km/h
1987 03-11-2010 17:04:01 13.1 C 8.33 g/m*3 13.1 C 0 km/h
1988 03-11-2010 17:16:02 13 C 8.17 g/m*3 13 C 0 km/h
1989 03-11-2010 17:28:02 13 C 8.17 g/m*3 13 C 0 km/h
1990 03-11-2010 17:40:01 13.1 C 8.1 g/m*3 13.1 C 0 km/h
1991 03-11-2010 17:52:02 13.1 C 8.22 g/m*3 13.1 C 0 km/h
1992 03-11-2010 18:04:02 12.8 C 8.29 g/m*3 12.8 C 0 km/h
1993 03-11-2010 18:16:03 12.7 C 8.35 g/m*3 12.7 C 0 km/h
1994 03-11-2010 18:28:03 12.5 C 8.25 g/m*3 12.5 C 0 km/h
1995 03-11-2010 18:40:02 12.6 C 8.3 g/m*3 12.6 C 0 km/h
1996 03-11-2010 18:52:02 12.7 C 8.35 g/m*3 12.7 C 0 km/h
1997 03-11-2010 19:04:02 12.7 C 8.35 g/m*3 12.7 C 0 km/h
1998 03-11-2010 19:16:02 12.8 C 8.29 g/m*3 12.8 C 0 km/h
1999 03-11-2010 19:28:02 13 C 8.17 g/m*3 13 C 0 km/h
2000 03-11-2010 19:40:02 13.3 C 8.32 g/m*3 13.3 C 0 km/h
Sensor: Nr:Datum:Temp:Abs-Feuchte:Windchill:Wind:
Aussen-T/F 2001 03-11-2010 19:52:02 13 C 8.17 g/m*3 13 C 0 km/h
2002 03-11-2010 20:04:01 13.2 C 8.15 g/m*3 13.2 C 0 km/h
2003 03-11-2010 20:16:02 13.3 C 8.32 g/m*3 13.3 C 0 km/h
2004 03-11-2010 20:28:02 13.4 C 8.25 g/m*3 13.4 C 0 km/h
2005 03-11-2010 20:40:02 13.5 C 8.19 g/m*3 13.5 C 0 km/h
2006 03-11-2010 20:52:01 13.5 C 8.07 g/m*3 13.5 C 0 km/h
2007 03-11-2010 21:04:02 13.5 C 8.19 g/m*3 13.5 C 0 km/h
2008 03-11-2010 21:16:01 13.5 C 8.19 g/m*3 13.5 C 0 km/h
2009 03-11-2010 21:28:01 13.6 C 8.12 g/m*3 13.6 C 0 km/h
2010 03-11-2010 21:40:02 13.3 C 8.09 g/m*3 13.3 C 0 km/h
2011 03-11-2010 21:53:23 13.8 C 8.22 g/m*3 13.8 C 0 km/h
2012 03-11-2010 22:05:23 13.9 C 8.15 g/m*3 13.9 C 0 km/h
2013 03-11-2010 22:17:23 14 C 8.08 g/m*3 14 C 0 km/h
2014 03-11-2010 22:29:23 14.2 C 8.18 g/m*3 14.2 C 0 km/h
2015 03-11-2010 22:41:23 14.2 C 8.18 g/m*3 14.2 C 0 km/h
2016 03-11-2010 22:53:23 14.2 C 8.18 g/m*3 14.2 C 0 km/h
2017 03-11-2010 23:05:23 14.2 C 8.18 g/m*3 14.2 C 0 km/h
2018 03-11-2010 23:17:23 14.2 C 8.3 g/m*3 14.2 C 0 km/h
2019 03-11-2010 23:29:23 14.2 C 8.43 g/m*3 14.2 C 0 km/h
2020 03-11-2010 23:41:23 14.2 C 8.55 g/m*3 14.2 C 0 km/h
2021 03-11-2010 23:53:23 14.2 C 8.55 g/m*3 14.2 C 0 km/h
2022 04-11-2010 00:05:23 14.2 C 8.67 g/m*3 14.2 C 0 km/h
2023 04-11-2010 00:17:23 14.2 C 8.67 g/m*3 14.2 C 0 km/h
2024 04-11-2010 00:29:24 14.1 C 8.74 g/m*3 14.1 C 0 km/h
2025 04-11-2010 00:41:24 14.4 C 8.9 g/m*3 14.4 C 0 km/h
Sensor: Nr:Datum:Temp:Abs-Feuchte:Windchill:Wind:
Aussen-T/F 2026 04-11-2010 00:53:24 14.6 C 8.88 g/m*3 14.6 C 0 km/h
2027 04-11-2010 01:05:24 14.7 C 9.07 g/m*3 14.7 C 0 km/h
2028 04-11-2010 01:17:24 14.7 C 9.07 g/m*3 14.7 C 0 km/h
2029 04-11-2010 01:29:24 14.8 C 8.99 g/m*3 14.8 C 0 km/h
2030 04-11-2010 01:41:24 14.8 C 9.12 g/m*3 14.8 C 0 km/h
2031 04-11-2010 01:53:24 14.7 C 9.07 g/m*3 14.7 C 0 km/h
2032 04-11-2010 02:05:24 14.8 C 9.12 g/m*3 14.8 C 0 km/h
2033 04-11-2010 02:17:24 14.9 C 9.18 g/m*3 14.9 C 0 km/h
2034 04-11-2010 02:29:24 15 C 8.98 g/m*3 15 C 0 km/h
2035 04-11-2010 02:41:24 15.1 C 9.03 g/m*3 15.1 C 0 km/h
2036 04-11-2010 02:53:24 15 C 8.98 g/m*3 15 C 0 km/h
2037 04-11-2010 03:05:24 15.1 C 9.03 g/m*3 15.1 C 0 km/h
2038 04-11-2010 03:17:24 15.2 C 9.09 g/m*3 15.2 C 0 km/h
2039 04-11-2010 03:29:24 15.1 C 9.16 g/m*3 15.1 C 0 km/h
2040 04-11-2010 03:41:24 15.2 C 9.09 g/m*3 15.2 C 0 km/h
2041 04-11-2010 03:53:24 15.2 C 9.22 g/m*3 15.2 C 0 km/h
2042 04-11-2010 04:05:24 15.2 C 9.22 g/m*3 15.2 C 0 km/h
2043 04-11-2010 04:17:24 15.1 C 9.29 g/m*3 15.1 C 0 km/h
2044 04-11-2010 04:29:24 15.2 C 9.35 g/m*3 15.2 C 0 km/h
2045 04-11-2010 04:41:25 15.3 C 9.27 g/m*3 15.3 C 0 km/h
2046 04-11-2010 04:53:25 15.3 C 9.4 g/m*3 15.3 C 0 km/h
2047 04-11-2010 05:05:25 15.4 C 9.33 g/m*3 15.4 C 0 km/h
2048 04-11-2010 05:17:25 15.5 C 9.39 g/m*3 15.5 C 0 km/h
2049 04-11-2010 05:29:25 15.6 C 9.44 g/m*3 15.6 C 0 km/h
2050 04-11-2010 05:41:25 15.6 C 9.44 g/m*3 15.6 C 0 km/h
Sensor: Nr:Datum:Temp:Abs-Feuchte:Windchill:Wind:
Aussen-T/F 2051 04-11-2010 05:53:25 15.6 C 9.44 g/m*3 15.6 C 0 km/h
2052 04-11-2010 06:05:25 15.7 C 9.5 g/m*3 15.7 C 0 km/h
2053 04-11-2010 06:17:25 15.7 C 9.63 g/m*3 15.7 C 0 km/h
2054 04-11-2010 06:29:25 15.6 C 9.58 g/m*3 15.6 C 0 km/h
2055 04-11-2010 06:41:25 15.8 C 9.69 g/m*3 15.8 C 0 km/h
2056 04-11-2010 06:53:25 15.7 C 9.63 g/m*3 15.7 C 0 km/h
2057 04-11-2010 07:05:25 15.7 C 9.63 g/m*3 15.7 C 0 km/h
2058 04-11-2010 07:17:03 15.8 C 9.56 g/m*3 15.8 C 0 km/h
2059 04-11-2010 07:29:03 16.1 C 9.6 g/m*3 16.1 C 0 km/h
2060 04-11-2010 07:41:02 16 C 9.4 g/m*3 16 C 0 km/h
2061 04-11-2010 07:53:02 16 C 9.4 g/m*3 16 C 0 km/h
2062 04-11-2010 08:05:01 16.1 C 9.46 g/m*3 16.1 C 0 km/h
2063 04-11-2010 08:17:02 16.1 C 9.46 g/m*3 16.1 C 0 km/h
2064 04-11-2010 08:29:03 16.2 C 9.52 g/m*3 16.2 C 0 km/h
2065 04-11-2010 08:41:01 16.2 C 9.38 g/m*3 16.2 C 0 km/h
2066 04-11-2010 08:53:02 16.4 C 9.35 g/m*3 16.4 C 0 km/h
2067 04-11-2010 09:05:02 16.6 C 9.18 g/m*3 16.6 C 0 km/h
2068 04-11-2010 09:17:02 16.6 C 9.04 g/m*3 16.6 C 0 km/h
2069 04-11-2010 09:29:02 16.6 C 9.04 g/m*3 16.6 C 0 km/h
2070 04-11-2010 09:41:02 16.6 C 9.04 g/m*3 16.6 C 0 km/h
2071 04-11-2010 09:53:02 16.8 C 9.01 g/m*3 16.8 C 0 km/h
2072 04-11-2010 10:05:02 17 C 8.97 g/m*3 17 C 0 km/h
2073 04-11-2010 10:17:01 17.1 C 8.88 g/m*3 17.1 C 0 km/h
2074 04-11-2010 10:29:01 17.3 C 8.84 g/m*3 17.3 C 0 km/h
2075 04-11-2010 10:41:02 17.5 C 8.8 g/m*3 17.5 C 0 km/h
Sensor: Nr:Datum:Temp:Abs-Feuchte:Windchill:Wind:
Aussen-T/F 2076 04-11-2010 10:53:02 17.3 C 8.69 g/m*3 17.3 C 0 km/h
2077 04-11-2010 11:05:02 17.5 C 8.65 g/m*3 17.5 C 0 km/h
2078 04-11-2010 11:17:01 17.7 C 8.6 g/m*3 17.7 C 0 km/h
2079 04-11-2010 11:29:01 17.8 C 8.5 g/m*3 17.8 C 0 km/h
2080 04-11-2010 11:41:02 18 C 8.29 g/m*3 18 C 0 km/h
2081 04-11-2010 11:53:02 18.1 C 8.19 g/m*3 18.1 C 0 km/h
2082 04-11-2010 12:05:02 18.3 C 8.13 g/m*3 18.3 C 0 km/h
2083 04-11-2010 12:17:02 18.5 C 8.23 g/m*3 18.5 C 0 km/h
2084 04-11-2010 12:29:02 18.5 C 8.23 g/m*3 18.5 C 0 km/h
2085 04-11-2010 12:41:02 18.3 C 8.13 g/m*3 18.3 C 0 km/h
2086 04-11-2010 12:53:02 18.6 C 8.12 g/m*3 18.6 C 0 km/h
2087 04-11-2010 13:05:02 18.7 C 8.17 g/m*3 18.7 C 0 km/h
2088 04-11-2010 13:17:02 18.5 C 8.23 g/m*3 18.5 C 0 km/h
2089 04-11-2010 13:29:02 18.5 C 8.23 g/m*3 18.5 C 0 km/h
2090 04-11-2010 13:41:01 18.5 C 8.23 g/m*3 18.5 C 0 km/h
2091 04-11-2010 13:53:02 18.5 C 8.07 g/m*3 18.5 C 0 km/h
2092 04-11-2010 14:05:01 18.3 C 7.97 g/m*3 18.3 C 0 km/h
2093 04-11-2010 14:17:02 18.3 C 7.97 g/m*3 18.3 C 0 km/h
2094 04-11-2010 14:29:02 18.5 C 8.07 g/m*3 18.5 C 0 km/h
2095 04-11-2010 14:41:02 18.6 C 7.96 g/m*3 18.6 C 0 km/h
2096 04-11-2010 14:53:02 18.5 C 8.07 g/m*3 18.5 C 0 km/h
2097 04-11-2010 15:05:02 18.4 C 8.02 g/m*3 18.4 C 0 km/h
2098 04-11-2010 15:17:02 18.4 C 8.18 g/m*3 18.4 C 0 km/h
2099 04-11-2010 15:29:02 18.4 C 8.18 g/m*3 18.4 C 0 km/h
2100 04-11-2010 15:41:02 18.1 C 8.03 g/m*3 18.1 C 0 km/h
Sensor: Nr:Datum:Temp:Abs-Feuchte:Windchill:Wind:
Aussen-T/F 2101 04-11-2010 15:53:02 17.9 C 8.24 g/m*3 17.9 C 0 km/h
2102 04-11-2010 16:05:02 17.9 C 8.4 g/m*3 17.9 C 0 km/h
2103 04-11-2010 16:17:01 17.7 C 8.45 g/m*3 17.7 C 0 km/h
2104 04-11-2010 16:29:01 17.5 C 8.5 g/m*3 17.5 C 0 km/h
2105 04-11-2010 16:41:02 17.4 C 8.45 g/m*3 17.4 C 0 km/h
2106 04-11-2010 16:53:02 17.1 C 8.3 g/m*3 17.1 C 0 km/h
2107 04-11-2010 17:05:02 17.1 C 8.44 g/m*3 17.1 C 0 km/h
2108 04-11-2010 17:17:01 16.8 C 8.44 g/m*3 16.8 C 0 km/h
2109 04-11-2010 17:29:01 16.9 C 8.49 g/m*3 16.9 C 0 km/h
2110 04-11-2010 17:41:02 16.8 C 8.44 g/m*3 16.8 C 0 km/h
2111 04-11-2010 17:53:01 17 C 8.39 g/m*3 17 C 0 km/h
2112 04-11-2010 18:05:02 16.7 C 8.38 g/m*3 16.7 C 0 km/h
2113 04-11-2010 18:17:02 16.8 C 8.44 g/m*3 16.8 C 0 km/h
2114 04-11-2010 18:29:02 16.8 C 8.44 g/m*3 16.8 C 0 km/h
2115 04-11-2010 18:41:01 16.8 C 8.44 g/m*3 16.8 C 0 km/h
2116 04-11-2010 18:53:02 16.8 C 8.44 g/m*3 16.8 C 0 km/h
2117 04-11-2010 19:05:02 16.9 C 8.49 g/m*3 16.9 C 0 km/h
2118 04-11-2010 19:17:02 16.9 C 8.49 g/m*3 16.9 C 0 km/h
2119 04-11-2010 19:29:02 16.9 C 8.49 g/m*3 16.9 C 0 km/h
2120 04-11-2010 19:41:01 16.9 C 8.49 g/m*3 16.9 C 0 km/h
2121 04-11-2010 19:53:01 17 C 8.39 g/m*3 17 C 0 km/h
2122 04-11-2010 20:05:02 16.5 C 8.28 g/m*3 16.5 C 0 km/h
2123 04-11-2010 20:17:02 16.3 C 8.05 g/m*3 16.3 C 0 km/h
2124 04-11-2010 20:29:02 16.1 C 8.09 g/m*3 16.1 C 0 km/h
2125 04-11-2010 20:41:01 15.9 C 8.13 g/m*3 15.9 C 0 km/h
Sensor: Nr:Datum:Temp:Abs-Feuchte:Windchill:Wind:
Aussen-T/F 2126 04-11-2010 20:53:01 15.8 C 8.08 g/m*3 15.8 C 0 km/h
2127 04-11-2010 21:05:02 15.8 C 8.08 g/m*3 15.8 C 0 km/h
2128 04-11-2010 21:17:01 15.9 C 8.13 g/m*3 15.9 C 0 km/h
2129 04-11-2010 21:29:01 15.8 C 8.08 g/m*3 15.8 C 0 km/h
2130 04-11-2010 21:41:02 15.7 C 8.03 g/m*3 15.7 C 0 km/h
2131 04-11-2010 21:53:02 15.5 C 7.93 g/m*3 15.5 C 0 km/h
2132 04-11-2010 22:05:02 15.4 C 7.88 g/m*3 15.4 C 0 km/h
2133 04-11-2010 22:18:04 15.4 C 7.88 g/m*3 15.4 C 0 km/h
2134 04-11-2010 22:30:04 15.4 C 7.88 g/m*3 15.4 C 0 km/h
2135 04-11-2010 22:42:04 15.4 C 7.88 g/m*3 15.4 C 0 km/h
2136 04-11-2010 22:54:04 15.3 C 7.84 g/m*3 15.3 C 0 km/h
2137 04-11-2010 23:06:04 15.4 C 7.88 g/m*3 15.4 C 0 km/h
2138 04-11-2010 23:18:04 15.3 C 7.84 g/m*3 15.3 C 0 km/h
2139 04-11-2010 23:30:04 15.4 C 7.88 g/m*3 15.4 C 0 km/h
2140 04-11-2010 23:42:04 15.4 C 7.88 g/m*3 15.4 C 0 km/h
2141 04-11-2010 23:54:05 15.5 C 7.93 g/m*3 15.5 C 0 km/h
2142 05-11-2010 00:06:05 15.5 C 7.93 g/m*3 15.5 C 0 km/h
2143 05-11-2010 00:18:05 15.4 C 7.88 g/m*3 15.4 C 0 km/h
2144 05-11-2010 00:30:05 15.3 C 7.84 g/m*3 15.3 C 0 km/h
2145 05-11-2010 00:42:05 15.2 C 7.92 g/m*3 15.2 C 0 km/h
2146 05-11-2010 00:54:05 15.3 C 7.84 g/m*3 15.3 C 0 km/h
2147 05-11-2010 01:06:05 15.2 C 7.79 g/m*3 15.2 C 0 km/h
2148 05-11-2010 01:18:05 15.2 C 7.53 g/m*3 15.2 C 0 km/h
2149 05-11-2010 01:30:05 15.2 C 7.4 g/m*3 15.2 C 0 km/h
2150 05-11-2010 01:42:05 15.1 C 7.48 g/m*3 15.1 C 0 km/h
Sensor: Nr:Datum:Temp:Abs-Feuchte:Windchill:Wind:
Aussen-T/F 2151 05-11-2010 01:54:05 15 C 7.44 g/m*3 15 C 0 km/h
2152 05-11-2010 02:06:05 14.9 C 7.52 g/m*3 14.9 C 0 km/h
2153 05-11-2010 02:18:05 14.9 C 7.39 g/m*3 14.9 C 0 km/h
2154 05-11-2010 02:30:05 14.7 C 7.43 g/m*3 14.7 C 0 km/h
2155 05-11-2010 02:42:05 14.7 C 7.43 g/m*3 14.7 C 0 km/h
2156 05-11-2010 02:54:05 14.5 C 7.46 g/m*3 14.5 C 0 km/h
2157 05-11-2010 03:06:05 14.5 C 7.46 g/m*3 14.5 C 0 km/h
2158 05-11-2010 03:18:05 14.6 C 7.38 g/m*3 14.6 C 0 km/h
2159 05-11-2010 03:30:05 14.4 C 7.42 g/m*3 14.4 C 0 km/h
2160 05-11-2010 03:42:05 14.4 C 7.29 g/m*3 14.4 C 0 km/h
2161 05-11-2010 03:54:05 14.4 C 7.29 g/m*3 14.4 C 0 km/h
2162 05-11-2010 04:06:05 14.4 C 7.29 g/m*3 14.4 C 0 km/h
2163 05-11-2010 04:18:05 14.2 C 7.33 g/m*3 14.2 C 0 km/h
2164 05-11-2010 04:30:06 14.1 C 7.4 g/m*3 14.1 C 0 km/h
2165 05-11-2010 04:42:06 14.1 C 7.4 g/m*3 14.1 C 0 km/h
2166 05-11-2010 04:54:06 14.2 C 7.45 g/m*3 14.2 C 0 km/h
2167 05-11-2010 05:06:06 14.1 C 7.28 g/m*3 14.1 C 0 km/h
2168 05-11-2010 05:18:06 14 C 7.24 g/m*3 14 C 0 km/h
2169 05-11-2010 05:30:06 14.3 C 7.25 g/m*3 14.3 C 0 km/h
2170 05-11-2010 05:42:06 14.2 C 7.08 g/m*3 14.2 C 0 km/h
2171 05-11-2010 05:54:06 14.1 C 7.04 g/m*3 14.1 C 0 km/h
2172 05-11-2010 06:06:06 14 C 7 g/m*3 14 C 0 km/h
2173 05-11-2010 06:18:06 13.9 C 7.19 g/m*3 13.9 C 0 km/h
2174 05-11-2010 06:30:06 13.8 C 7.15 g/m*3 13.8 C 0 km/h
2175 05-11-2010 06:42:06 13.8 C 7.15 g/m*3 13.8 C 0 km/h
Sensor: Nr:Datum:Temp:Abs-Feuchte:Windchill:Wind:
Aussen-T/F 2176 05-11-2010 06:54:02 13.6 C 7.18 g/m*3 13.6 C 0 km/h
2177 05-11-2010 07:06:02 13.5 C 7.02 g/m*3 13.5 C 0 km/h
2178 05-11-2010 07:18:02 13.3 C 7.05 g/m*3 13.3 C 0 km/h
2179 05-11-2010 07:30:02 13.5 C 6.9 g/m*3 13.5 C 0 km/h
2180 05-11-2010 07:42:02 13.5 C 6.9 g/m*3 13.5 C 0 km/h
2181 05-11-2010 07:54:02 13.5 C 6.9 g/m*3 13.5 C 0 km/h
2182 05-11-2010 08:06:02 13.5 C 6.78 g/m*3 13.5 C 0 km/h
2183 05-11-2010 08:18:02 13.7 C 6.63 g/m*3 13.7 C 0 km/h
2184 05-11-2010 08:30:02 14 C 6.51 g/m*3 14 C 0 km/h
2185 05-11-2010 08:42:02 14.1 C 6.55 g/m*3 14.1 C 0 km/h
2186 05-11-2010 08:54:02 14.1 C 6.55 g/m*3 14.1 C 0 km/h
2187 05-11-2010 09:06:02 14.2 C 6.59 g/m*3 14.2 C 0 km/h
2188 05-11-2010 09:18:01 14.4 C 6.68 g/m*3 14.4 C 0 km/h
2189 05-11-2010 09:30:01 14.6 C 6.76 g/m*3 14.6 C 0 km/h
2190 05-11-2010 09:42:02 14.7 C 6.8 g/m*3 14.7 C 0 km/h
2191 05-11-2010 09:54:02 14.7 C 6.8 g/m*3 14.7 C 0 km/h
2192 05-11-2010 10:06:02 14.8 C 6.84 g/m*3 14.8 C 0 km/h
2193 05-11-2010 10:18:02 14.9 C 6.88 g/m*3 14.9 C 0 km/h
2194 05-11-2010 10:30:02 15 C 6.8 g/m*3 15 C 0 km/h
2195 05-11-2010 10:42:02 15 C 6.92 g/m*3 15 C 0 km/h
2196 05-11-2010 10:54:01 14.8 C 6.97 g/m*3 14.8 C 0 km/h
2197 05-11-2010 11:06:01 14.7 C 7.05 g/m*3 14.7 C 0 km/h
2198 05-11-2010 11:18:01 15 C 6.92 g/m*3 15 C 0 km/h
2199 05-11-2010 11:30:01 15.6 C 7.05 g/m*3 15.6 C 0 km/h
2200 05-11-2010 11:42:02 15.5 C 7.01 g/m*3 15.5 C 0 km/h
Sensor: Nr:Datum:Temp:Abs-Feuchte:Windchill:Wind:
Aussen-T/F 2201 05-11-2010 11:54:02 15.3 C 6.92 g/m*3 15.3 C 0 km/h
2202 05-11-2010 12:06:01 15.4 C 6.96 g/m*3 15.4 C 0 km/h
2203 05-11-2010 12:18:02 15 C 7.05 g/m*3 15 C 0 km/h
2204 05-11-2010 12:30:02 15.1 C 7.1 g/m*3 15.1 C 0 km/h
2205 05-11-2010 12:42:02 15.2 C 7.14 g/m*3 15.2 C 0 km/h
2206 05-11-2010 12:54:02 15 C 7.18 g/m*3 15 C 0 km/h
2207 05-11-2010 13:06:01 15 C 7.05 g/m*3 15 C 0 km/h
2208 05-11-2010 13:18:01 15 C 7.05 g/m*3 15 C 0 km/h
2209 05-11-2010 13:30:01 15.2 C 7.14 g/m*3 15.2 C 0 km/h
2210 05-11-2010 13:42:01 15.1 C 7.1 g/m*3 15.1 C 0 km/h
2211 05-11-2010 13:54:02 15.2 C 7.14 g/m*3 15.2 C 0 km/h
2212 05-11-2010 14:06:02 14.9 C 7.26 g/m*3 14.9 C 0 km/h
2213 05-11-2010 14:18:02 14.7 C 7.43 g/m*3 14.7 C 0 km/h
2214 05-11-2010 14:30:02 14.8 C 7.47 g/m*3 14.8 C 0 km/h
2215 05-11-2010 14:42:01 14.8 C 7.35 g/m*3 14.8 C 0 km/h
2216 05-11-2010 14:54:01 14.8 C 7.47 g/m*3 14.8 C 0 km/h
2217 05-11-2010 15:06:02 14.7 C 7.43 g/m*3 14.7 C 0 km/h
2218 05-11-2010 15:18:02 14.7 C 7.55 g/m*3 14.7 C 0 km/h
2219 05-11-2010 15:30:02 14.7 C 7.43 g/m*3 14.7 C 0 km/h
2220 05-11-2010 15:42:02 14.4 C 7.54 g/m*3 14.4 C 0 km/h
2221 05-11-2010 15:54:01 14.5 C 7.46 g/m*3 14.5 C 0 km/h
2222 05-11-2010 16:06:02 14.6 C 7.51 g/m*3 14.6 C 0 km/h
2223 05-11-2010 16:18:01 14.6 C 7.51 g/m*3 14.6 C 0 km/h
2224 05-11-2010 16:30:01 14.6 C 7.51 g/m*3 14.6 C 0 km/h
2225 05-11-2010 16:42:02 14.5 C 7.46 g/m*3 14.5 C 0 km/h
Sensor: Nr:Datum:Temp:Abs-Feuchte:Windchill:Wind:
Aussen-T/F 2226 05-11-2010 16:54:01 14.5 C 7.46 g/m*3 14.5 C 0 km/h
2227 05-11-2010 17:06:02 14.5 C 7.59 g/m*3 14.5 C 0 km/h
2228 05-11-2010 17:18:01 14.6 C 7.51 g/m*3 14.6 C 0 km/h
2229 05-11-2010 17:30:01 14.7 C 7.55 g/m*3 14.7 C 0 km/h
2230 05-11-2010 17:42:02 14.7 C 7.55 g/m*3 14.7 C 0 km/h
2231 05-11-2010 17:54:02 14.7 C 7.55 g/m*3 14.7 C 0 km/h
2232 05-11-2010 18:06:02 14.7 C 7.55 g/m*3 14.7 C 0 km/h
2233 05-11-2010 18:18:02 14.7 C 7.55 g/m*3 14.7 C 0 km/h
2234 05-11-2010 18:30:02 14.8 C 7.6 g/m*3 14.8 C 0 km/h
2235 05-11-2010 18:42:02 14.8 C 7.6 g/m*3 14.8 C 0 km/h
2236 05-11-2010 18:54:02 14.8 C 7.6 g/m*3 14.8 C 0 km/h
2237 05-11-2010 19:06:02 14.6 C 7.51 g/m*3 14.6 C 0 km/h
2238 05-11-2010 19:18:02 14.4 C 7.54 g/m*3 14.4 C 0 km/h
2239 05-11-2010 19:30:02 14.2 C 7.57 g/m*3 14.2 C 0 km/h
2240 05-11-2010 19:42:02 14.3 C 7.62 g/m*3 14.3 C 0 km/h
2241 05-11-2010 19:54:01 14.3 C 7.62 g/m*3 14.3 C 0 km/h
2242 05-11-2010 20:06:02 14.3 C 7.62 g/m*3 14.3 C 0 km/h
2243 05-11-2010 20:18:01 14.4 C 7.54 g/m*3 14.4 C 0 km/h
2244 05-11-2010 20:30:01 14.5 C 7.59 g/m*3 14.5 C 0 km/h
2245 05-11-2010 20:42:02 14.5 C 7.59 g/m*3 14.5 C 0 km/h
2246 05-11-2010 20:54:02 14.5 C 7.59 g/m*3 14.5 C 0 km/h
2247 05-11-2010 21:06:02 14.4 C 7.54 g/m*3 14.4 C 0 km/h
2248 05-11-2010 21:18:02 14.2 C 7.57 g/m*3 14.2 C 0 km/h
2249 05-11-2010 21:30:02 14.3 C 7.62 g/m*3 14.3 C 0 km/h
2250 05-11-2010 21:42:02 14.1 C 7.65 g/m*3 14.1 C 0 km/h
Sensor: Nr:Datum:Temp:Abs-Feuchte:Windchill:Wind:
Aussen-T/F 2251 05-11-2010 21:54:02 14.4 C 7.66 g/m*3 14.4 C 0 km/h
2252 05-11-2010 22:06:02 14.2 C 7.57 g/m*3 14.2 C 0 km/h
2253 05-11-2010 22:18:01 14.2 C 7.57 g/m*3 14.2 C 0 km/h
2254 05-11-2010 22:30:01 14.1 C 7.52 g/m*3 14.1 C 0 km/h
2255 05-11-2010 22:42:02 13.9 C 7.67 g/m*3 13.9 C 0 km/h
2256 05-11-2010 22:54:02 13.7 C 7.58 g/m*3 13.7 C 0 km/h
2257 05-11-2010 23:06:02 13.6 C 7.65 g/m*3 13.6 C 0 km/h
2258 05-11-2010 23:18:02 14 C 7.6 g/m*3 14 C 0 km/h
2259 05-11-2010 23:30:02 14 C 7.6 g/m*3 14 C 0 km/h
2260 05-11-2010 23:42:02 14.1 C 7.52 g/m*3 14.1 C 0 km/h
2261 05-11-2010 23:54:02 14 C 7.48 g/m*3 14 C 0 km/h
2262 06-11-2010 00:06:01 13.9 C 7.67 g/m*3 13.9 C 0 km/h
2263 06-11-2010 00:18:01 14.1 C 7.52 g/m*3 14.1 C 0 km/h
2264 06-11-2010 00:30:01 14 C 7.6 g/m*3 14 C 0 km/h
2265 06-11-2010 00:42:02 14.1 C 7.52 g/m*3 14.1 C 0 km/h
2266 06-11-2010 00:54:02 14.1 C 7.52 g/m*3 14.1 C 0 km/h
2267 06-11-2010 01:06:02 14 C 7.6 g/m*3 14 C 0 km/h
2268 06-11-2010 01:18:02 14.1 C 7.65 g/m*3 14.1 C 0 km/h
2269 06-11-2010 01:30:02 14.1 C 7.52 g/m*3 14.1 C 0 km/h
2270 06-11-2010 01:42:02 14 C 7.6 g/m*3 14 C 0 km/h
2271 06-11-2010 01:54:01 13.9 C 7.67 g/m*3 13.9 C 0 km/h
2272 06-11-2010 02:06:02 13.9 C 7.67 g/m*3 13.9 C 0 km/h
2273 06-11-2010 02:18:01 13.7 C 7.7 g/m*3 13.7 C 0 km/h
2274 06-11-2010 02:30:01 13.3 C 7.63 g/m*3 13.3 C 0 km/h
2275 06-11-2010 02:42:02 13.1 C 7.65 g/m*3 13.1 C 0 km/h
Sensor: Nr:Datum:Temp:Abs-Feuchte:Windchill:Wind:
Aussen-T/F 2276 06-11-2010 02:55:03 12.9 C 7.78 g/m*3 12.9 C 0 km/h
2277 06-11-2010 03:07:03 12.9 C 7.89 g/m*3 12.9 C 0 km/h
2278 06-11-2010 03:19:03 13 C 7.94 g/m*3 13 C 0 km/h
2279 06-11-2010 03:31:03 13 C 7.94 g/m*3 13 C 0 km/h
2280 06-11-2010 03:43:03 12.8 C 8.06 g/m*3 12.8 C 0 km/h
2281 06-11-2010 03:55:03 12.8 C 8.06 g/m*3 12.8 C 0 km/h
2282 06-11-2010 04:07:02 12.7 C 8.13 g/m*3 12.7 C 0 km/h
2283 06-11-2010 04:19:02 12.7 C 8.13 g/m*3 12.7 C 0 km/h
2284 06-11-2010 04:31:02 12.7 C 8.13 g/m*3 12.7 C 0 km/h
2285 06-11-2010 04:43:02 12.9 C 8.11 g/m*3 12.9 C 0 km/h
2286 06-11-2010 04:55:02 12.9 C 8.11 g/m*3 12.9 C 0 km/h
2287 06-11-2010 05:07:02 13 C 8.05 g/m*3 13 C 0 km/h
2288 06-11-2010 05:19:03 13 C 8.05 g/m*3 13 C 0 km/h
2289 06-11-2010 05:31:02 13.1 C 7.99 g/m*3 13.1 C 0 km/h
2290 06-11-2010 05:43:02 13.2 C 7.92 g/m*3 13.2 C 0 km/h
2291 06-11-2010 05:55:02 13.3 C 7.97 g/m*3 13.3 C 0 km/h
2292 06-11-2010 06:07:02 13.4 C 7.9 g/m*3 13.4 C 0 km/h
2293 06-11-2010 06:19:02 13.4 C 7.9 g/m*3 13.4 C 0 km/h
2294 06-11-2010 06:31:02 13.4 C 7.9 g/m*3 13.4 C 0 km/h
2295 06-11-2010 06:43:02 13.5 C 7.84 g/m*3 13.5 C 0 km/h
2296 06-11-2010 06:55:02 13.6 C 7.77 g/m*3 13.6 C 0 km/h
2297 06-11-2010 07:07:03 13.4 C 7.67 g/m*3 13.4 C 0 km/h
2298 06-11-2010 07:19:02 13.5 C 7.6 g/m*3 13.5 C 0 km/h
2299 06-11-2010 07:31:02 13.5 C 7.6 g/m*3 13.5 C 0 km/h
2300 06-11-2010 07:43:02 13.5 C 7.49 g/m*3 13.5 C 0 km/h
Sensor: Nr:Datum:Temp:Abs-Feuchte:Windchill:Wind:
Aussen-T/F 2301 06-11-2010 07:55:02 13.5 C 7.49 g/m*3 13.5 C 0 km/h
2302 06-11-2010 08:07:01 13.4 C 7.44 g/m*3 13.4 C 0 km/h
2303 06-11-2010 08:19:01 13.5 C 7.49 g/m*3 13.5 C 0 km/h
2304 06-11-2010 08:31:02 13.4 C 7.44 g/m*3 13.4 C 0 km/h
2305 06-11-2010 08:43:02 13.2 C 7.58 g/m*3 13.2 C 0 km/h
2306 06-11-2010 08:55:02 13.2 C 7.58 g/m*3 13.2 C 0 km/h
2307 06-11-2010 09:07:02 13.2 C 7.69 g/m*3 13.2 C 0 km/h
2308 06-11-2010 09:19:02 13 C 7.71 g/m*3 13 C 0 km/h
2309 06-11-2010 09:31:01 12.6 C 7.52 g/m*3 12.6 C 0 km/h
2310 06-11-2010 09:43:01 10.7 C 7.27 g/m*3 10.7 C 0 km/h
2311 06-11-2010 09:55:02 10.1 C 7.47 g/m*3 10.1 C 0 km/h
2312 06-11-2010 10:07:01 10 C 7.71 g/m*3 10 C 0 km/h
2313 06-11-2010 10:19:01 10.1 C 7.85 g/m*3 10.1 C 0 km/h
2314 06-11-2010 10:31:01 10.2 C 7.99 g/m*3 10.2 C 0 km/h
2315 06-11-2010 10:43:01 10.2 C 7.99 g/m*3 10.2 C 0 km/h
2316 06-11-2010 10:55:01 10.4 C 8.1 g/m*3 10.4 C 0 km/h
2317 06-11-2010 11:07:02 10.6 C 8.2 g/m*3 10.6 C 0 km/h
2318 06-11-2010 11:19:02 10.6 C 8.2 g/m*3 10.6 C 0 km/h
2319 06-11-2010 11:31:02 10.5 C 8.15 g/m*3 10.5 C 0 km/h
2320 06-11-2010 11:43:02 10.7 C 8.25 g/m*3 10.7 C 0 km/h
2321 06-11-2010 11:55:01 10.5 C 8.15 g/m*3 10.5 C 0 km/h
2322 06-11-2010 12:07:02 10 C 7.89 g/m*3 10 C 0 km/h
2323 06-11-2010 12:19:01 9.8 C 7.7 g/m*3 9.8 C 0 km/h
2324 06-11-2010 12:31:02 9.8 C 7.7 g/m*3 9.8 C 0 km/h
2325 06-11-2010 12:43:02 9.8 C 7.7 g/m*3 9.8 C 0 km/h
Sensor: Nr:Datum:Temp:Abs-Feuchte:Windchill:Wind:
Aussen-T/F 2326 06-11-2010 12:55:02 9.5 C 7.37 g/m*3 9.5 C 0 km/h
2327 06-11-2010 13:07:02 9.2 C 7.23 g/m*3 9.2 C 0 km/h
2328 06-11-2010 13:19:02 8.9 C 7.27 g/m*3 8.9 C 0 km/h
2329 06-11-2010 13:31:02 9 C 7.41 g/m*3 9 C 0 km/h
2330 06-11-2010 13:43:02 9.2 C 7.68 g/m*3 9.2 C 0 km/h
2331 06-11-2010 13:55:02 9.1 C 7.72 g/m*3 9.1 C 0 km/h
2332 06-11-2010 14:07:02 9.1 C 7.72 g/m*3 9.1 C 0 km/h
2333 06-11-2010 14:19:02 9 C 7.67 g/m*3 9 C 0 km/h
2334 06-11-2010 14:31:02 9 C 7.67 g/m*3 9 C 0 km/h
2335 06-11-2010 14:43:03 8.8 C 7.66 g/m*3 8.8 C 0 km/h
2336 06-11-2010 14:55:02 8.7 C 7.61 g/m*3 8.7 C 0 km/h
2337 06-11-2010 15:07:02 8.8 C 7.75 g/m*3 8.8 C 0 km/h
2338 06-11-2010 15:19:01 8.7 C 7.7 g/m*3 8.7 C 0 km/h
2339 06-11-2010 15:31:02 8.7 C 7.7 g/m*3 8.7 C 0 km/h
2340 06-11-2010 15:43:02 8.5 C 7.6 g/m*3 8.5 C 0 km/h
2341 06-11-2010 15:55:02 8.5 C 7.6 g/m*3 8.5 C 0 km/h
2342 06-11-2010 16:07:03 8.4 C 7.55 g/m*3 8.4 C 0 km/h
2343 06-11-2010 16:19:02 8.3 C 7.59 g/m*3 8.3 C 0 km/h
2344 06-11-2010 16:31:02 8.2 C 7.54 g/m*3 8.2 C 0 km/h
2345 06-11-2010 16:43:02 8.2 C 7.54 g/m*3 8.2 C 0 km/h
2346 06-11-2010 16:55:02 7.9 C 7.47 g/m*3 7.9 C 0 km/h
2347 06-11-2010 17:07:02 7.9 C 7.47 g/m*3 7.9 C 0 km/h
2348 06-11-2010 17:19:02 8.1 C 7.57 g/m*3 8.1 C 0 km/h
2349 06-11-2010 17:31:02 7.9 C 7.56 g/m*3 7.9 C 0 km/h
2350 06-11-2010 17:43:02 7.8 C 7.51 g/m*3 7.8 C 0 km/h
Sensor: Nr:Datum:Temp:Abs-Feuchte:Windchill:Wind:
Aussen-T/F 2351 06-11-2010 17:55:02 7.5 C 7.36 g/m*3 7.5 C 0 km/h
2352 06-11-2010 18:07:01 7.6 C 7.41 g/m*3 7.6 C 0 km/h
2353 06-11-2010 18:19:02 7.3 C 7.27 g/m*3 7.3 C 0 km/h
2354 06-11-2010 18:31:01 7.5 C 7.36 g/m*3 7.5 C 0 km/h
2355 06-11-2010 18:43:01 7.4 C 7.32 g/m*3 7.4 C 0 km/h
2356 06-11-2010 18:55:02 7.4 C 7.32 g/m*3 7.4 C 0 km/h
2357 06-11-2010 19:07:01 7.6 C 7.49 g/m*3 7.6 C 0 km/h
2358 06-11-2010 19:19:02 7.3 C 7.35 g/m*3 7.3 C 0 km/h
2359 06-11-2010 19:31:01 7.4 C 7.4 g/m*3 7.4 C 0 km/h
2360 06-11-2010 19:43:01 7.3 C 7.35 g/m*3 7.3 C 0 km/h
2361 06-11-2010 19:55:01 7.5 C 7.44 g/m*3 7.5 C 0 km/h
2362 06-11-2010 20:07:01 7.3 C 7.35 g/m*3 7.3 C 0 km/h
2363 06-11-2010 20:19:02 7.3 C 7.35 g/m*3 7.3 C 0 km/h
2364 06-11-2010 20:31:01 7.1 C 7.25 g/m*3 7.1 C 0 km/h
2365 06-11-2010 20:43:01 7.2 C 7.3 g/m*3 7.2 C 0 km/h
2366 06-11-2010 20:55:01 7.1 C 7.25 g/m*3 7.1 C 0 km/h
2367 06-11-2010 21:07:01 7.3 C 7.35 g/m*3 7.3 C 0 km/h
2368 06-11-2010 21:19:01 7.2 C 7.3 g/m*3 7.2 C 0 km/h
2369 06-11-2010 21:31:01 7.2 C 7.3 g/m*3 7.2 C 0 km/h
2370 06-11-2010 21:43:01 7.2 C 7.3 g/m*3 7.2 C 0 km/h
2371 06-11-2010 21:55:01 7.4 C 7.4 g/m*3 7.4 C 0 km/h
2372 06-11-2010 22:07:02 7.5 C 7.44 g/m*3 7.5 C 0 km/h
2373 06-11-2010 22:19:01 7.5 C 7.44 g/m*3 7.5 C 0 km/h
2374 06-11-2010 22:32:02 7.4 C 7.4 g/m*3 7.4 C 0 km/h
2375 06-11-2010 22:44:02 7.5 C 7.44 g/m*3 7.5 C 0 km/h
Sensor: Nr:Datum:Temp:Abs-Feuchte:Windchill:Wind:
Aussen-T/F 2376 06-11-2010 22:56:02 7.5 C 7.44 g/m*3 7.5 C 0 km/h
2377 06-11-2010 23:08:02 7.5 C 7.44 g/m*3 7.5 C 0 km/h
2378 06-11-2010 23:20:02 7.3 C 7.35 g/m*3 7.3 C 0 km/h
2379 06-11-2010 23:32:03 7.4 C 7.4 g/m*3 7.4 C 0 km/h
2380 06-11-2010 23:44:03 7.3 C 7.35 g/m*3 7.3 C 0 km/h
2381 06-11-2010 23:56:03 7.3 C 7.35 g/m*3 7.3 C 0 km/h
2382 07-11-2010 00:08:03 7.2 C 7.3 g/m*3 7.2 C 0 km/h
2383 07-11-2010 00:20:03 7.2 C 7.3 g/m*3 7.2 C 0 km/h
2384 07-11-2010 00:32:03 7.2 C 7.3 g/m*3 7.2 C 0 km/h
2385 07-11-2010 00:44:03 7.3 C 7.35 g/m*3 7.3 C 0 km/h
2386 07-11-2010 00:56:03 7.2 C 7.3 g/m*3 7.2 C 0 km/h
2387 07-11-2010 01:08:03 7.3 C 7.35 g/m*3 7.3 C 0 km/h
2388 07-11-2010 01:20:03 7.3 C 7.35 g/m*3 7.3 C 0 km/h
2389 07-11-2010 01:32:03 7.2 C 7.3 g/m*3 7.2 C 0 km/h
2390 07-11-2010 01:44:03 7.1 C 7.25 g/m*3 7.1 C 0 km/h
2391 07-11-2010 01:56:03 7 C 7.21 g/m*3 7 C 0 km/h
2392 07-11-2010 02:08:03 6.7 C 7.14 g/m*3 6.7 C 0 km/h
2393 07-11-2010 02:20:03 6.7 C 7.14 g/m*3 6.7 C 0 km/h
2394 07-11-2010 02:32:03 7 C 7.21 g/m*3 7 C 0 km/h
2395 07-11-2010 02:44:03 7.2 C 7.38 g/m*3 7.2 C 0 km/h
2396 07-11-2010 02:56:03 7.3 C 7.35 g/m*3 7.3 C 0 km/h
2397 07-11-2010 03:08:03 7.3 C 7.35 g/m*3 7.3 C 0 km/h
2398 07-11-2010 03:20:03 7.3 C 7.35 g/m*3 7.3 C 0 km/h
2399 07-11-2010 03:32:04 7.3 C 7.43 g/m*3 7.3 C 0 km/h
2400 07-11-2010 03:44:04 7.3 C 7.43 g/m*3 7.3 C 0 km/h
Sensor: Nr:Datum:Temp:Abs-Feuchte:Windchill:Wind:
Aussen-T/F 2401 07-11-2010 03:56:04 7.3 C 7.43 g/m*3 7.3 C 0 km/h
2402 07-11-2010 04:08:04 7.3 C 7.43 g/m*3 7.3 C 0 km/h
2403 07-11-2010 04:20:04 7.2 C 7.38 g/m*3 7.2 C 0 km/h
2404 07-11-2010 04:32:04 7.2 C 7.38 g/m*3 7.2 C 0 km/h
2405 07-11-2010 04:44:04 7.2 C 7.3 g/m*3 7.2 C 0 km/h
2406 07-11-2010 04:56:04 7 C 7.21 g/m*3 7 C 0 km/h
2407 07-11-2010 05:08:04 6.9 C 7.24 g/m*3 6.9 C 0 km/h
2408 07-11-2010 05:20:04 6.8 C 7.19 g/m*3 6.8 C 0 km/h
2409 07-11-2010 05:32:04 6.9 C 7.24 g/m*3 6.9 C 0 km/h
2410 07-11-2010 05:44:04 6.8 C 7.19 g/m*3 6.8 C 0 km/h
2411 07-11-2010 05:56:04 6.6 C 7.1 g/m*3 6.6 C 0 km/h
2412 07-11-2010 06:08:04 6.4 C 7 g/m*3 6.4 C 0 km/h
2413 07-11-2010 06:20:04 6.3 C 6.96 g/m*3 6.3 C 0 km/h
2414 07-11-2010 06:32:04 6.4 C 7 g/m*3 6.4 C 0 km/h
2415 07-11-2010 06:44:04 6.7 C 7.14 g/m*3 6.7 C 0 km/h
2416 07-11-2010 06:56:04 6.6 C 7.1 g/m*3 6.6 C 0 km/h
2417 07-11-2010 07:08:04 6.4 C 7 g/m*3 6.4 C 0 km/h
2418 07-11-2010 07:20:04 6.7 C 7.14 g/m*3 6.7 C 0 km/h
2419 07-11-2010 07:32:04 6.7 C 7.14 g/m*3 6.7 C 0 km/h
2420 07-11-2010 07:44:05 6.8 C 7.19 g/m*3 6.8 C 0 km/h
2421 07-11-2010 07:56:05 6.9 C 7.24 g/m*3 6.9 C 0 km/h
2422 07-11-2010 08:08:01 7 C 7.21 g/m*3 7 C 0 km/h
2423 07-11-2010 08:20:02 7.1 C 7.25 g/m*3 7.1 C 0 km/h
2424 07-11-2010 08:32:01 7.2 C 7.3 g/m*3 7.2 C 0 km/h
2425 07-11-2010 08:44:01 7.2 C 7.3 g/m*3 7.2 C 0 km/h
Sensor: Nr:Datum:Temp:Abs-Feuchte:Windchill:Wind:
Aussen-T/F 2426 07-11-2010 08:56:01 7.3 C 7.35 g/m*3 7.3 C 0 km/h
2427 07-11-2010 09:08:01 7.4 C 7.48 g/m*3 7.4 C 0 km/h
2428 07-11-2010 09:20:02 7.4 C 7.48 g/m*3 7.4 C 0 km/h
2429 07-11-2010 09:32:01 7.5 C 7.52 g/m*3 7.5 C 0 km/h
2430 07-11-2010 09:44:01 7.4 C 7.4 g/m*3 7.4 C 0 km/h
2431 07-11-2010 09:56:01 7.6 C 7.49 g/m*3 7.6 C 0 km/h
2432 07-11-2010 10:08:02 7.8 C 7.67 g/m*3 7.8 C 0 km/h
2433 07-11-2010 10:20:01 7.7 C 7.62 g/m*3 7.7 C 0 km/h
2434 07-11-2010 10:32:02 7.9 C 7.72 g/m*3 7.9 C 0 km/h
2435 07-11-2010 10:44:02 7.8 C 7.67 g/m*3 7.8 C 0 km/h
2436 07-11-2010 10:56:02 7.9 C 7.72 g/m*3 7.9 C 0 km/h
2437 07-11-2010 11:08:01 7.9 C 7.64 g/m*3 7.9 C 0 km/h
2438 07-11-2010 11:20:02 8 C 7.69 g/m*3 8 C 0 km/h
2439 07-11-2010 11:32:02 8 C 7.61 g/m*3 8 C 0 km/h
2440 07-11-2010 11:44:02 8 C 7.61 g/m*3 8 C 0 km/h
2441 07-11-2010 11:56:02 8.4 C 7.8 g/m*3 8.4 C 0 km/h
2442 07-11-2010 12:08:01 8.5 C 7.85 g/m*3 8.5 C 0 km/h
2443 07-11-2010 12:20:02 9 C 8.02 g/m*3 9 C 0 km/h
2444 07-11-2010 12:32:02 8.9 C 7.97 g/m*3 8.9 C 0 km/h
2445 07-11-2010 12:44:02 8.6 C 7.82 g/m*3 8.6 C 0 km/h
2446 07-11-2010 12:56:02 8.7 C 7.7 g/m*3 8.7 C 0 km/h
2447 07-11-2010 13:08:02 8.8 C 7.75 g/m*3 8.8 C 0 km/h
2448 07-11-2010 13:20:02 8.6 C 7.56 g/m*3 8.6 C 0 km/h
2449 07-11-2010 13:32:02 8.4 C 7.38 g/m*3 8.4 C 0 km/h
2450 07-11-2010 13:44:02 8.4 C 7.47 g/m*3 8.4 C 0 km/h
Sensor: Nr:Datum:Temp:Abs-Feuchte:Windchill:Wind:
Aussen-T/F 2451 07-11-2010 13:56:02 8.2 C 7.37 g/m*3 8.2 C 0 km/h
2452 07-11-2010 14:08:02 8.2 C 7.37 g/m*3 8.2 C 0 km/h
2453 07-11-2010 14:20:02 8.2 C 7.37 g/m*3 8.2 C 0 km/h
2454 07-11-2010 14:32:02 8.2 C 7.45 g/m*3 8.2 C 0 km/h
2455 07-11-2010 14:44:02 8.4 C 7.55 g/m*3 8.4 C 0 km/h
2456 07-11-2010 14:56:02 8.1 C 7.41 g/m*3 8.1 C 0 km/h
2457 07-11-2010 15:08:02 7.7 C 7.22 g/m*3 7.7 C 0 km/h
2458 07-11-2010 15:20:02 7.5 C 7.12 g/m*3 7.5 C 0 km/h
2459 07-11-2010 15:32:02 7.6 C 7.25 g/m*3 7.6 C 0 km/h
2460 07-11-2010 15:44:02 7.5 C 7.2 g/m*3 7.5 C 0 km/h
2461 07-11-2010 15:56:02 7.2 C 7.06 g/m*3 7.2 C 0 km/h
2462 07-11-2010 16:08:01 7.1 C 7.02 g/m*3 7.1 C 0 km/h
2463 07-11-2010 16:20:01 6.8 C 6.96 g/m*3 6.8 C 0 km/h
2464 07-11-2010 16:32:02 6.7 C 6.91 g/m*3 6.7 C 0 km/h
2465 07-11-2010 16:44:02 6.7 C 6.91 g/m*3 6.7 C 0 km/h
2466 07-11-2010 16:56:02 6.8 C 7.04 g/m*3 6.8 C 0 km/h
2467 07-11-2010 17:08:02 6.8 C 7.04 g/m*3 6.8 C 0 km/h
2468 07-11-2010 17:20:02 6.7 C 6.99 g/m*3 6.7 C 0 km/h
2469 07-11-2010 17:32:02 6.8 C 7.04 g/m*3 6.8 C 0 km/h
2470 07-11-2010 17:44:02 6.7 C 6.99 g/m*3 6.7 C 0 km/h
2471 07-11-2010 17:56:02 6.8 C 7.04 g/m*3 6.8 C 0 km/h
2472 07-11-2010 18:08:01 6.5 C 6.9 g/m*3 6.5 C 0 km/h
2473 07-11-2010 18:20:02 6.7 C 6.99 g/m*3 6.7 C 0 km/h
2474 07-11-2010 18:32:01 6.8 C 7.04 g/m*3 6.8 C 0 km/h
2475 07-11-2010 18:44:01 6.7 C 6.99 g/m*3 6.7 C 0 km/h
Sensor: Nr:Datum:Temp:Abs-Feuchte:Windchill:Wind:
Aussen-T/F 2476 07-11-2010 18:56:02 6.2 C 6.77 g/m*3 6.2 C 0 km/h
2477 07-11-2010 19:08:01 6 C 6.68 g/m*3 6 C 0 km/h
2478 07-11-2010 19:20:02 5.9 C 6.71 g/m*3 5.9 C 0 km/h
2479 07-11-2010 19:32:01 5.7 C 6.62 g/m*3 5.7 C 0 km/h
2480 07-11-2010 19:44:01 5.7 C 6.62 g/m*3 5.7 C 0 km/h
2481 07-11-2010 19:56:02 5.3 C 6.45 g/m*3 5.3 C 0 km/h
2482 07-11-2010 20:08:01 5.2 C 6.4 g/m*3 5.2 C 0 km/h
2483 07-11-2010 20:20:02 5.2 C 6.4 g/m*3 5.2 C 0 km/h
2484 07-11-2010 20:32:01 5.2 C 6.4 g/m*3 5.2 C 0 km/h
2485 07-11-2010 20:44:01 5.2 C 6.4 g/m*3 5.2 C 0 km/h
2486 07-11-2010 20:56:01 5.1 C 6.36 g/m*3 5.1 C 0 km/h
2487 07-11-2010 21:08:01 5.1 C 6.36 g/m*3 5.1 C 0 km/h
2488 07-11-2010 21:20:01 5.1 C 6.36 g/m*3 5.1 C 0 km/h
2489 07-11-2010 21:32:01 5 C 6.32 g/m*3 5 C 0 km/h
2490 07-11-2010 21:44:01 4.9 C 6.28 g/m*3 4.9 C 0 km/h
2491 07-11-2010 21:56:01 4.8 C 6.3 g/m*3 4.8 C 0 km/h
2492 07-11-2010 22:08:02 4.8 C 6.3 g/m*3 4.8 C 0 km/h
2493 07-11-2010 22:21:03 5 C 6.32 g/m*3 5 C 0 km/h
2494 07-11-2010 22:33:03 5 C 6.32 g/m*3 5 C 0 km/h
2495 07-11-2010 22:45:03 4.9 C 6.35 g/m*3 4.9 C 0 km/h
2496 07-11-2010 22:57:03 4.8 C 6.3 g/m*3 4.8 C 0 km/h
2497 07-11-2010 23:09:03 4.7 C 6.26 g/m*3 4.7 C 0 km/h
2498 07-11-2010 23:21:03 4.7 C 6.26 g/m*3 4.7 C 0 km/h
2499 07-11-2010 23:33:03 4.7 C 6.26 g/m*3 4.7 C 0 km/h
2500 07-11-2010 23:45:03 4.6 C 6.22 g/m*3 4.6 C 0 km/h
Sensor: Nr:Datum:Temp:Abs-Feuchte:Windchill:Wind:
Aussen-T/F 2501 07-11-2010 23:57:03 4.5 C 6.11 g/m*3 4.5 C 0 km/h
2502 08-11-2010 00:09:03 4.4 C 6.07 g/m*3 4.4 C 0 km/h
2503 08-11-2010 00:21:03 4.1 C 5.95 g/m*3 4.1 C 0 km/h
2504 08-11-2010 00:33:03 3.9 C 5.94 g/m*3 3.9 C 0 km/h
2505 08-11-2010 00:45:03 3.8 C 5.9 g/m*3 3.8 C 0 km/h
2506 08-11-2010 00:57:04 4 C 5.91 g/m*3 4 C 0 km/h
2507 08-11-2010 01:09:04 4.1 C 5.95 g/m*3 4.1 C 0 km/h
2508 08-11-2010 01:21:04 4.3 C 6.03 g/m*3 4.3 C 0 km/h
2509 08-11-2010 01:33:04 4.3 C 6.03 g/m*3 4.3 C 0 km/h
2510 08-11-2010 01:45:04 4.1 C 5.95 g/m*3 4.1 C 0 km/h
2511 08-11-2010 01:57:04 3.8 C 5.9 g/m*3 3.8 C 0 km/h
2512 08-11-2010 02:09:04 3.5 C 5.78 g/m*3 3.5 C 0 km/h
2513 08-11-2010 02:21:04 3.9 C 5.94 g/m*3 3.9 C 0 km/h
2514 08-11-2010 02:33:04 4.1 C 5.95 g/m*3 4.1 C 0 km/h
2515 08-11-2010 02:45:04 4.3 C 6.03 g/m*3 4.3 C 0 km/h
2516 08-11-2010 02:57:04 4.4 C 6.14 g/m*3 4.4 C 0 km/h
2517 08-11-2010 03:09:04 4.5 C 6.18 g/m*3 4.5 C 0 km/h
2518 08-11-2010 03:21:04 4.5 C 6.18 g/m*3 4.5 C 0 km/h
2519 08-11-2010 03:33:04 4.5 C 6.18 g/m*3 4.5 C 0 km/h
2520 08-11-2010 03:45:04 4.4 C 6.14 g/m*3 4.4 C 0 km/h
2521 08-11-2010 03:57:04 4.4 C 6.14 g/m*3 4.4 C 0 km/h
2522 08-11-2010 04:09:04 4.4 C 6.14 g/m*3 4.4 C 0 km/h
2523 08-11-2010 04:21:04 4.4 C 6.14 g/m*3 4.4 C 0 km/h
2524 08-11-2010 04:33:04 4.4 C 6.14 g/m*3 4.4 C 0 km/h
2525 08-11-2010 04:45:04 4.4 C 6.14 g/m*3 4.4 C 0 km/h
Sensor: Nr:Datum:Temp:Abs-Feuchte:Windchill:Wind:
Aussen-T/F 2526 08-11-2010 04:57:04 4.4 C 6.14 g/m*3 4.4 C 0 km/h
2527 08-11-2010 05:09:05 4.5 C 6.18 g/m*3 4.5 C 0 km/h
2528 08-11-2010 05:21:05 4.5 C 6.18 g/m*3 4.5 C 0 km/h
2529 08-11-2010 05:33:05 4.6 C 6.22 g/m*3 4.6 C 0 km/h
2530 08-11-2010 05:45:05 4.7 C 6.26 g/m*3 4.7 C 0 km/h
2531 08-11-2010 05:57:05 4.7 C 6.26 g/m*3 4.7 C 0 km/h
2532 08-11-2010 06:09:05 4.8 C 6.3 g/m*3 4.8 C 0 km/h
2533 08-11-2010 06:21:05 4.8 C 6.3 g/m*3 4.8 C 0 km/h
2534 08-11-2010 06:33:05 4.9 C 6.35 g/m*3 4.9 C 0 km/h
2535 08-11-2010 06:45:05 4.9 C 6.35 g/m*3 4.9 C 0 km/h
2536 08-11-2010 06:57:05 4.9 C 6.35 g/m*3 4.9 C 0 km/h
2537 08-11-2010 07:09:05 4.8 C 6.3 g/m*3 4.8 C 0 km/h
2538 08-11-2010 07:21:03 4.4 C 6.14 g/m*3 4.4 C 0 km/h
2539 08-11-2010 07:33:02 4.6 C 6.22 g/m*3 4.6 C 0 km/h
2540 08-11-2010 07:45:01 4.9 C 6.35 g/m*3 4.9 C 0 km/h
2541 08-11-2010 07:57:01 5 C 6.32 g/m*3 5 C 0 km/h
2542 08-11-2010 08:09:02 4.9 C 6.35 g/m*3 4.9 C 0 km/h
2543 08-11-2010 08:21:01 5 C 6.32 g/m*3 5 C 0 km/h
2544 08-11-2010 08:33:02 4.9 C 6.35 g/m*3 4.9 C 0 km/h
2545 08-11-2010 08:45:02 4.9 C 6.35 g/m*3 4.9 C 0 km/h
2546 08-11-2010 08:57:02 5.1 C 6.36 g/m*3 5.1 C 0 km/h
2547 08-11-2010 09:09:02 5.4 C 6.49 g/m*3 5.4 C 0 km/h
2548 08-11-2010 09:21:02 5.6 C 6.57 g/m*3 5.6 C 0 km/h
2549 08-11-2010 09:33:02 6 C 6.68 g/m*3 6 C 0 km/h
2550 08-11-2010 09:45:02 6 C 6.6 g/m*3 6 C 0 km/h
Sensor: Nr:Datum:Temp:Abs-Feuchte:Windchill:Wind:
Aussen-T/F 2551 08-11-2010 09:57:02 6.2 C 6.55 g/m*3 6.2 C 0 km/h
2552 08-11-2010 10:09:02 7.1 C 6.86 g/m*3 7.1 C 0 km/h
2553 08-11-2010 10:21:02 6.9 C 6.54 g/m*3 6.9 C 0 km/h
2554 08-11-2010 10:33:02 7 C 6.43 g/m*3 7 C 0 km/h
2555 08-11-2010 10:45:01 7.2 C 6.36 g/m*3 7.2 C 0 km/h
2556 08-11-2010 10:57:01 7.2 C 6.28 g/m*3 7.2 C 0 km/h
2557 08-11-2010 11:09:02 7.5 C 6.08 g/m*3 7.5 C 0 km/h
2558 08-11-2010 11:21:01 7.6 C 5.88 g/m*3 7.6 C 0 km/h
2559 08-11-2010 11:33:02 7.1 C 5.54 g/m*3 7.1 C 0 km/h
2560 08-11-2010 11:45:02 7.2 C 5.65 g/m*3 7.2 C 0 km/h
2561 08-11-2010 11:57:02 6.9 C 5.62 g/m*3 6.9 C 0 km/h
2562 08-11-2010 12:09:02 7.4 C 5.65 g/m*3 7.4 C 0 km/h
2563 08-11-2010 12:21:02 8 C 5.29 g/m*3 8 C 0 km/h
2564 08-11-2010 12:33:02 6.3 C 5.03 g/m*3 6.3 C 0 km/h
2565 08-11-2010 12:45:02 6.1 C 5.26 g/m*3 6.1 C 0 km/h
2566 08-11-2010 12:57:02 6.1 C 5.26 g/m*3 6.1 C 0 km/h
2567 08-11-2010 13:09:02 6.4 C 5.29 g/m*3 6.4 C 0 km/h
2568 08-11-2010 13:21:02 7.4 C 5.33 g/m*3 7.4 C 0 km/h
2569 08-11-2010 13:33:03 8 C 5.29 g/m*3 8 C 0 km/h
2570 08-11-2010 13:45:02 7.4 C 4.85 g/m*3 7.4 C 0 km/h
2571 08-11-2010 13:57:03 7 C 4.96 g/m*3 7 C 0 km/h
2572 08-11-2010 14:09:01 7.1 C 4.84 g/m*3 7.1 C 0 km/h
2573 08-11-2010 14:21:02 6.7 C 4.79 g/m*3 6.7 C 0 km/h
2574 08-11-2010 14:33:01 7.1 C 4.68 g/m*3 7.1 C 0 km/h
2575 08-11-2010 14:45:02 6.8 C 4.59 g/m*3 6.8 C 0 km/h
Sensor: Nr:Datum:Temp:Abs-Feuchte:Windchill:Wind:
Aussen-T/F 2576 08-11-2010 14:57:02 6.7 C 4.79 g/m*3 6.7 C 0 km/h
2577 08-11-2010 15:09:01 6.1 C 4.68 g/m*3 6.1 C 0 km/h
2578 08-11-2010 15:21:02 6.6 C 4.53 g/m*3 6.6 C 0 km/h
2579 08-11-2010 15:33:01 6.1 C 4.46 g/m*3 6.1 C 0 km/h
2580 08-11-2010 15:45:02 4.8 C 4.76 g/m*3 4.8 C 0 km/h
2581 08-11-2010 15:57:02 4.4 C 4.83 g/m*3 4.4 C 0 km/h
2582 08-11-2010 16:09:02 3.7 C 4.92 g/m*3 3.7 C 0 km/h
2583 08-11-2010 16:21:02 3.4 C 4.89 g/m*3 3.4 C 0 km/h
2584 08-11-2010 16:33:02 2.9 C 4.84 g/m*3 2.9 C 0 km/h
2585 08-11-2010 16:45:02 2.6 C 4.86 g/m*3 2.6 C 0 km/h
2586 08-11-2010 16:57:02 2.3 C 4.82 g/m*3 2.3 C 0 km/h
2587 08-11-2010 17:09:02 2.5 C 4.94 g/m*3 2.5 C 0 km/h
2588 08-11-2010 17:21:02 2.3 C 4.88 g/m*3 2.3 C 0 km/h
2589 08-11-2010 17:33:02 2 C 4.83 g/m*3 2 C 0 km/h
2590 08-11-2010 17:45:02 2 C 4.83 g/m*3 2 C 0 km/h
2591 08-11-2010 17:57:02 1.6 C 4.76 g/m*3 1.6 C 0 km/h
2592 08-11-2010 18:09:02 1.6 C 4.81 g/m*3 1.6 C 0 km/h
2593 08-11-2010 18:21:02 1.7 C 4.85 g/m*3 1.7 C 0 km/h
2594 08-11-2010 18:33:02 1.5 C 4.78 g/m*3 1.5 C 0 km/h
2595 08-11-2010 18:45:01 1.4 C 4.8 g/m*3 1.4 C 0 km/h
2596 08-11-2010 18:57:01 1.1 C 4.7 g/m*3 1.1 C 0 km/h
2597 08-11-2010 19:09:02 1.6 C 4.87 g/m*3 1.6 C 0 km/h
2598 08-11-2010 19:21:02 2.1 C 5.04 g/m*3 2.1 C 0 km/h
2599 08-11-2010 19:33:02 2.2 C 5.13 g/m*3 2.2 C 0 km/h
2600 08-11-2010 19:45:01 2.6 C 5.27 g/m*3 2.6 C 0 km/h
Sensor: Nr:Datum:Temp:Abs-Feuchte:Windchill:Wind:
Aussen-T/F 2601 08-11-2010 19:57:01 2.8 C 5.28 g/m*3 2.8 C 0 km/h
2602 08-11-2010 20:09:02 3.2 C 5.36 g/m*3 3.2 C 0 km/h
2603 08-11-2010 20:21:01 3.4 C 5.44 g/m*3 3.4 C 0 km/h
2604 08-11-2010 20:33:02 3.5 C 5.41 g/m*3 3.5 C 0 km/h
2605 08-11-2010 20:45:02 3.6 C 5.45 g/m*3 3.6 C 0 km/h
2606 08-11-2010 20:57:02 3.8 C 5.46 g/m*3 3.8 C 0 km/h
2607 08-11-2010 21:09:02 3.9 C 5.49 g/m*3 3.9 C 0 km/h
2608 08-11-2010 21:21:03 3.9 C 5.56 g/m*3 3.9 C 0 km/h
2609 08-11-2010 21:33:02 3.9 C 5.56 g/m*3 3.9 C 0 km/h
2610 08-11-2010 21:45:03 3.9 C 5.56 g/m*3 3.9 C 0 km/h
2611 08-11-2010 21:57:03 3.9 C 5.62 g/m*3 3.9 C 0 km/h
2612 08-11-2010 22:09:02 3.9 C 5.62 g/m*3 3.9 C 0 km/h
2613 08-11-2010 22:21:02 4 C 5.59 g/m*3 4 C 0 km/h
2614 08-11-2010 22:33:02 4.2 C 5.73 g/m*3 4.2 C 0 km/h
2615 08-11-2010 22:45:02 4.5 C 5.85 g/m*3 4.5 C 0 km/h
2616 08-11-2010 22:57:02 4.5 C 5.78 g/m*3 4.5 C 0 km/h
2617 08-11-2010 23:10:05 4.6 C 5.69 g/m*3 4.6 C 0 km/h
2618 08-11-2010 23:22:05 4.5 C 5.65 g/m*3 4.5 C 0 km/h
2619 08-11-2010 23:34:05 4.4 C 5.55 g/m*3 4.4 C 0 km/h
2620 08-11-2010 23:46:05 4.4 C 5.62 g/m*3 4.4 C 0 km/h
2621 08-11-2010 23:58:05 4.3 C 5.58 g/m*3 4.3 C 0 km/h
2622 09-11-2010 00:10:05 4.3 C 5.58 g/m*3 4.3 C 0 km/h
2623 09-11-2010 00:22:05 4.1 C 5.57 g/m*3 4.1 C 0 km/h
2624 09-11-2010 00:34:05 4.1 C 5.63 g/m*3 4.1 C 0 km/h
2625 09-11-2010 00:46:05 4.4 C 5.75 g/m*3 4.4 C 0 km/h
Sensor: Nr:Datum:Temp:Abs-Feuchte:Windchill:Wind:
Aussen-T/F 2626 09-11-2010 00:58:06 4.3 C 5.71 g/m*3 4.3 C 0 km/h
2627 09-11-2010 01:10:06 4.1 C 5.7 g/m*3 4.1 C 0 km/h
2628 09-11-2010 01:22:06 4.2 C 5.73 g/m*3 4.2 C 0 km/h
2629 09-11-2010 01:34:06 4.3 C 5.77 g/m*3 4.3 C 0 km/h
2630 09-11-2010 01:46:06 4.3 C 5.77 g/m*3 4.3 C 0 km/h
2631 09-11-2010 01:58:06 4.1 C 5.7 g/m*3 4.1 C 0 km/h
2632 09-11-2010 02:10:06 4.1 C 5.7 g/m*3 4.1 C 0 km/h
2633 09-11-2010 02:22:06 4.1 C 5.7 g/m*3 4.1 C 0 km/h
2634 09-11-2010 02:34:06 4.1 C 5.76 g/m*3 4.1 C 0 km/h
2635 09-11-2010 02:46:06 4.3 C 5.84 g/m*3 4.3 C 0 km/h
2636 09-11-2010 02:58:06 4.4 C 5.94 g/m*3 4.4 C 0 km/h
2637 09-11-2010 03:10:06 4.3 C 5.9 g/m*3 4.3 C 0 km/h
2638 09-11-2010 03:22:06 4.5 C 5.98 g/m*3 4.5 C 0 km/h
2639 09-11-2010 03:34:06 4.4 C 5.94 g/m*3 4.4 C 0 km/h
2640 09-11-2010 03:46:06 4.4 C 5.94 g/m*3 4.4 C 0 km/h
2641 09-11-2010 03:58:06 4.7 C 6.06 g/m*3 4.7 C 0 km/h
2642 09-11-2010 04:10:06 4.3 C 5.9 g/m*3 4.3 C 0 km/h
2643 09-11-2010 04:22:06 4.3 C 5.9 g/m*3 4.3 C 0 km/h
2644 09-11-2010 04:34:06 4.6 C 6.02 g/m*3 4.6 C 0 km/h
2645 09-11-2010 04:46:06 4.5 C 5.98 g/m*3 4.5 C 0 km/h
2646 09-11-2010 04:58:06 4.5 C 5.98 g/m*3 4.5 C 0 km/h
2647 09-11-2010 05:10:07 4.7 C 6.06 g/m*3 4.7 C 0 km/h
2648 09-11-2010 05:22:07 4.7 C 6.06 g/m*3 4.7 C 0 km/h
2649 09-11-2010 05:34:07 4.7 C 6.06 g/m*3 4.7 C 0 km/h
2650 09-11-2010 05:46:07 4.8 C 6.1 g/m*3 4.8 C 0 km/h
Sensor: Nr:Datum:Temp:Abs-Feuchte:Windchill:Wind:
Aussen-T/F 2651 09-11-2010 05:58:07 4.8 C 6.1 g/m*3 4.8 C 0 km/h
2652 09-11-2010 06:10:07 5 C 6.12 g/m*3 5 C 0 km/h
2653 09-11-2010 06:22:07 5.1 C 6.16 g/m*3 5.1 C 0 km/h
2654 09-11-2010 06:34:07 5.1 C 6.16 g/m*3 5.1 C 0 km/h
2655 09-11-2010 06:46:07 5.1 C 6.16 g/m*3 5.1 C 0 km/h
2656 09-11-2010 06:58:07 5.2 C 6.2 g/m*3 5.2 C 0 km/h
2657 09-11-2010 07:10:07 5.3 C 6.24 g/m*3 5.3 C 0 km/h
2658 09-11-2010 07:22:04 5.4 C 6.28 g/m*3 5.4 C 0 km/h
2659 09-11-2010 07:34:04 5.6 C 6.29 g/m*3 5.6 C 0 km/h
2660 09-11-2010 07:46:01 5.7 C 6.19 g/m*3 5.7 C 0 km/h
2661 09-11-2010 07:58:01 5.9 C 6.2 g/m*3 5.9 C 0 km/h
2662 09-11-2010 08:10:02 6.1 C 6.06 g/m*3 6.1 C 0 km/h
2663 09-11-2010 08:22:02 6.2 C 6.1 g/m*3 6.2 C 0 km/h
2664 09-11-2010 08:34:02 6.5 C 6.15 g/m*3 6.5 C 0 km/h
2665 09-11-2010 08:46:01 6.5 C 6 g/m*3 6.5 C 0 km/h
2666 09-11-2010 08:58:01 6.8 C 6.12 g/m*3 6.8 C 0 km/h
2667 09-11-2010 09:10:02 7 C 6.04 g/m*3 7 C 0 km/h
2668 09-11-2010 09:22:02 7 C 6.04 g/m*3 7 C 0 km/h
2669 09-11-2010 09:34:02 6.7 C 6.08 g/m*3 6.7 C 0 km/h
2670 09-11-2010 09:46:02 6.5 C 6 g/m*3 6.5 C 0 km/h
2671 09-11-2010 09:58:02 7.3 C 6.32 g/m*3 7.3 C 0 km/h
2672 09-11-2010 10:10:01 7.1 C 6.08 g/m*3 7.1 C 0 km/h
2673 09-11-2010 10:22:02 6.6 C 6.11 g/m*3 6.6 C 0 km/h
2674 09-11-2010 10:34:01 7.6 C 6.61 g/m*3 7.6 C 0 km/h
2675 09-11-2010 10:46:02 9 C 6.26 g/m*3 9 C 0 km/h
Sensor: Nr:Datum:Temp:Abs-Feuchte:Windchill:Wind:
Aussen-T/F 2676 09-11-2010 10:58:02 9.2 C 6.16 g/m*3 9.2 C 0 km/h
2677 09-11-2010 11:10:01 9.1 C 6.03 g/m*3 9.1 C 0 km/h
2678 09-11-2010 11:22:02 9.4 C 6.24 g/m*3 9.4 C 0 km/h
2679 09-11-2010 11:34:01 9.2 C 6.16 g/m*3 9.2 C 0 km/h
2680 09-11-2010 11:46:03 8.7 C 6.4 g/m*3 8.7 C 0 km/h
2681 09-11-2010 11:58:03 9.4 C 6.6 g/m*3 9.4 C 0 km/h
2682 09-11-2010 12:10:02 9.2 C 6.43 g/m*3 9.2 C 0 km/h
2683 09-11-2010 12:22:02 9.8 C 6.49 g/m*3 9.8 C 0 km/h
2684 09-11-2010 12:34:02 9.6 C 6.32 g/m*3 9.6 C 0 km/h
2685 09-11-2010 12:46:02 9.4 C 6.42 g/m*3 9.4 C 0 km/h
2686 09-11-2010 12:58:02 9.6 C 6.5 g/m*3 9.6 C 0 km/h
2687 09-11-2010 13:10:01 9.9 C 6.44 g/m*3 9.9 C 0 km/h
2688 09-11-2010 13:22:02 10 C 6.3 g/m*3 10 C 0 km/h
2689 09-11-2010 13:34:02 9.2 C 6.25 g/m*3 9.2 C 0 km/h
2690 09-11-2010 13:46:02 9.7 C 6.73 g/m*3 9.7 C 0 km/h
2691 09-11-2010 13:58:02 9.5 C 6.64 g/m*3 9.5 C 0 km/h
2692 09-11-2010 14:10:03 9.1 C 6.65 g/m*3 9.1 C 0 km/h
2693 09-11-2010 14:22:02 9 C 6.7 g/m*3 9 C 0 km/h
2694 09-11-2010 14:34:02 8.8 C 6.88 g/m*3 8.8 C 0 km/h
2695 09-11-2010 14:46:01 8.7 C 6.92 g/m*3 8.7 C 0 km/h
2696 09-11-2010 14:58:01 8.7 C 7.09 g/m*3 8.7 C 0 km/h
2697 09-11-2010 15:10:02 8.6 C 7.05 g/m*3 8.6 C 0 km/h
2698 09-11-2010 15:22:01 8.5 C 7 g/m*3 8.5 C 0 km/h
2699 09-11-2010 15:34:01 8.4 C 7.04 g/m*3 8.4 C 0 km/h
2700 09-11-2010 15:46:01 8.4 C 7.13 g/m*3 8.4 C 0 km/h
Sensor: Nr:Datum:Temp:Abs-Feuchte:Windchill:Wind:
Aussen-T/F 2701 09-11-2010 15:58:01 8.2 C 7.12 g/m*3 8.2 C 0 km/h
2702 09-11-2010 16:10:02 8.1 C 7.16 g/m*3 8.1 C 0 km/h
2703 09-11-2010 16:22:01 8 C 7.11 g/m*3 8 C 0 km/h
2704 09-11-2010 16:34:02 7.9 C 7.23 g/m*3 7.9 C 0 km/h
2705 09-11-2010 16:46:02 7.8 C 7.18 g/m*3 7.8 C 0 km/h
2706 09-11-2010 16:58:02 7.8 C 7.26 g/m*3 7.8 C 0 km/h
2707 09-11-2010 17:10:02 7.7 C 7.22 g/m*3 7.7 C 0 km/h
2708 09-11-2010 17:22:02 7.5 C 7.12 g/m*3 7.5 C 0 km/h
2709 09-11-2010 17:34:02 7.2 C 6.99 g/m*3 7.2 C 0 km/h
2710 09-11-2010 17:46:02 7.1 C 6.94 g/m*3 7.1 C 0 km/h
2711 09-11-2010 17:58:02 7 C 6.97 g/m*3 7 C 0 km/h
2712 09-11-2010 18:10:03 6.8 C 6.88 g/m*3 6.8 C 0 km/h
2713 09-11-2010 18:22:02 6.7 C 6.84 g/m*3 6.7 C 0 km/h
2714 09-11-2010 18:34:02 6.3 C 6.66 g/m*3 6.3 C 0 km/h
2715 09-11-2010 18:46:01 6.4 C 6.78 g/m*3 6.4 C 0 km/h
2716 09-11-2010 18:58:01 7 C 6.97 g/m*3 7 C 0 km/h
2717 09-11-2010 19:10:02 7 C 7.05 g/m*3 7 C 0 km/h
2718 09-11-2010 19:22:01 7 C 7.05 g/m*3 7 C 0 km/h
2719 09-11-2010 19:34:01 6.7 C 6.91 g/m*3 6.7 C 0 km/h
2720 09-11-2010 19:46:01 6.9 C 7.08 g/m*3 6.9 C 0 km/h
2721 09-11-2010 19:58:01 6.7 C 6.99 g/m*3 6.7 C 0 km/h
2722 09-11-2010 20:10:02 6.7 C 6.99 g/m*3 6.7 C 0 km/h
2723 09-11-2010 20:22:01 6.7 C 6.99 g/m*3 6.7 C 0 km/h
2724 09-11-2010 20:34:01 6.7 C 6.99 g/m*3 6.7 C 0 km/h
2725 09-11-2010 20:46:01 6.9 C 7.08 g/m*3 6.9 C 0 km/h
Sensor: Nr:Datum:Temp:Abs-Feuchte:Windchill:Wind:
Aussen-T/F 2726 09-11-2010 20:58:01 6.9 C 7.08 g/m*3 6.9 C 0 km/h
2727 09-11-2010 21:10:02 6.9 C 7.08 g/m*3 6.9 C 0 km/h
2728 09-11-2010 21:22:01 6.9 C 7.08 g/m*3 6.9 C 0 km/h
2729 09-11-2010 21:34:01 6.9 C 7.08 g/m*3 6.9 C 0 km/h
2730 09-11-2010 21:46:01 6.8 C 7.04 g/m*3 6.8 C 0 km/h
2731 09-11-2010 21:58:01 6.7 C 6.99 g/m*3 6.7 C 0 km/h
2732 09-11-2010 22:10:02 6.7 C 6.99 g/m*3 6.7 C 0 km/h
2733 09-11-2010 22:23:03 6.7 C 6.99 g/m*3 6.7 C 0 km/h
2734 09-11-2010 22:35:03 6.7 C 6.99 g/m*3 6.7 C 0 km/h
2735 09-11-2010 22:47:03 6.9 C 7.08 g/m*3 6.9 C 0 km/h
2736 09-11-2010 22:59:03 6.9 C 7.08 g/m*3 6.9 C 0 km/h
2737 09-11-2010 23:11:03 6.9 C 7.08 g/m*3 6.9 C 0 km/h
2738 09-11-2010 23:23:03 6.9 C 7.08 g/m*3 6.9 C 0 km/h
2739 09-11-2010 23:35:03 6.9 C 7.08 g/m*3 6.9 C 0 km/h
2740 09-11-2010 23:47:03 6.8 C 7.04 g/m*3 6.8 C 0 km/h
2741 09-11-2010 23:59:03 6.7 C 6.99 g/m*3 6.7 C 0 km/h
2742 10-11-2010 00:11:03 6.6 C 6.95 g/m*3 6.6 C 0 km/h
2743 10-11-2010 00:23:03 6.4 C 6.85 g/m*3 6.4 C 0 km/h
2744 10-11-2010 00:35:03 6.3 C 6.81 g/m*3 6.3 C 0 km/h
2745 10-11-2010 00:47:03 6.7 C 6.99 g/m*3 6.7 C 0 km/h
2746 10-11-2010 00:59:03 6.8 C 7.04 g/m*3 6.8 C 0 km/h
2747 10-11-2010 01:11:03 6.9 C 7.08 g/m*3 6.9 C 0 km/h
2748 10-11-2010 01:23:03 6.9 C 7.16 g/m*3 6.9 C 0 km/h
2749 10-11-2010 01:35:03 7 C 7.13 g/m*3 7 C 0 km/h
2750 10-11-2010 01:47:04 6.9 C 7.16 g/m*3 6.9 C 0 km/h
Sensor: Nr:Datum:Temp:Abs-Feuchte:Windchill:Wind:
Aussen-T/F 2751 10-11-2010 01:59:04 6.9 C 7.16 g/m*3 6.9 C 0 km/h
2752 10-11-2010 02:11:04 6.9 C 7.16 g/m*3 6.9 C 0 km/h
2753 10-11-2010 02:23:04 6.9 C 7.16 g/m*3 6.9 C 0 km/h
2754 10-11-2010 02:35:04 6.8 C 7.11 g/m*3 6.8 C 0 km/h
2755 10-11-2010 02:47:04 6.9 C 7.16 g/m*3 6.9 C 0 km/h
2756 10-11-2010 02:59:04 7 C 7.13 g/m*3 7 C 0 km/h
2757 10-11-2010 03:11:04 7.1 C 7.18 g/m*3 7.1 C 0 km/h
2758 10-11-2010 03:23:04 7.1 C 7.18 g/m*3 7.1 C 0 km/h
2759 10-11-2010 03:35:04 7 C 7.13 g/m*3 7 C 0 km/h
2760 10-11-2010 03:47:04 7.2 C 7.22 g/m*3 7.2 C 0 km/h
2761 10-11-2010 03:59:04 7.1 C 7.18 g/m*3 7.1 C 0 km/h
2762 10-11-2010 04:11:04 7 C 7.13 g/m*3 7 C 0 km/h
2763 10-11-2010 04:23:04 7 C 7.13 g/m*3 7 C 0 km/h
2764 10-11-2010 04:35:04 6.8 C 7.11 g/m*3 6.8 C 0 km/h
2765 10-11-2010 04:47:04 6.8 C 7.11 g/m*3 6.8 C 0 km/h
2766 10-11-2010 04:59:04 6.8 C 7.11 g/m*3 6.8 C 0 km/h
2767 10-11-2010 05:11:04 6.8 C 7.11 g/m*3 6.8 C 0 km/h
2768 10-11-2010 05:23:04 6.7 C 7.07 g/m*3 6.7 C 0 km/h
2769 10-11-2010 05:35:04 6.9 C 7.16 g/m*3 6.9 C 0 km/h
2770 10-11-2010 05:47:05 7 C 7.13 g/m*3 7 C 0 km/h
2771 10-11-2010 05:59:05 7.1 C 7.18 g/m*3 7.1 C 0 km/h
2772 10-11-2010 06:11:05 7.1 C 7.18 g/m*3 7.1 C 0 km/h
2773 10-11-2010 06:23:05 7 C 7.13 g/m*3 7 C 0 km/h
2774 10-11-2010 06:35:05 6.9 C 7.16 g/m*3 6.9 C 0 km/h
2775 10-11-2010 06:47:05 6.8 C 7.11 g/m*3 6.8 C 0 km/h
Sensor: Nr:Datum:Temp:Abs-Feuchte:Windchill:Wind:
Aussen-T/F 2776 10-11-2010 06:59:05 6.3 C 6.88 g/m*3 6.3 C 0 km/h
2777 10-11-2010 07:11:05 6.1 C 6.79 g/m*3 6.1 C 0 km/h
2778 10-11-2010 07:23:05 6.1 C 6.79 g/m*3 6.1 C 0 km/h
2779 10-11-2010 07:35:05 6.7 C 6.99 g/m*3 6.7 C 0 km/h
2780 10-11-2010 07:47:03 6.3 C 6.81 g/m*3 6.3 C 0 km/h
2781 10-11-2010 07:59:03 6.5 C 6.97 g/m*3 6.5 C 0 km/h
2782 10-11-2010 08:11:02 6.6 C 7.02 g/m*3 6.6 C 0 km/h
2783 10-11-2010 08:23:03 6.6 C 7.02 g/m*3 6.6 C 0 km/h
2784 10-11-2010 08:35:02 6.7 C 7.07 g/m*3 6.7 C 0 km/h
2785 10-11-2010 08:47:02 6.7 C 6.99 g/m*3 6.7 C 0 km/h
2786 10-11-2010 08:59:02 7 C 7.13 g/m*3 7 C 0 km/h
2787 10-11-2010 09:11:02 7.3 C 7.27 g/m*3 7.3 C 0 km/h
2788 10-11-2010 09:23:02 8.2 C 7.62 g/m*3 8.2 C 0 km/h
2789 10-11-2010 09:35:03 8.3 C 7.67 g/m*3 8.3 C 0 km/h
2790 10-11-2010 09:47:02 8.6 C 7.73 g/m*3 8.6 C 0 km/h
2791 10-11-2010 09:59:03 8.7 C 7.52 g/m*3 8.7 C 0 km/h
2792 10-11-2010 10:11:01 9 C 7.32 g/m*3 9 C 0 km/h
2793 10-11-2010 10:23:02 9.5 C 7.19 g/m*3 9.5 C 0 km/h
2794 10-11-2010 10:35:02 9.6 C 6.96 g/m*3 9.6 C 0 km/h
2795 10-11-2010 10:47:02 9.8 C 6.59 g/m*3 9.8 C 0 km/h
2796 10-11-2010 10:59:02 10.1 C 6.52 g/m*3 10.1 C 0 km/h
2797 10-11-2010 11:11:03 9.6 C 6.41 g/m*3 9.6 C 0 km/h
2798 10-11-2010 11:23:02 9.6 C 6.5 g/m*3 9.6 C 0 km/h
2799 10-11-2010 11:35:02 9.5 C 6.46 g/m*3 9.5 C 0 km/h
2800 10-11-2010 11:47:01 9.6 C 6.5 g/m*3 9.6 C 0 km/h
Sensor: Nr:Datum:Temp:Abs-Feuchte:Windchill:Wind:
Aussen-T/F 2801 10-11-2010 11:59:01 9.9 C 6.54 g/m*3 9.9 C 0 km/h
2802 10-11-2010 12:11:02 9.8 C 6.49 g/m*3 9.8 C 0 km/h
2803 10-11-2010 12:23:01 10.1 C 6.43 g/m*3 10.1 C 0 km/h
2804 10-11-2010 12:35:01 9.8 C 6.49 g/m*3 9.8 C 0 km/h
2805 10-11-2010 12:47:01 10.4 C 6.55 g/m*3 10.4 C 0 km/h
2806 10-11-2010 12:59:01 10.8 C 6.42 g/m*3 10.8 C 0 km/h
2807 10-11-2010 13:11:02 10.9 C 6.47 g/m*3 10.9 C 0 km/h
2808 10-11-2010 13:23:01 11.2 C 6.18 g/m*3 11.2 C 0 km/h
2809 10-11-2010 13:35:01 11.2 C 6.18 g/m*3 11.2 C 0 km/h
2810 10-11-2010 13:47:01 11.2 C 5.98 g/m*3 11.2 C 0 km/h
2811 10-11-2010 13:59:01 10.9 C 5.97 g/m*3 10.9 C 0 km/h
2812 10-11-2010 14:11:01 10.5 C 5.92 g/m*3 10.5 C 0 km/h
2813 10-11-2010 14:23:02 10.5 C 6.01 g/m*3 10.5 C 0 km/h
2814 10-11-2010 14:35:01 10.5 C 6.01 g/m*3 10.5 C 0 km/h
2815 10-11-2010 14:47:02 10.6 C 6.05 g/m*3 10.6 C 0 km/h
2816 10-11-2010 14:59:02 10.5 C 6.11 g/m*3 10.5 C 0 km/h
2817 10-11-2010 15:11:01 10.2 C 6.28 g/m*3 10.2 C 0 km/h
2818 10-11-2010 15:23:02 7.9 C 6.32 g/m*3 7.9 C 0 km/h
2819 10-11-2010 15:35:01 7.4 C 6.44 g/m*3 7.4 C 0 km/h
2820 10-11-2010 15:47:02 7.1 C 6.47 g/m*3 7.1 C 0 km/h
2821 10-11-2010 15:59:02 6.7 C 6.38 g/m*3 6.7 C 0 km/h
2822 10-11-2010 16:11:02 6.5 C 6.22 g/m*3 6.5 C 0 km/h
2823 10-11-2010 16:23:02 6.1 C 6.14 g/m*3 6.1 C 0 km/h
2824 10-11-2010 16:35:02 6.3 C 6.22 g/m*3 6.3 C 0 km/h
2825 10-11-2010 16:47:02 6.1 C 6.14 g/m*3 6.1 C 0 km/h
Sensor: Nr:Datum:Temp:Abs-Feuchte:Windchill:Wind:
Aussen-T/F 2826 10-11-2010 16:59:02 6.2 C 6.18 g/m*3 6.2 C 0 km/h
2827 10-11-2010 17:11:02 6.3 C 6 g/m*3 6.3 C 0 km/h
2828 10-11-2010 17:23:02 6.1 C 5.77 g/m*3 6.1 C 0 km/h
2829 10-11-2010 17:35:01 5.9 C 5.84 g/m*3 5.9 C 0 km/h
2830 10-11-2010 17:47:02 5.7 C 5.69 g/m*3 5.7 C 0 km/h
2831 10-11-2010 17:59:02 5.7 C 5.76 g/m*3 5.7 C 0 km/h
2832 10-11-2010 18:11:01 5.4 C 5.58 g/m*3 5.4 C 0 km/h
2833 10-11-2010 18:23:02 5.3 C 5.68 g/m*3 5.3 C 0 km/h
2834 10-11-2010 18:35:01 5.2 C 5.65 g/m*3 5.2 C 0 km/h
2835 10-11-2010 18:47:02 5.2 C 5.71 g/m*3 5.2 C 0 km/h
2836 10-11-2010 18:59:03 5 C 5.71 g/m*3 5 C 0 km/h
2837 10-11-2010 19:11:02 5.1 C 5.68 g/m*3 5.1 C 0 km/h
2838 10-11-2010 19:23:02 5 C 5.64 g/m*3 5 C 0 km/h
2839 10-11-2010 19:35:02 5.3 C 5.68 g/m*3 5.3 C 0 km/h
2840 10-11-2010 19:47:01 5.3 C 5.61 g/m*3 5.3 C 0 km/h
2841 10-11-2010 19:59:01 5.3 C 5.54 g/m*3 5.3 C 0 km/h
2842 10-11-2010 20:11:02 5.2 C 5.51 g/m*3 5.2 C 0 km/h
2843 10-11-2010 20:23:01 5.4 C 5.51 g/m*3 5.4 C 0 km/h
2844 10-11-2010 20:35:02 5.5 C 5.48 g/m*3 5.5 C 0 km/h
2845 10-11-2010 20:47:02 5.3 C 5.54 g/m*3 5.3 C 0 km/h
2846 10-11-2010 20:59:02 5.3 C 5.48 g/m*3 5.3 C 0 km/h
2847 10-11-2010 21:11:02 5 C 5.5 g/m*3 5 C 0 km/h
2848 10-11-2010 21:23:02 4.8 C 5.63 g/m*3 4.8 C 0 km/h
2849 10-11-2010 21:35:02 4.6 C 5.62 g/m*3 4.6 C 0 km/h
2850 10-11-2010 21:47:02 4.1 C 5.44 g/m*3 4.1 C 0 km/h
Sensor: Nr:Datum:Temp:Abs-Feuchte:Windchill:Wind:
Aussen-T/F 2851 10-11-2010 21:59:02 3.8 C 5.4 g/m*3 3.8 C 0 km/h
2852 10-11-2010 22:11:02 4.1 C 5.5 g/m*3 4.1 C 0 km/h
2853 10-11-2010 22:24:03 4.3 C 5.58 g/m*3 4.3 C 0 km/h
2854 10-11-2010 22:36:04 4.9 C 5.74 g/m*3 4.9 C 0 km/h
2855 10-11-2010 22:48:04 4.9 C 5.54 g/m*3 4.9 C 0 km/h
2856 10-11-2010 23:00:04 4.5 C 5.32 g/m*3 4.5 C 0 km/h
2857 10-11-2010 23:12:04 4.5 C 5.39 g/m*3 4.5 C 0 km/h
2858 10-11-2010 23:24:04 4.2 C 5.35 g/m*3 4.2 C 0 km/h
2859 10-11-2010 23:36:04 4.1 C 5.31 g/m*3 4.1 C 0 km/h
2860 10-11-2010 23:48:04 4.2 C 5.35 g/m*3 4.2 C 0 km/h
2861 11-11-2010 00:00:04 4.5 C 5.39 g/m*3 4.5 C 0 km/h
2862 11-11-2010 00:12:04 4.8 C 5.3 g/m*3 4.8 C 0 km/h
2863 11-11-2010 00:24:04 4.8 C 5.23 g/m*3 4.8 C 0 km/h
2864 11-11-2010 00:36:04 4.5 C 5.19 g/m*3 4.5 C 0 km/h
2865 11-11-2010 00:48:04 4.4 C 5.35 g/m*3 4.4 C 0 km/h
2866 11-11-2010 01:00:04 4.4 C 5.42 g/m*3 4.4 C 0 km/h
2867 11-11-2010 01:12:04 4.5 C 5.46 g/m*3 4.5 C 0 km/h
2868 11-11-2010 01:24:04 4.5 C 5.46 g/m*3 4.5 C 0 km/h
2869 11-11-2010 01:36:04 4.6 C 5.49 g/m*3 4.6 C 0 km/h
2870 11-11-2010 01:48:04 4.5 C 5.39 g/m*3 4.5 C 0 km/h
2871 11-11-2010 02:00:04 5 C 5.5 g/m*3 5 C 0 km/h
2872 11-11-2010 02:12:04 5 C 5.44 g/m*3 5 C 0 km/h
2873 11-11-2010 02:24:04 4.9 C 5.4 g/m*3 4.9 C 0 km/h
2874 11-11-2010 02:36:04 5.1 C 5.4 g/m*3 5.1 C 0 km/h
2875 11-11-2010 02:48:04 5.1 C 5.34 g/m*3 5.1 C 0 km/h
Sensor: Nr:Datum:Temp:Abs-Feuchte:Windchill:Wind:
Aussen-T/F 2876 11-11-2010 03:00:05 5.2 C 5.3 g/m*3 5.2 C 0 km/h
2877 11-11-2010 03:12:05 5.2 C 5.3 g/m*3 5.2 C 0 km/h
2878 11-11-2010 03:24:05 5.2 C 5.23 g/m*3 5.2 C 0 km/h
2879 11-11-2010 03:36:05 4.4 C 5.09 g/m*3 4.4 C 0 km/h
2880 11-11-2010 03:48:05 4.2 C 5.22 g/m*3 4.2 C 0 km/h
2881 11-11-2010 04:00:05 4.6 C 5.29 g/m*3 4.6 C 0 km/h
2882 11-11-2010 04:12:05 4.1 C 5.12 g/m*3 4.1 C 0 km/h
2883 11-11-2010 04:24:05 4.2 C 5.22 g/m*3 4.2 C 0 km/h
2884 11-11-2010 04:36:05 4.5 C 5.32 g/m*3 4.5 C 0 km/h
2885 11-11-2010 04:48:05 4.1 C 5.25 g/m*3 4.1 C 0 km/h
2886 11-11-2010 05:00:05 3.8 C 5.21 g/m*3 3.8 C 0 km/h
2887 11-11-2010 05:12:05 4 C 5.28 g/m*3 4 C 0 km/h
2888 11-11-2010 05:24:05 3.7 C 5.11 g/m*3 3.7 C 0 km/h
2889 11-11-2010 05:36:05 4.6 C 5.23 g/m*3 4.6 C 0 km/h
2890 11-11-2010 05:48:05 4.5 C 5.19 g/m*3 4.5 C 0 km/h
2891 11-11-2010 06:00:05 4.2 C 5.03 g/m*3 4.2 C 0 km/h
2892 11-11-2010 06:12:05 3.5 C 4.92 g/m*3 3.5 C 0 km/h
2893 11-11-2010 06:24:05 3.6 C 5.08 g/m*3 3.6 C 0 km/h
2894 11-11-2010 06:36:05 3.7 C 5.05 g/m*3 3.7 C 0 km/h
2895 11-11-2010 06:48:05 3.5 C 4.98 g/m*3 3.5 C 0 km/h
2896 11-11-2010 07:00:05 3.1 C 4.85 g/m*3 3.1 C 0 km/h
2897 11-11-2010 07:12:05 3.1 C 4.91 g/m*3 3.1 C 0 km/h
2898 11-11-2010 07:24:03 3.6 C 5.08 g/m*3 3.6 C 0 km/h
2899 11-11-2010 07:36:03 4 C 5.09 g/m*3 4 C 0 km/h
2900 11-11-2010 07:48:01 4 C 4.96 g/m*3 4 C 0 km/h
Sensor: Nr:Datum:Temp:Abs-Feuchte:Windchill:Wind:
Aussen-T/F 2901 11-11-2010 08:00:01 3.3 C 4.73 g/m*3 3.3 C 0 km/h
2902 11-11-2010 08:12:02 2.5 C 4.71 g/m*3 2.5 C 0 km/h
2903 11-11-2010 08:24:01 2 C 4.61 g/m*3 2 C 0 km/h
2904 11-11-2010 08:36:02 2.1 C 4.76 g/m*3 2.1 C 0 km/h
2905 11-11-2010 08:48:02 1.7 C 4.74 g/m*3 1.7 C 0 km/h
2906 11-11-2010 09:00:02 2.2 C 4.9 g/m*3 2.2 C 0 km/h
2907 11-11-2010 09:12:02 3.1 C 5.27 g/m*3 3.1 C 0 km/h
2908 11-11-2010 09:24:02 4 C 5.53 g/m*3 4 C 0 km/h
2909 11-11-2010 09:36:02 4.5 C 5.52 g/m*3 4.5 C 0 km/h
2910 11-11-2010 09:48:02 4.5 C 5.19 g/m*3 4.5 C 0 km/h
2911 11-11-2010 10:00:02 4.7 C 4.93 g/m*3 4.7 C 0 km/h
2912 11-11-2010 10:12:02 5 C 4.76 g/m*3 5 C 0 km/h
2913 11-11-2010 10:24:02 5.5 C 4.64 g/m*3 5.5 C 0 km/h
2914 11-11-2010 10:36:02 6.2 C 4.41 g/m*3 6.2 C 0 km/h
2915 11-11-2010 10:48:02 6.5 C 4.12 g/m*3 6.5 C 0 km/h
2916 11-11-2010 11:00:02 6.7 C 3.88 g/m*3 6.7 C 0 km/h
2917 11-11-2010 11:12:02 6.9 C 3.85 g/m*3 6.9 C 0 km/h
2918 11-11-2010 11:24:02 7 C 3.72 g/m*3 7 C 0 km/h
2919 11-11-2010 11:36:02 7.1 C 3.74 g/m*3 7.1 C 0 km/h
2920 11-11-2010 11:48:03 7 C 3.72 g/m*3 7 C 0 km/h
2921 11-11-2010 12:00:03 7.2 C 3.92 g/m*3 7.2 C 0 km/h
2922 11-11-2010 12:12:03 7.2 C 3.85 g/m*3 7.2 C 0 km/h
2923 11-11-2010 12:24:03 7.4 C 3.98 g/m*3 7.4 C 0 km/h
2924 11-11-2010 12:36:04 7.6 C 4.03 g/m*3 7.6 C 0 km/h
2925 11-11-2010 12:48:04 7.9 C 4.11 g/m*3 7.9 C 0 km/h
Sensor: Nr:Datum:Temp:Abs-Feuchte:Windchill:Wind:
Aussen-T/F 2926 11-11-2010 13:00:04 7.9 C 4.11 g/m*3 7.9 C 0 km/h
2927 11-11-2010 13:12:04 7.7 C 4.14 g/m*3 7.7 C 0 km/h
2928 11-11-2010 13:24:04 7.7 C 4.22 g/m*3 7.7 C 0 km/h
2929 11-11-2010 13:36:04 7.6 C 4.11 g/m*3 7.6 C 0 km/h
2930 11-11-2010 13:48:04 7.6 C 4.19 g/m*3 7.6 C 0 km/h
2931 11-11-2010 14:00:04 7.4 C 4.21 g/m*3 7.4 C 0 km/h
2932 11-11-2010 14:12:04 7.4 C 4.29 g/m*3 7.4 C 0 km/h
2933 11-11-2010 14:24:04 7.3 C 4.27 g/m*3 7.3 C 0 km/h
2934 11-11-2010 14:36:04 7.3 C 4.19 g/m*3 7.3 C 0 km/h
2935 11-11-2010 14:48:04 7.4 C 4.21 g/m*3 7.4 C 0 km/h
2936 11-11-2010 15:00:04 7.3 C 4.27 g/m*3 7.3 C 0 km/h
2937 11-11-2010 15:12:04 7.3 C 4.35 g/m*3 7.3 C 0 km/h
2938 11-11-2010 15:24:04 7 C 4.34 g/m*3 7 C 0 km/h
2939 11-11-2010 15:36:04 6.4 C 4.47 g/m*3 6.4 C 0 km/h
2940 11-11-2010 15:48:04 6 C 4.79 g/m*3 6 C 0 km/h
2941 11-11-2010 16:00:04 5.7 C 4.91 g/m*3 5.7 C 0 km/h
2942 11-11-2010 16:12:04 5.7 C 5.05 g/m*3 5.7 C 0 km/h
2943 11-11-2010 16:24:04 5.6 C 5.09 g/m*3 5.6 C 0 km/h
2944 11-11-2010 16:36:04 5.3 C 5.06 g/m*3 5.3 C 0 km/h
2945 11-11-2010 16:48:04 5.4 C 5.3 g/m*3 5.4 C 0 km/h
2946 11-11-2010 17:00:05 5 C 5.3 g/m*3 5 C 0 km/h
2947 11-11-2010 17:12:05 5 C 5.44 g/m*3 5 C 0 km/h
2948 11-11-2010 17:24:05 5.4 C 5.51 g/m*3 5.4 C 0 km/h
2949 11-11-2010 17:36:05 5.6 C 5.59 g/m*3 5.6 C 0 km/h
2950 11-11-2010 17:48:05 5.4 C 5.58 g/m*3 5.4 C 0 km/h
Sensor: Nr:Datum:Temp:Abs-Feuchte:Windchill:Wind:
Aussen-T/F 2951 11-11-2010 18:00:05 5.5 C 5.69 g/m*3 5.5 C 0 km/h
2952 11-11-2010 18:12:05 5.5 C 5.76 g/m*3 5.5 C 0 km/h
2953 11-11-2010 18:24:05 5.6 C 5.87 g/m*3 5.6 C 0 km/h
2954 11-11-2010 18:36:05 5.7 C 5.98 g/m*3 5.7 C 0 km/h
2955 11-11-2010 18:48:01 5.9 C 6.06 g/m*3 5.9 C 0 km/h
2956 11-11-2010 19:00:01 5.9 C 6.13 g/m*3 5.9 C 0 km/h
2957 11-11-2010 19:12:02 5.9 C 6.2 g/m*3 5.9 C 0 km/h
2958 11-11-2010 19:24:02 6.2 C 6.32 g/m*3 6.2 C 0 km/h
2959 11-11-2010 19:36:01 6.5 C 6.37 g/m*3 6.5 C 0 km/h
2960 11-11-2010 19:48:02 6.6 C 6.34 g/m*3 6.6 C 0 km/h
2961 11-11-2010 20:00:02 7 C 6.35 g/m*3 7 C 0 km/h
2962 11-11-2010 20:12:01 7.2 C 6.28 g/m*3 7.2 C 0 km/h
2963 11-11-2010 20:24:02 7.6 C 6.36 g/m*3 7.6 C 0 km/h
2964 11-11-2010 20:36:01 7.7 C 6.41 g/m*3 7.7 C 0 km/h
2965 11-11-2010 20:48:03 8 C 6.28 g/m*3 8 C 0 km/h
2966 11-11-2010 21:00:03 7.9 C 6.41 g/m*3 7.9 C 0 km/h
2967 11-11-2010 21:12:02 8.4 C 6.45 g/m*3 8.4 C 0 km/h
2968 11-11-2010 21:24:02 8.5 C 6.57 g/m*3 8.5 C 0 km/h
2969 11-11-2010 21:36:02 8.7 C 6.66 g/m*3 8.7 C 0 km/h
2970 11-11-2010 21:48:02 8.7 C 6.75 g/m*3 8.7 C 0 km/h
2971 11-11-2010 22:00:02 8.5 C 6.83 g/m*3 8.5 C 0 km/h
2972 11-11-2010 22:12:02 8.7 C 7.09 g/m*3 8.7 C 0 km/h
2973 11-11-2010 22:24:02 9 C 7.32 g/m*3 9 C 0 km/h
2974 11-11-2010 22:36:01 10.2 C 7.52 g/m*3 10.2 C 0 km/h
2975 11-11-2010 22:48:02 10.3 C 7.37 g/m*3 10.3 C 0 km/h
Sensor: Nr:Datum:Temp:Abs-Feuchte:Windchill:Wind:
Aussen-T/F 2976 11-11-2010 23:00:02 10 C 7.42 g/m*3 10 C 0 km/h
2977 11-11-2010 23:12:01 9.9 C 7.75 g/m*3 9.9 C 0 km/h
2978 11-11-2010 23:24:02 9.7 C 7.74 g/m*3 9.7 C 0 km/h
2979 11-11-2010 23:36:01 9.6 C 7.79 g/m*3 9.6 C 0 km/h
2980 11-11-2010 23:48:02 9.7 C 7.74 g/m*3 9.7 C 0 km/h
2981 12-11-2010 00:00:02 10 C 7.52 g/m*3 10 C 0 km/h
2982 12-11-2010 00:12:02 9.7 C 7.01 g/m*3 9.7 C 0 km/h
2983 12-11-2010 00:24:02 9.6 C 6.78 g/m*3 9.6 C 0 km/h
2984 12-11-2010 00:36:02 10 C 6.39 g/m*3 10 C 0 km/h
2985 12-11-2010 00:48:01 9.4 C 6.42 g/m*3 9.4 C 0 km/h
2986 12-11-2010 01:00:01 9.5 C 6.37 g/m*3 9.5 C 0 km/h
2987 12-11-2010 01:12:02 9.3 C 6.11 g/m*3 9.3 C 0 km/h
2988 12-11-2010 01:24:01 10 C 6.01 g/m*3 10 C 0 km/h
2989 12-11-2010 01:36:02 10.2 C 5.71 g/m*3 10.2 C 0 km/h
2990 12-11-2010 01:48:01 10.2 C 5.42 g/m*3 10.2 C 0 km/h
2991 12-11-2010 02:00:01 9.7 C 5.44 g/m*3 9.7 C 0 km/h
2992 12-11-2010 02:12:02 9.4 C 5.61 g/m*3 9.4 C 0 km/h
2993 12-11-2010 02:24:01 10.2 C 5.71 g/m*3 10.2 C 0 km/h
2994 12-11-2010 02:36:02 10.2 C 5.8 g/m*3 10.2 C 0 km/h
2995 12-11-2010 02:49:03 9.9 C 5.6 g/m*3 9.9 C 0 km/h
2996 12-11-2010 03:01:03 9.6 C 5.77 g/m*3 9.6 C 0 km/h
2997 12-11-2010 03:13:04 9.6 C 5.86 g/m*3 9.6 C 0 km/h
2998 12-11-2010 03:25:04 9.3 C 5.75 g/m*3 9.3 C 0 km/h
2999 12-11-2010 03:37:02 9.6 C 5.86 g/m*3 9.6 C 0 km/h
3000 12-11-2010 03:49:02 9.9 C 5.79 g/m*3 9.9 C 0 km/h
Sensor: Nr:Datum:Temp:Abs-Feuchte:Windchill:Wind:
Aussen-T/F 3001 12-11-2010 04:01:02 9.9 C 5.7 g/m*3 9.9 C 0 km/h
3002 12-11-2010 04:13:02 10.1 C 5.48 g/m*3 10.1 C 0 km/h
3003 12-11-2010 04:25:01 9.8 C 5.57 g/m*3 9.8 C 0 km/h
3004 12-11-2010 04:37:02 9.5 C 5.55 g/m*3 9.5 C 0 km/h
3005 12-11-2010 04:49:02 9.7 C 5.72 g/m*3 9.7 C 0 km/h
3006 12-11-2010 05:01:02 9.9 C 5.79 g/m*3 9.9 C 0 km/h
3007 12-11-2010 05:13:02 9.5 C 5.73 g/m*3 9.5 C 0 km/h
3008 12-11-2010 05:25:02 9.8 C 5.85 g/m*3 9.8 C 0 km/h
3009 12-11-2010 05:37:02 10.2 C 5.71 g/m*3 10.2 C 0 km/h
3010 12-11-2010 05:49:01 10.3 C 5.75 g/m*3 10.3 C 0 km/h
3011 12-11-2010 06:01:02 10.6 C 5.66 g/m*3 10.6 C 0 km/h
3012 12-11-2010 06:13:02 10.7 C 5.7 g/m*3 10.7 C 0 km/h
3013 12-11-2010 06:25:02 10.6 C 5.76 g/m*3 10.6 C 0 km/h
3014 12-11-2010 06:37:01 10.6 C 5.86 g/m*3 10.6 C 0 km/h
3015 12-11-2010 06:49:02 10.6 C 5.86 g/m*3 10.6 C 0 km/h
3016 12-11-2010 07:01:01 10.7 C 5.89 g/m*3 10.7 C 0 km/h
3017 12-11-2010 07:13:01 10.5 C 5.82 g/m*3 10.5 C 0 km/h
3018 12-11-2010 07:25:02 10.7 C 5.8 g/m*3 10.7 C 0 km/h
3019 12-11-2010 07:37:01 10.5 C 5.72 g/m*3 10.5 C 0 km/h
3020 12-11-2010 07:49:02 10.7 C 5.8 g/m*3 10.7 C 0 km/h
3021 12-11-2010 08:01:01 10.7 C 5.8 g/m*3 10.7 C 0 km/h
3022 12-11-2010 08:13:01 10.6 C 5.86 g/m*3 10.6 C 0 km/h
3023 12-11-2010 08:25:02 10.8 C 5.83 g/m*3 10.8 C 0 km/h
3024 12-11-2010 08:37:02 10.7 C 5.8 g/m*3 10.7 C 0 km/h
3025 12-11-2010 08:49:01 10.7 C 5.8 g/m*3 10.7 C 0 km/h
Sensor: Nr:Datum:Temp:Abs-Feuchte:Windchill:Wind:
Aussen-T/F 3026 12-11-2010 09:01:02 10.7 C 5.8 g/m*3 10.7 C 0 km/h
3027 12-11-2010 09:13:02 11 C 5.81 g/m*3 11 C 0 km/h
3028 12-11-2010 09:25:01 10.8 C 5.83 g/m*3 10.8 C 0 km/h
3029 12-11-2010 09:37:01 10.8 C 5.93 g/m*3 10.8 C 0 km/h
3030 12-11-2010 09:49:01 10.9 C 5.87 g/m*3 10.9 C 0 km/h
3031 12-11-2010 10:01:02 10.1 C 6.05 g/m*3 10.1 C 0 km/h
3032 12-11-2010 10:13:02 10.5 C 6.11 g/m*3 10.5 C 0 km/h
3033 12-11-2010 10:25:01 10.8 C 6.23 g/m*3 10.8 C 0 km/h
3034 12-11-2010 10:37:01 11 C 6.11 g/m*3 11 C 0 km/h
3035 12-11-2010 10:49:01 11.1 C 6.04 g/m*3 11.1 C 0 km/h
3036 12-11-2010 11:01:02 11.2 C 6.08 g/m*3 11.2 C 0 km/h
3037 12-11-2010 11:13:02 11.1 C 6.14 g/m*3 11.1 C 0 km/h
3038 12-11-2010 11:25:01 11.4 C 6.16 g/m*3 11.4 C 0 km/h
3039 12-11-2010 11:37:01 11.6 C 6.03 g/m*3 11.6 C 0 km/h
3040 12-11-2010 11:49:01 11.8 C 6 g/m*3 11.8 C 0 km/h
3041 12-11-2010 12:01:01 11.9 C 5.93 g/m*3 11.9 C 0 km/h
3042 12-11-2010 12:13:01 12.1 C 5.79 g/m*3 12.1 C 0 km/h
3043 12-11-2010 12:25:02 12.1 C 5.79 g/m*3 12.1 C 0 km/h
3044 12-11-2010 12:37:01 11.7 C 5.86 g/m*3 11.7 C 0 km/h
3045 12-11-2010 12:49:02 11.6 C 6.55 g/m*3 11.6 C 0 km/h
3046 12-11-2010 13:01:02 11.7 C 6.28 g/m*3 11.7 C 0 km/h
3047 12-11-2010 13:13:02 12 C 6.18 g/m*3 12 C 0 km/h
3048 12-11-2010 13:25:02 11.8 C 6.1 g/m*3 11.8 C 0 km/h
3049 12-11-2010 13:37:01 11.4 C 6.36 g/m*3 11.4 C 0 km/h
3050 12-11-2010 13:49:02 11.3 C 6.53 g/m*3 11.3 C 0 km/h
Sensor: Nr:Datum:Temp:Abs-Feuchte:Windchill:Wind:
Aussen-T/F 3051 12-11-2010 14:01:01 11.7 C 6.48 g/m*3 11.7 C 0 km/h
3052 12-11-2010 14:13:01 11.6 C 6.55 g/m*3 11.6 C 0 km/h
3053 12-11-2010 14:25:02 11.6 C 6.55 g/m*3 11.6 C 0 km/h
3054 12-11-2010 14:37:02 11.6 C 6.55 g/m*3 11.6 C 0 km/h
3055 12-11-2010 14:49:02 11.5 C 6.61 g/m*3 11.5 C 0 km/h
3056 12-11-2010 15:01:02 11.5 C 6.61 g/m*3 11.5 C 0 km/h
3057 12-11-2010 15:13:02 11.5 C 6.61 g/m*3 11.5 C 0 km/h
3058 12-11-2010 15:25:02 11.5 C 6.51 g/m*3 11.5 C 0 km/h
3059 12-11-2010 15:37:02 11.8 C 6.53 g/m*3 11.8 C 0 km/h
3060 12-11-2010 15:49:01 11.7 C 6.59 g/m*3 11.7 C 0 km/h
3061 12-11-2010 16:01:02 11.7 C 6.59 g/m*3 11.7 C 0 km/h
3062 12-11-2010 16:13:02 11.5 C 6.51 g/m*3 11.5 C 0 km/h
3063 12-11-2010 16:25:01 11.5 C 6.82 g/m*3 11.5 C 0 km/h
3064 12-11-2010 16:37:02 11.7 C 6.9 g/m*3 11.7 C 0 km/h
3065 12-11-2010 16:49:02 11.3 C 6.83 g/m*3 11.3 C 0 km/h
3066 12-11-2010 17:01:02 11.1 C 6.95 g/m*3 11.1 C 0 km/h
3067 12-11-2010 17:13:03 11 C 7.11 g/m*3 11 C 0 km/h
3068 12-11-2010 17:25:01 11.3 C 7.34 g/m*3 11.3 C 0 km/h
3069 12-11-2010 17:37:02 11.2 C 7.3 g/m*3 11.2 C 0 km/h
3070 12-11-2010 17:49:01 11.2 C 7.3 g/m*3 11.2 C 0 km/h
3071 12-11-2010 18:01:02 10.8 C 7.41 g/m*3 10.8 C 0 km/h
3072 12-11-2010 18:13:02 10.6 C 7.61 g/m*3 10.6 C 0 km/h
3073 12-11-2010 18:25:02 10.5 C 7.86 g/m*3 10.5 C 0 km/h
3074 12-11-2010 18:37:02 10.3 C 7.85 g/m*3 10.3 C 0 km/h
3075 12-11-2010 18:49:02 10.2 C 7.9 g/m*3 10.2 C 0 km/h
Sensor: Nr:Datum:Temp:Abs-Feuchte:Windchill:Wind:
Aussen-T/F 3076 12-11-2010 19:01:02 10.5 C 8.15 g/m*3 10.5 C 0 km/h
3077 12-11-2010 19:13:02 10.2 C 8.09 g/m*3 10.2 C 0 km/h
3078 12-11-2010 19:25:02 10.3 C 8.24 g/m*3 10.3 C 0 km/h
3079 12-11-2010 19:37:01 10.6 C 8.39 g/m*3 10.6 C 0 km/h
3080 12-11-2010 19:49:02 11 C 8.61 g/m*3 11 C 0 km/h
3081 12-11-2010 20:01:02 11.3 C 8.67 g/m*3 11.3 C 0 km/h
3082 12-11-2010 20:13:02 11.6 C 8.83 g/m*3 11.6 C 0 km/h
3083 12-11-2010 20:25:02 11.5 C 8.68 g/m*3 11.5 C 0 km/h
3084 12-11-2010 20:37:02 11.5 C 8.78 g/m*3 11.5 C 0 km/h
3085 12-11-2010 20:49:01 11.7 C 8.89 g/m*3 11.7 C 0 km/h
3086 12-11-2010 21:01:02 11.9 C 9.11 g/m*3 11.9 C 0 km/h
3087 12-11-2010 21:13:02 11.8 C 9.05 g/m*3 11.8 C 0 km/h
3088 12-11-2010 21:25:02 11.8 C 9.16 g/m*3 11.8 C 0 km/h
3089 12-11-2010 21:37:02 12.5 C 9.46 g/m*3 12.5 C 0 km/h
3090 12-11-2010 21:49:02 12.8 C 9.63 g/m*3 12.8 C 0 km/h
3091 12-11-2010 22:01:02 12.8 C 9.41 g/m*3 12.8 C 0 km/h
3092 12-11-2010 22:13:02 13.2 C 9.42 g/m*3 13.2 C 0 km/h
3093 12-11-2010 22:25:02 13.4 C 9.3 g/m*3 13.4 C 0 km/h
3094 12-11-2010 22:37:02 13.4 C 8.95 g/m*3 13.4 C 0 km/h
3095 12-11-2010 22:49:02 13.7 C 9 g/m*3 13.7 C 0 km/h
3096 12-11-2010 23:01:02 13.7 C 8.76 g/m*3 13.7 C 0 km/h
3097 12-11-2010 23:13:02 13.8 C 8.82 g/m*3 13.8 C 0 km/h
3098 12-11-2010 23:25:02 13.8 C 8.7 g/m*3 13.8 C 0 km/h
3099 12-11-2010 23:37:02 14 C 8.56 g/m*3 14 C 0 km/h
3100 12-11-2010 23:49:02 14.1 C 8.62 g/m*3 14.1 C 0 km/h

Legende:
   Min
   Max


Maximal/Minimal-Werte vom 14.10.2010 - 12.11.2010

Sensor Min Max Avg
Temp
(Aussen-T/F)
-1.1 °C
23-10-2010  06:47:05
18.7 °C
04-11-2010  13:05:02
8.2 °C
Abs-Feuchte
(Aussen-T/F)
3.32 g/m*3
27-10-2010  16:39:02
9.69 g/m*3
04-11-2010  06:41:25
6.16 g/m*3
Windchill
(Aussen-T/F)
-1.1 C
23-10-2010  06:47:05
18.7 C
04-11-2010  13:05:02
8.07 C

Die Daten stammen von einer Davis Vantage Pro 2 Wetter-Station und werden unter Linux mit der Software wview2wettercgi und aufbereitet. Alle Angaben erfolgen ohne Gewähr für ihre Vollständigkeit oder Richtigkeit.
Kontakt: Rainer Krienke krienke@uni-koblenz.de . Meine Webseiten an der Uni Koblenz oder privat.
Version: $Revision: 0.78 $